Darstellungsparameter: Aktuell verwendete Einstellungen:
Skalierung der Graphiken ... ?
xyx+y,   Skalierungsfaktor:      Skalierung: Modus: x, Faktor: 1
Darstellungszeitraum ... ?
Vom - - bis: - -   Zeitraum: 20.03.2009 - 19.09.2009
Min/Max/Avg-Anzeige ... ?
Zeige MMA aktuell
Zeige MMA Monat
Zeige MMA alles
Zeige --A aktuell
Zeige --A Monat
Zeige --A alles
Keine MMA-Anzeige
MMA:
Keine MMA-Graphiken
MMA-Basis: 20.03.2009 - 19.09.2009
Quicknavigation für Darstellung... ?
Tage:      1T, 2T, 3T, 5T -1T -2T -3T -5T +1T +2T +3T +5T
Wochen: 1W, 2W, 3W -1W -2W -3W +1W +2W +3W
Monate: 1M, 3M, 6M -1M -3M -6M +1M +3M +6M
Jahre:    1J, 3J, 5J, 10J -1J -3J -5J -10J +1J +3J +5J +10J
Nutze für die Darstellung ... ?
Originaldaten oder Mittelwerte auf ...
Stundenbasis Tagesbasis Wochenbasis
Monatsbasis Jahresbasis      Datenbasis: Original-Daten
Darstellen als:
Statistik (Auto) Statistik J:M      Darstellung:
Zur Graphik,    zurück zur Übersicht aller Sensoren.
 
Tabellarische Datenbersicht: ?
 
Sensor: Nr:Datum:Temp:Feuchte:Taupunkt:
Aussen-T/F 1 20-03-2009 00:10:29 2.9 C 51 % -6.22 C
2 20-03-2009 00:22:29 2.7 C 53 % -5.9 C
3 20-03-2009 00:34:29 2.5 C 54 % -5.85 C
4 20-03-2009 00:46:29 2.4 C 54 % -5.94 C
5 20-03-2009 00:58:29 2.3 C 55 % -5.79 C
6 20-03-2009 01:10:29 2 C 56 % -5.84 C
7 20-03-2009 01:22:29 1.9 C 58 % -5.47 C
8 20-03-2009 01:34:29 1.8 C 59 % -5.34 C
9 20-03-2009 01:46:29 1.4 C 59 % -5.72 C
10 20-03-2009 01:58:29 1.3 C 60 % -5.59 C
11 20-03-2009 02:10:29 1.1 C 60 % -5.78 C
12 20-03-2009 02:22:29 0.8 C 62 % -5.63 C
13 20-03-2009 02:34:29 0.5 C 61 % -6.13 C
14 20-03-2009 02:46:29 0.4 C 63 % -5.8 C
15 20-03-2009 02:58:29 0.2 C 63 % -5.99 C
16 20-03-2009 03:10:29 0.1 C 64 % -5.88 C
17 20-03-2009 03:22:29 0 C 65 % -5.78 C
18 20-03-2009 03:34:30 0 C 65 % -5.78 C
19 20-03-2009 03:46:30 -0.2 C 65 % -5.97 C
20 20-03-2009 03:58:30 -0.3 C 66 % -5.87 C
21 20-03-2009 04:10:30 -0.5 C 66 % -6.06 C
22 20-03-2009 04:22:30 -0.7 C 67 % -6.05 C
23 20-03-2009 04:34:30 -0.7 C 66 % -6.25 C
24 20-03-2009 04:46:30 -0.6 C 66 % -6.16 C
25 20-03-2009 04:58:30 -0.4 C 63 % -6.57 C
Sensor: Nr:Datum:Temp:Feuchte:Taupunkt:
Aussen-T/F 26 20-03-2009 05:10:30 -0.4 C 60 % -7.2 C
27 20-03-2009 05:22:30 -0.3 C 59 % -7.33 C
28 20-03-2009 05:34:30 -0.5 C 60 % -7.3 C
29 20-03-2009 05:46:30 -0.4 C 59 % -7.42 C
30 20-03-2009 05:58:30 -0.6 C 58 % -7.83 C
31 20-03-2009 06:10:30 -0.4 C 55 % -8.33 C
32 20-03-2009 06:22:30 -0.4 C 56 % -8.09 C
33 20-03-2009 06:34:30 -0.8 C 60 % -7.58 C
34 20-03-2009 06:46:27 -0.9 C 62 % -7.25 C
35 20-03-2009 06:58:27 -0.9 C 62 % -7.25 C
36 20-03-2009 07:10:27 -1.1 C 61 % -7.65 C
37 20-03-2009 07:22:28 -1.1 C 62 % -7.44 C
38 20-03-2009 07:34:27 -1 C 61 % -7.56 C
39 20-03-2009 07:46:27 -0.7 C 60 % -7.49 C
40 20-03-2009 07:58:27 -0.4 C 60 % -7.2 C
41 20-03-2009 08:10:27 -0.6 C 60 % -7.39 C
42 20-03-2009 08:22:27 -0.6 C 60 % -7.39 C
43 20-03-2009 08:34:26 -0.4 C 62 % -6.78 C
44 20-03-2009 08:46:26 -0.1 C 62 % -6.5 C
45 20-03-2009 08:58:26 0.3 C 58 % -6.97 C
46 20-03-2009 09:10:26 0.8 C 56 % -6.96 C
47 20-03-2009 09:22:26 1.5 C 52 % -7.27 C
48 20-03-2009 09:34:26 2.5 C 45 % -8.2 C
49 20-03-2009 09:46:25 3.1 C 45 % -7.66 C
50 20-03-2009 09:58:25 3.5 C 45 % -7.29 C
Sensor: Nr:Datum:Temp:Feuchte:Taupunkt:
Aussen-T/F 51 20-03-2009 10:10:26 3.9 C 40 % -8.44 C
52 20-03-2009 10:22:26 4.6 C 32 % -10.64 C
53 20-03-2009 10:34:25 5.1 C 25 % -13.27 C
54 20-03-2009 10:46:25 5.6 C 20 % -15.55 C
55 20-03-2009 10:58:25 6 C 20 % -15.22 C
56 20-03-2009 11:10:25 6.4 C 20 % -14.89 C
57 20-03-2009 11:22:25 6.4 C 20 % -14.89 C
58 20-03-2009 11:34:24 6.4 C 20 % -14.89 C
59 20-03-2009 11:46:25 6.8 C 20 % -14.55 C
60 20-03-2009 11:58:25 7.7 C 20 % -13.8 C
61 20-03-2009 12:10:24 7.9 C 20 % -13.64 C
62 20-03-2009 12:22:24 7.9 C 20 % -13.64 C
63 20-03-2009 12:34:24 8.5 C 20 % -13.14 C
64 20-03-2009 12:46:24 8.7 C 20 % -12.97 C
65 20-03-2009 12:58:24 9.3 C 20 % -12.47 C
66 20-03-2009 13:10:24 9.2 C 20 % -12.56 C
67 20-03-2009 13:22:23 9.2 C 20 % -12.56 C
68 20-03-2009 13:34:24 9.5 C 20 % -12.31 C
69 20-03-2009 13:46:23 9.8 C 20 % -12.06 C
70 20-03-2009 13:58:23 10.5 C 20 % -11.48 C
71 20-03-2009 14:10:23 11.3 C 20 % -10.81 C
72 20-03-2009 14:22:24 11.4 C 20 % -10.73 C
73 20-03-2009 14:34:23 11.6 C 20 % -10.56 C
74 20-03-2009 14:46:23 12 C 20 % -10.23 C
75 20-03-2009 14:58:23 12.4 C 20 % -9.9 C
Sensor: Nr:Datum:Temp:Feuchte:Taupunkt:
Aussen-T/F 76 20-03-2009 15:10:22 10.4 C 20 % -11.56 C
77 20-03-2009 15:22:23 12.5 C 20 % -9.82 C
78 20-03-2009 15:34:22 13.1 C 20 % -9.32 C
79 20-03-2009 15:46:22 12.4 C 20 % -9.9 C
80 20-03-2009 15:58:23 13.2 C 20 % -9.24 C
81 20-03-2009 16:10:22 13.9 C 20 % -8.66 C
82 20-03-2009 16:22:22 13.8 C 20 % -8.74 C
83 20-03-2009 16:34:22 14 C 20 % -8.57 C
84 20-03-2009 16:46:22 14.1 C 20 % -8.49 C
85 20-03-2009 16:58:22 14 C 20 % -8.57 C
86 20-03-2009 17:10:22 13.8 C 20 % -8.74 C
87 20-03-2009 17:22:21 13.8 C 20 % -8.74 C
88 20-03-2009 17:34:21 13.7 C 20 % -8.82 C
89 20-03-2009 17:46:21 13 C 20 % -9.4 C
90 20-03-2009 17:58:21 12.4 C 20 % -9.9 C
91 20-03-2009 18:10:21 11.8 C 20 % -10.4 C
92 20-03-2009 18:22:21 10.8 C 20 % -11.23 C
93 20-03-2009 18:34:21 9.5 C 20 % -12.31 C
94 20-03-2009 18:46:21 8 C 20 % -13.56 C
95 20-03-2009 18:58:21 7 C 20 % -14.39 C
96 20-03-2009 19:10:20 6.1 C 23 % -13.44 C
97 20-03-2009 19:22:20 5.6 C 27 % -11.89 C
98 20-03-2009 19:34:20 5.3 C 28 % -11.7 C
99 20-03-2009 19:46:20 5 C 30 % -11.1 C
100 20-03-2009 19:58:20 4.6 C 30 % -11.45 C
Sensor: Nr:Datum:Temp:Feuchte:Taupunkt:
Aussen-T/F 101 20-03-2009 20:10:19 4.4 C 33 % -10.43 C
102 20-03-2009 20:22:20 4.1 C 36 % -9.6 C
103 20-03-2009 20:34:20 4.1 C 35 % -9.96 C
104 20-03-2009 20:46:19 3.9 C 36 % -9.78 C
105 20-03-2009 20:58:19 3.6 C 37 % -9.7 C
106 20-03-2009 21:10:19 3.5 C 39 % -9.12 C
107 20-03-2009 21:22:19 3.3 C 39 % -9.3 C
108 20-03-2009 21:34:18 3.1 C 40 % -9.16 C
109 20-03-2009 21:46:19 2.8 C 41 % -9.12 C
110 20-03-2009 21:58:19 2.7 C 42 % -8.9 C
111 20-03-2009 22:10:19 2.4 C 42 % -9.18 C
112 20-03-2009 22:22:18 2.3 C 45 % -8.39 C
113 20-03-2009 22:34:19 2 C 45 % -8.66 C
114 20-03-2009 22:46:18 1.8 C 46 % -8.56 C
115 20-03-2009 22:58:18 1.6 C 45 % -9.03 C
116 20-03-2009 23:10:18 1.4 C 46 % -8.93 C
117 20-03-2009 23:22:18 1.2 C 47 % -8.84 C
118 20-03-2009 23:34:18 1.2 C 47 % -8.84 C
119 20-03-2009 23:46:17 0.9 C 49 % -8.58 C
120 20-03-2009 23:58:17 0.7 C 51 % -8.26 C
121 21-03-2009 00:10:17 0.5 C 52 % -8.19 C
122 21-03-2009 00:22:18 0.4 C 52 % -8.29 C
123 21-03-2009 00:34:17 0.2 C 51 % -8.72 C
124 21-03-2009 00:46:17 0.2 C 51 % -8.72 C
125 21-03-2009 00:58:17 0.1 C 53 % -8.32 C
Sensor: Nr:Datum:Temp:Feuchte:Taupunkt:
Aussen-T/F 126 21-03-2009 01:10:17 -0.1 C 53 % -8.52 C
127 21-03-2009 01:22:17 -0.2 C 52 % -8.86 C
128 21-03-2009 01:34:17 -0.4 C 53 % -8.8 C
129 21-03-2009 01:46:16 -0.4 C 54 % -8.56 C
130 21-03-2009 01:58:16 -0.5 C 53 % -8.89 C
131 21-03-2009 02:10:17 -0.6 C 54 % -8.75 C
132 21-03-2009 02:22:16 -0.6 C 55 % -8.51 C
133 21-03-2009 02:34:16 -0.7 C 55 % -8.61 C
134 21-03-2009 02:47:01 -0.9 C 56 % -8.56 C
135 21-03-2009 02:59:01 -0.9 C 56 % -8.56 C
136 21-03-2009 03:11:02 -1 C 56 % -8.66 C
137 21-03-2009 03:23:02 -1.3 C 56 % -8.94 C
138 21-03-2009 03:35:01 -1.4 C 57 % -8.81 C
139 21-03-2009 03:47:01 -1.4 C 57 % -8.81 C
140 21-03-2009 03:59:01 -1.5 C 57 % -8.9 C
141 21-03-2009 04:11:02 -1.5 C 57 % -8.9 C
142 21-03-2009 04:23:01 -1.4 C 59 % -8.36 C
143 21-03-2009 04:35:01 -1.4 C 58 % -8.58 C
144 21-03-2009 04:47:01 -1.3 C 58 % -8.49 C
145 21-03-2009 04:59:01 -1.1 C 59 % -8.08 C
146 21-03-2009 05:11:02 -1.1 C 59 % -8.08 C
147 21-03-2009 05:23:01 -1.3 C 58 % -8.49 C
148 21-03-2009 05:35:02 -1.4 C 60 % -8.15 C
149 21-03-2009 05:47:02 -1.6 C 60 % -8.34 C
150 21-03-2009 05:59:02 -1.7 C 60 % -8.43 C
Sensor: Nr:Datum:Temp:Feuchte:Taupunkt:
Aussen-T/F 151 21-03-2009 06:11:01 -1.9 C 60 % -8.62 C
152 21-03-2009 06:23:01 -2.1 C 60 % -8.81 C
153 21-03-2009 06:35:02 -2.1 C 62 % -8.39 C
154 21-03-2009 06:47:01 -2.1 C 63 % -8.19 C
155 21-03-2009 06:59:01 -2.1 C 62 % -8.39 C
156 21-03-2009 07:11:02 -2.1 C 63 % -8.19 C
157 21-03-2009 07:23:01 -2.1 C 63 % -8.19 C
158 21-03-2009 07:35:02 -2 C 63 % -8.09 C
159 21-03-2009 07:47:01 -2 C 64 % -7.89 C
160 21-03-2009 07:59:01 -1.9 C 65 % -7.59 C
161 21-03-2009 08:11:01 -1.8 C 64 % -7.7 C
162 21-03-2009 08:23:01 -1.7 C 64 % -7.6 C
163 21-03-2009 08:35:01 -1.6 C 62 % -7.92 C
164 21-03-2009 08:47:02 -1.4 C 61 % -7.94 C
165 21-03-2009 08:59:02 -1 C 60 % -7.77 C
166 21-03-2009 09:11:01 -0.3 C 59 % -7.33 C
167 21-03-2009 09:23:02 0.2 C 56 % -7.52 C
168 21-03-2009 09:35:01 0.9 C 51 % -8.07 C
169 21-03-2009 09:47:02 1.7 C 47 % -8.38 C
170 21-03-2009 09:59:02 1.9 C 47 % -8.2 C
171 21-03-2009 10:11:01 2.8 C 45 % -7.93 C
172 21-03-2009 10:23:01 3.2 C 43 % -8.15 C
173 21-03-2009 10:35:02 3.9 C 42 % -7.82 C
174 21-03-2009 10:47:01 4.5 C 39 % -8.23 C
175 21-03-2009 10:59:01 4.8 C 37 % -8.63 C
Sensor: Nr:Datum:Temp:Feuchte:Taupunkt:
Aussen-T/F 176 21-03-2009 11:11:02 5.2 C 36 % -8.62 C
177 21-03-2009 11:23:01 5.7 C 33 % -9.29 C
178 21-03-2009 11:35:02 6.2 C 30 % -10.06 C
179 21-03-2009 11:47:01 6.7 C 29 % -10.05 C
180 21-03-2009 11:59:01 7.3 C 20 % -14.14 C
181 21-03-2009 12:11:02 7.8 C 25 % -10.97 C
182 21-03-2009 12:23:01 8.1 C 23 % -11.75 C
183 21-03-2009 12:35:01 8.9 C 20 % -12.81 C
184 21-03-2009 12:47:01 9.3 C 20 % -12.47 C
185 21-03-2009 12:59:01 9.7 C 20 % -12.14 C
186 21-03-2009 13:11:01 10.1 C 20 % -11.81 C
187 21-03-2009 13:23:02 10.5 C 20 % -11.48 C
188 21-03-2009 13:35:01 11.4 C 20 % -10.73 C
189 21-03-2009 13:47:02 12 C 20 % -10.23 C
190 21-03-2009 13:59:02 12.4 C 20 % -9.9 C
191 21-03-2009 14:11:01 12.7 C 20 % -9.65 C
192 21-03-2009 14:23:01 12.2 C 20 % -10.07 C
193 21-03-2009 14:35:01 13.4 C 20 % -9.07 C
194 21-03-2009 14:47:01 13.7 C 20 % -8.82 C
195 21-03-2009 14:59:01 14.4 C 20 % -8.24 C
196 21-03-2009 15:11:02 14.9 C 20 % -7.83 C
197 21-03-2009 15:23:01 15.2 C 20 % -7.58 C
198 21-03-2009 15:35:02 15.1 C 20 % -7.66 C
199 21-03-2009 15:47:01 15.8 C 20 % -7.08 C
200 21-03-2009 15:59:01 14.4 C 20 % -8.24 C
Sensor: Nr:Datum:Temp:Feuchte:Taupunkt:
Aussen-T/F 201 21-03-2009 16:11:02 14.4 C 20 % -8.24 C
202 21-03-2009 16:23:01 15.5 C 20 % -7.33 C
203 21-03-2009 16:35:01 16.4 C 20 % -6.59 C
204 21-03-2009 16:47:01 16.7 C 20 % -6.34 C
205 21-03-2009 16:59:01 15.9 C 20 % -7 C
206 21-03-2009 17:11:01 15.6 C 20 % -7.25 C
207 21-03-2009 17:23:02 15.2 C 20 % -7.58 C
208 21-03-2009 17:35:01 15 C 20 % -7.75 C
209 21-03-2009 17:47:02 14.6 C 20 % -8.08 C
210 21-03-2009 17:59:02 14 C 20 % -8.57 C
211 21-03-2009 18:11:01 12.3 C 20 % -9.98 C
212 21-03-2009 18:23:01 11.7 C 20 % -10.48 C
213 21-03-2009 18:35:01 11.1 C 20 % -10.98 C
214 21-03-2009 18:47:01 10.2 C 20 % -11.73 C
215 21-03-2009 18:59:01 9.7 C 20 % -12.14 C
216 21-03-2009 19:11:01 9.3 C 25 % -9.69 C
217 21-03-2009 19:23:02 9 C 27 % -8.97 C
218 21-03-2009 19:35:01 8.7 C 30 % -7.88 C
219 21-03-2009 19:47:02 8.4 C 31 % -7.72 C
220 21-03-2009 19:59:02 8 C 32 % -7.66 C
221 21-03-2009 20:11:01 7.9 C 33 % -7.35 C
222 21-03-2009 20:23:02 7.8 C 34 % -7.06 C
223 21-03-2009 20:35:01 7.6 C 35 % -6.86 C
224 21-03-2009 20:47:02 7.4 C 36 % -6.67 C
225 21-03-2009 20:59:02 7.1 C 38 % -6.23 C
Sensor: Nr:Datum:Temp:Feuchte:Taupunkt:
Aussen-T/F 226 21-03-2009 21:11:01 6.9 C 38 % -6.41 C
227 21-03-2009 21:23:02 6.6 C 40 % -6.01 C
228 21-03-2009 21:35:01 6.4 C 41 % -5.87 C
229 21-03-2009 21:47:02 6 C 43 % -5.61 C
230 21-03-2009 21:59:02 5.6 C 45 % -5.38 C
231 21-03-2009 22:11:44 5.2 C 46 % -5.45 C
232 21-03-2009 22:23:44 4.9 C 48 % -5.17 C
233 21-03-2009 22:35:01 4.7 C 48 % -5.35 C
234 21-03-2009 22:47:07 4.5 C 48 % -5.54 C
235 21-03-2009 22:59:07 4.3 C 48 % -5.72 C
236 21-03-2009 23:11:07 4.3 C 46 % -6.28 C
237 21-03-2009 23:23:07 4.1 C 47 % -6.18 C
238 21-03-2009 23:35:07 3.9 C 48 % -6.09 C
239 21-03-2009 23:47:07 3.6 C 49 % -6.1 C
240 21-03-2009 23:59:07 3.4 C 50 % -6.02 C
241 22-03-2009 00:11:07 3.2 C 51 % -5.94 C
242 22-03-2009 00:23:07 3 C 51 % -6.13 C
243 22-03-2009 00:35:07 2.8 C 53 % -5.81 C
244 22-03-2009 00:47:07 2.6 C 53 % -6 C
245 22-03-2009 00:59:07 2.5 C 53 % -6.09 C
246 22-03-2009 01:11:07 2.4 C 54 % -5.94 C
247 22-03-2009 01:23:07 2.2 C 54 % -6.12 C
248 22-03-2009 01:35:07 2 C 55 % -6.07 C
249 22-03-2009 01:47:07 2 C 55 % -6.07 C
250 22-03-2009 01:59:07 1.9 C 56 % -5.93 C
Sensor: Nr:Datum:Temp:Feuchte:Taupunkt:
Aussen-T/F 251 22-03-2009 02:11:07 1.8 C 57 % -5.79 C
252 22-03-2009 02:23:08 1.5 C 58 % -5.85 C
253 22-03-2009 02:35:08 1.4 C 59 % -5.72 C
254 22-03-2009 02:47:08 1.2 C 59 % -5.91 C
255 22-03-2009 02:59:08 1.1 C 60 % -5.78 C
256 22-03-2009 03:11:08 1.4 C 58 % -5.94 C
257 22-03-2009 03:23:08 1.4 C 57 % -6.17 C
258 22-03-2009 03:35:08 1.1 C 58 % -6.22 C
259 22-03-2009 03:47:08 0.9 C 60 % -5.97 C
260 22-03-2009 03:59:08 0.7 C 61 % -5.94 C
261 22-03-2009 04:11:08 0.5 C 63 % -5.71 C
262 22-03-2009 04:23:08 0.6 C 62 % -5.82 C
263 22-03-2009 04:35:08 0.6 C 61 % -6.04 C
264 22-03-2009 04:47:08 0.6 C 62 % -5.82 C
265 22-03-2009 04:59:08 0.3 C 62 % -6.11 C
266 22-03-2009 05:11:08 0.1 C 64 % -5.88 C
267 22-03-2009 05:23:08 0.1 C 64 % -5.88 C
268 22-03-2009 05:35:08 0.3 C 63 % -5.9 C
269 22-03-2009 05:47:08 -0.1 C 64 % -6.08 C
270 22-03-2009 05:59:08 -0.3 C 66 % -5.87 C
271 22-03-2009 06:11:08 -0.4 C 67 % -5.77 C
272 22-03-2009 06:23:08 -0.4 C 68 % -5.57 C
273 22-03-2009 06:35:09 -0.4 C 68 % -5.57 C
274 22-03-2009 06:47:09 -0.4 C 68 % -5.57 C
275 22-03-2009 06:59:09 -0.3 C 69 % -5.29 C
Sensor: Nr:Datum:Temp:Feuchte:Taupunkt:
Aussen-T/F 276 22-03-2009 07:11:07 -0.3 C 68 % -5.48 C
277 22-03-2009 07:23:07 0 C 68 % -5.18 C
278 22-03-2009 07:35:07 0.3 C 67 % -5.09 C
279 22-03-2009 07:47:06 0.7 C 67 % -4.71 C
280 22-03-2009 07:59:06 1 C 66 % -4.62 C
281 22-03-2009 08:11:07 1.1 C 67 % -4.33 C
282 22-03-2009 08:23:06 1.1 C 67 % -4.33 C
283 22-03-2009 08:35:06 1.4 C 67 % -4.04 C
284 22-03-2009 08:47:06 1.6 C 66 % -4.05 C
285 22-03-2009 08:59:06 1.7 C 68 % -3.56 C
286 22-03-2009 09:11:06 1.8 C 69 % -3.27 C
287 22-03-2009 09:23:06 1.9 C 72 % -2.6 C
288 22-03-2009 09:35:05 2.1 C 72 % -2.41 C
289 22-03-2009 09:47:06 2.3 C 71 % -2.4 C
290 22-03-2009 09:59:06 2.1 C 69 % -2.98 C
291 22-03-2009 10:11:05 2.5 C 70 % -2.4 C
292 22-03-2009 10:23:05 2.5 C 69 % -2.6 C
293 22-03-2009 10:35:05 2.7 C 69 % -2.4 C
294 22-03-2009 10:47:05 2.8 C 68 % -2.51 C
295 22-03-2009 10:59:05 3.1 C 67 % -2.42 C
296 22-03-2009 11:11:04 3.3 C 66 % -2.43 C
297 22-03-2009 11:23:05 3.7 C 65 % -2.25 C
298 22-03-2009 11:35:04 4.1 C 65 % -1.87 C
299 22-03-2009 11:47:04 4.4 C 66 % -1.38 C
300 22-03-2009 11:59:04 5 C 69 % -0.2 C
Sensor: Nr:Datum:Temp:Feuchte:Taupunkt:
Aussen-T/F 301 22-03-2009 12:11:04 5.8 C 75 % 1.72 C
302 22-03-2009 12:23:04 6.2 C 74 % 1.92 C
303 22-03-2009 12:35:04 6.7 C 72 % 2.02 C
304 22-03-2009 12:47:04 7 C 68 % 1.51 C
305 22-03-2009 12:59:04 7.7 C 66 % 1.76 C
306 22-03-2009 13:11:04 8.3 C 61 % 1.23 C
307 22-03-2009 13:23:03 8.9 C 52 % -0.41 C
308 22-03-2009 13:35:03 9.5 C 47 % -1.23 C
309 22-03-2009 13:47:03 9.5 C 46 % -1.53 C
310 22-03-2009 13:59:03 9 C 47 % -1.69 C
311 22-03-2009 14:11:03 9.5 C 45 % -1.82 C
312 22-03-2009 14:23:03 9.3 C 45 % -2.01 C
313 22-03-2009 14:35:02 9.6 C 44 % -2.04 C
314 22-03-2009 14:47:03 9.9 C 42 % -2.39 C
315 22-03-2009 14:59:03 10 C 40 % -2.96 C
316 22-03-2009 15:11:02 10.3 C 40 % -2.69 C
317 22-03-2009 15:23:02 10.4 C 39 % -2.94 C
318 22-03-2009 15:35:02 10.2 C 40 % -2.78 C
319 22-03-2009 15:47:02 10.4 C 39 % -2.94 C
320 22-03-2009 15:59:02 10 C 38 % -3.64 C
321 22-03-2009 16:11:02 10.2 C 39 % -3.12 C
322 22-03-2009 16:23:01 10.2 C 39 % -3.12 C
323 22-03-2009 16:35:02 10.5 C 38 % -3.2 C
324 22-03-2009 16:47:01 10.7 C 36 % -3.74 C
325 22-03-2009 16:59:01 10.4 C 36 % -4.01 C
Sensor: Nr:Datum:Temp:Feuchte:Taupunkt:
Aussen-T/F 326 22-03-2009 17:11:01 10.7 C 36 % -3.74 C
327 22-03-2009 17:23:01 10.5 C 37 % -3.55 C
328 22-03-2009 17:35:01 10.3 C 37 % -3.73 C
329 22-03-2009 17:47:01 10 C 38 % -3.64 C
330 22-03-2009 17:59:01 9.9 C 39 % -3.39 C
331 22-03-2009 18:11:00 9.7 C 40 % -3.23 C
332 22-03-2009 18:23:01 9.7 C 40 % -3.23 C
333 22-03-2009 18:35:00 9.5 C 40 % -3.41 C
334 22-03-2009 18:47:00 9.3 C 41 % -3.26 C
335 22-03-2009 18:59:00 9.3 C 41 % -3.26 C
336 22-03-2009 19:11:00 9.1 C 41 % -3.44 C
337 22-03-2009 19:23:00 8.9 C 43 % -2.98 C
338 22-03-2009 19:35:00 8.9 C 43 % -2.98 C
339 22-03-2009 19:58:59 8.6 C 44 % -2.94 C
340 22-03-2009 19:59:00 8.4 C 45 % -2.83 C
341 22-03-2009 20:11:00 8.4 C 45 % -2.83 C
342 22-03-2009 20:23:59 8.4 C 45 % -2.83 C
343 22-03-2009 20:35:59 8.4 C 45 % -2.83 C
344 22-03-2009 20:47:59 8.4 C 45 % -2.83 C
345 22-03-2009 20:59:58 8.5 C 45 % -2.73 C
346 22-03-2009 21:11:58 8.4 C 45 % -2.83 C
347 22-03-2009 21:23:59 8.3 C 46 % -2.62 C
348 22-03-2009 21:35:59 8.2 C 46 % -2.71 C
349 22-03-2009 21:47:59 8.1 C 46 % -2.8 C
350 22-03-2009 22:00:59 8 C 47 % -2.61 C
Sensor: Nr:Datum:Temp:Feuchte:Taupunkt:
Aussen-T/F 351 22-03-2009 22:12:59 7.7 C 53 % -1.26 C
352 22-03-2009 22:24:59 7.7 C 54 % -1 C
353 22-03-2009 22:36:59 7.5 C 58 % -0.21 C
354 22-03-2009 22:48:59 7.3 C 59 % -0.17 C
355 22-03-2009 23:00:59 7.5 C 58 % -0.21 C
356 22-03-2009 23:12:59 7.5 C 57 % -0.45 C
357 22-03-2009 23:24:59 7.6 C 57 % -0.36 C
358 22-03-2009 23:37:00 7.5 C 59 % 0.02 C
359 22-03-2009 23:49:00 7.6 C 58 % -0.12 C
360 23-03-2009 00:01:00 7.5 C 58 % -0.21 C
361 23-03-2009 00:13:00 7.5 C 58 % -0.21 C
362 23-03-2009 00:24:00 7.5 C 58 % -0.21 C
363 23-03-2009 00:36:00 7.5 C 59 % 0.02 C
364 23-03-2009 00:48:00 7.5 C 59 % 0.02 C
365 23-03-2009 01:00:00 7.5 C 59 % 0.02 C
366 23-03-2009 01:12:00 7.5 C 58 % -0.21 C
367 23-03-2009 01:24:00 7.5 C 58 % -0.21 C
368 23-03-2009 01:36:00 7.6 C 58 % -0.12 C
369 23-03-2009 01:48:00 7.6 C 58 % -0.12 C
370 23-03-2009 02:00:00 7.6 C 58 % -0.12 C
371 23-03-2009 02:12:00 7.5 C 58 % -0.21 C
372 23-03-2009 02:24:00 7.5 C 59 % 0.02 C
373 23-03-2009 02:36:00 7.6 C 59 % 0.11 C
374 23-03-2009 02:48:00 7.6 C 59 % 0.11 C
375 23-03-2009 03:00:00 7.7 C 59 % 0.21 C
Sensor: Nr:Datum:Temp:Feuchte:Taupunkt:
Aussen-T/F 376 23-03-2009 03:12:00 7.6 C 59 % 0.11 C
377 23-03-2009 03:24:00 7.5 C 59 % 0.02 C
378 23-03-2009 03:36:01 7.5 C 59 % 0.02 C
379 23-03-2009 03:48:01 7.6 C 59 % 0.11 C
380 23-03-2009 04:00:01 7.7 C 60 % 0.44 C
381 23-03-2009 04:12:01 7.9 C 60 % 0.63 C
382 23-03-2009 04:24:01 7.8 C 60 % 0.53 C
383 23-03-2009 04:36:01 7.8 C 60 % 0.53 C
384 23-03-2009 04:48:01 7.8 C 60 % 0.53 C
385 23-03-2009 05:00:01 7.8 C 60 % 0.53 C
386 23-03-2009 05:12:01 7.8 C 60 % 0.53 C
387 23-03-2009 05:24:01 7.8 C 60 % 0.53 C
388 23-03-2009 05:36:01 7.8 C 60 % 0.53 C
389 23-03-2009 05:48:01 7.9 C 59 % 0.4 C
390 23-03-2009 06:00:01 7.7 C 60 % 0.44 C
391 23-03-2009 06:12:01 7.6 C 60 % 0.35 C
392 23-03-2009 06:24:01 7.6 C 60 % 0.35 C
393 23-03-2009 06:36:01 7.5 C 60 % 0.25 C
394 23-03-2009 06:48:01 7.5 C 61 % 0.48 C
395 23-03-2009 07:00:59 7.6 C 60 % 0.35 C
396 23-03-2009 07:12:59 7.6 C 60 % 0.35 C
397 23-03-2009 07:24:59 7.6 C 61 % 0.57 C
398 23-03-2009 07:36:59 7.6 C 60 % 0.35 C
399 23-03-2009 07:48:58 7.7 C 60 % 0.44 C
400 23-03-2009 08:00:59 7.9 C 60 % 0.63 C
Sensor: Nr:Datum:Temp:Feuchte:Taupunkt:
Aussen-T/F 401 23-03-2009 08:12:59 8 C 58 % 0.25 C
402 23-03-2009 08:24:58 8.1 C 58 % 0.35 C
403 23-03-2009 08:36:58 8.1 C 58 % 0.35 C
404 23-03-2009 08:48:57 8.2 C 58 % 0.44 C
405 23-03-2009 09:00:58 8.2 C 58 % 0.44 C
406 23-03-2009 09:12:58 8.2 C 58 % 0.44 C
407 23-03-2009 09:24:58 8.3 C 58 % 0.54 C
408 23-03-2009 09:36:57 8.4 C 56 % 0.15 C
409 23-03-2009 09:48:58 8.7 C 55 % 0.18 C
410 23-03-2009 10:00:57 8.9 C 52 % -0.41 C
411 23-03-2009 10:12:57 9 C 50 % -0.85 C
412 23-03-2009 10:24:57 9.1 C 50 % -0.76 C
413 23-03-2009 10:36:56 9.2 C 49 % -0.94 C
414 23-03-2009 10:48:57 9.3 C 48 % -1.13 C
415 23-03-2009 11:00:57 9.4 C 47 % -1.33 C
416 23-03-2009 11:12:57 9.7 C 46 % -1.34 C
417 23-03-2009 11:24:56 9.8 C 45 % -1.55 C
418 23-03-2009 11:36:57 9.9 C 44 % -1.76 C
419 23-03-2009 11:48:56 9.9 C 43 % -2.08 C
420 23-03-2009 12:00:56 10.2 C 42 % -2.12 C
421 23-03-2009 12:12:56 10.7 C 40 % -2.33 C
422 23-03-2009 12:24:56 10.8 C 40 % -2.24 C
423 23-03-2009 12:36:56 11.6 C 37 % -2.57 C
424 23-03-2009 12:48:55 12 C 35 % -2.97 C
425 23-03-2009 13:00:55 11.8 C 36 % -2.76 C
Sensor: Nr:Datum:Temp:Feuchte:Taupunkt:
Aussen-T/F 426 23-03-2009 13:12:55 11.6 C 37 % -2.57 C
427 23-03-2009 13:24:56 11.9 C 37 % -2.31 C
428 23-03-2009 13:36:55 11.9 C 37 % -2.31 C
429 23-03-2009 13:48:55 11.6 C 38 % -2.22 C
430 23-03-2009 14:00:55 11.6 C 39 % -1.86 C
431 23-03-2009 14:12:55 11.6 C 40 % -1.52 C
432 23-03-2009 14:24:55 11.4 C 40 % -1.7 C
433 23-03-2009 14:36:54 11.3 C 40 % -1.79 C
434 23-03-2009 14:48:54 11.3 C 40 % -1.79 C
435 23-03-2009 15:00:55 10.4 C 47 % -0.41 C
436 23-03-2009 15:12:55 9.8 C 52 % 0.43 C
437 23-03-2009 15:24:54 9.5 C 56 % 1.17 C
438 23-03-2009 15:36:54 9.6 C 56 % 1.27 C
439 23-03-2009 15:48:54 9.9 C 55 % 1.3 C
440 23-03-2009 16:00:54 9.6 C 58 % 1.75 C
441 23-03-2009 16:12:54 9.7 C 57 % 1.61 C
442 23-03-2009 16:24:53 9.5 C 59 % 1.9 C
443 23-03-2009 16:36:53 9.5 C 58 % 1.66 C
444 23-03-2009 16:48:53 9.4 C 59 % 1.81 C
445 23-03-2009 17:00:53 9.2 C 60 % 1.85 C
446 23-03-2009 17:12:53 9.1 C 61 % 1.99 C
447 23-03-2009 17:24:53 9.1 C 60 % 1.76 C
448 23-03-2009 17:36:53 8.6 C 65 % 2.4 C
449 23-03-2009 17:48:53 8.5 C 67 % 2.73 C
450 23-03-2009 18:00:52 8.3 C 70 % 3.16 C
Sensor: Nr:Datum:Temp:Feuchte:Taupunkt:
Aussen-T/F 451 23-03-2009 18:12:52 7.9 C 74 % 3.56 C
452 23-03-2009 18:24:53 7.6 C 76 % 3.65 C
453 23-03-2009 18:36:52 7.6 C 77 % 3.83 C
454 23-03-2009 18:48:52 7.7 C 76 % 3.75 C
455 23-03-2009 19:00:52 7.8 C 76 % 3.84 C
456 23-03-2009 19:12:52 7.7 C 75 % 3.56 C
457 23-03-2009 19:24:52 7.6 C 76 % 3.65 C
458 23-03-2009 19:36:52 7.4 C 77 % 3.64 C
459 23-03-2009 19:48:51 4.4 C 74 % 0.18 C
460 23-03-2009 20:00:52 3.9 C 82 % 1.12 C
461 23-03-2009 20:12:52 3.8 C 84 % 1.35 C
462 23-03-2009 20:24:51 3.6 C 85 % 1.32 C
463 23-03-2009 20:36:51 3.3 C 86 % 1.19 C
464 23-03-2009 20:48:51 3.5 C 87 % 1.55 C
465 23-03-2009 21:00:50 3.5 C 87 % 1.55 C
466 23-03-2009 21:12:50 3.5 C 85 % 1.22 C
467 23-03-2009 21:24:51 3.8 C 84 % 1.35 C
468 23-03-2009 21:36:51 3.8 C 82 % 1.02 C
469 23-03-2009 21:48:50 3.6 C 80 % 0.48 C
470 23-03-2009 22:00:51 3.7 C 79 % 0.4 C
471 23-03-2009 22:12:51 3.8 C 76 % -0.03 C
472 23-03-2009 22:24:50 3.7 C 75 % -0.31 C
473 23-03-2009 22:36:50 3.5 C 75 % -0.5 C
474 23-03-2009 22:49:50 3.7 C 73 % -0.68 C
475 23-03-2009 23:01:50 3.6 C 71 % -1.15 C
Sensor: Nr:Datum:Temp:Feuchte:Taupunkt:
Aussen-T/F 476 23-03-2009 23:13:50 3.5 C 72 % -1.06 C
477 23-03-2009 23:25:50 3.3 C 74 % -0.88 C
478 23-03-2009 23:37:50 3.3 C 74 % -0.88 C
479 23-03-2009 23:49:50 3.1 C 72 % -1.45 C
480 24-03-2009 00:01:50 3.1 C 72 % -1.45 C
481 24-03-2009 00:13:50 2.9 C 72 % -1.64 C
482 24-03-2009 00:25:50 2.9 C 72 % -1.64 C
483 24-03-2009 00:37:51 3 C 68 % -2.31 C
484 24-03-2009 00:49:51 3.1 C 68 % -2.22 C
485 24-03-2009 01:01:51 3.1 C 67 % -2.42 C
486 24-03-2009 01:13:51 2.8 C 69 % -2.31 C
487 24-03-2009 01:25:51 2.5 C 71 % -2.21 C
488 24-03-2009 01:37:51 2.4 C 72 % -2.12 C
489 24-03-2009 01:49:51 2.6 C 72 % -1.93 C
490 24-03-2009 02:01:51 2.7 C 71 % -2.02 C
491 24-03-2009 02:13:51 3 C 69 % -2.12 C
492 24-03-2009 02:25:51 3.3 C 67 % -2.23 C
493 24-03-2009 02:37:51 3.3 C 67 % -2.23 C
494 24-03-2009 02:49:51 3.5 C 65 % -2.44 C
495 24-03-2009 03:01:51 3.6 C 65 % -2.35 C
496 24-03-2009 03:13:51 3.8 C 63 % -2.58 C
497 24-03-2009 03:25:51 3.2 C 69 % -1.93 C
498 24-03-2009 03:37:51 2.8 C 76 % -1 C
499 24-03-2009 03:49:51 2.7 C 77 % -0.92 C
500 24-03-2009 04:01:51 2.6 C 78 % -0.84 C
Sensor: Nr:Datum:Temp:Feuchte:Taupunkt:
Aussen-T/F 501 24-03-2009 04:13:51 2.7 C 78 % -0.74 C
502 24-03-2009 04:25:51 3 C 75 % -0.99 C
503 24-03-2009 04:37:52 3.1 C 72 % -1.45 C
504 24-03-2009 04:49:52 3.3 C 70 % -1.64 C
505 24-03-2009 05:01:52 2.8 C 74 % -1.36 C
506 24-03-2009 05:13:52 2.9 C 76 % -0.9 C
507 24-03-2009 05:25:52 3 C 71 % -1.73 C
508 24-03-2009 05:37:52 3.2 C 70 % -1.73 C
509 24-03-2009 05:49:52 3.1 C 70 % -1.83 C
510 24-03-2009 06:01:52 3.1 C 69 % -2.02 C
511 24-03-2009 06:13:52 3.2 C 67 % -2.32 C
512 24-03-2009 06:25:52 3.1 C 68 % -2.22 C
513 24-03-2009 06:37:52 3.1 C 69 % -2.02 C
514 24-03-2009 06:49:52 3.1 C 71 % -1.63 C
515 24-03-2009 07:01:50 3.1 C 71 % -1.63 C
516 24-03-2009 07:13:50 3.2 C 71 % -1.54 C
517 24-03-2009 07:25:50 3.3 C 70 % -1.64 C
518 24-03-2009 07:37:50 3.3 C 69 % -1.83 C
519 24-03-2009 07:49:50 3.5 C 69 % -1.64 C
520 24-03-2009 08:01:51 3.7 C 68 % -1.64 C
521 24-03-2009 08:13:50 3.7 C 68 % -1.64 C
522 24-03-2009 08:25:50 3.7 C 66 % -2.05 C
523 24-03-2009 08:37:49 4.2 C 63 % -2.2 C
524 24-03-2009 08:49:49 4.3 C 60 % -2.76 C
525 24-03-2009 09:01:49 4.1 C 60 % -2.95 C
Sensor: Nr:Datum:Temp:Feuchte:Taupunkt:
Aussen-T/F 526 24-03-2009 09:13:49 4.2 C 58 % -3.31 C
527 24-03-2009 09:25:49 4.4 C 58 % -3.12 C
528 24-03-2009 09:37:49 4.6 C 55 % -3.65 C
529 24-03-2009 09:49:48 4.8 C 53 % -3.95 C
530 24-03-2009 10:01:49 5 C 53 % -3.77 C
531 24-03-2009 10:13:48 5.6 C 52 % -3.46 C
532 24-03-2009 10:25:48 5.9 C 49 % -3.98 C
533 24-03-2009 10:37:48 5 C 55 % -3.27 C
534 24-03-2009 10:49:48 3.2 C 72 % -1.35 C
535 24-03-2009 11:01:48 3.3 C 79 % 0.02 C
536 24-03-2009 11:13:47 4.3 C 81 % 1.34 C
537 24-03-2009 11:25:47 4.6 C 78 % 1.1 C
538 24-03-2009 11:37:47 5.1 C 73 % 0.67 C
539 24-03-2009 11:49:47 5.5 C 65 % -0.54 C
540 24-03-2009 12:01:48 4.4 C 69 % -0.78 C
541 24-03-2009 12:13:47 5.1 C 72 % 0.48 C
542 24-03-2009 12:25:47 5.9 C 68 % 0.46 C
543 24-03-2009 12:37:47 6.4 C 58 % -1.25 C
544 24-03-2009 12:49:47 6.8 C 58 % -0.87 C
545 24-03-2009 13:01:49 7.1 C 53 % -1.82 C
546 24-03-2009 13:13:46 7.1 C 51 % -2.34 C
547 24-03-2009 13:25:46 6.9 C 47 % -3.61 C
548 24-03-2009 13:37:46 6.9 C 46 % -3.9 C
549 24-03-2009 13:49:46 6.6 C 48 % -3.61 C
550 24-03-2009 14:01:46 5.6 C 58 % -2 C
Sensor: Nr:Datum:Temp:Feuchte:Taupunkt:
Aussen-T/F 551 24-03-2009 14:13:46 5.4 C 64 % -0.85 C
552 24-03-2009 14:25:46 6.8 C 57 % -1.11 C
553 24-03-2009 14:37:46 7.9 C 51 % -1.6 C
554 24-03-2009 14:49:45 7 C 50 % -2.69 C
555 24-03-2009 15:01:46 6.1 C 59 % -1.3 C
556 24-03-2009 15:13:45 4.6 C 68 % -0.78 C
557 24-03-2009 15:25:45 4.6 C 75 % 0.56 C
558 24-03-2009 15:37:45 5.8 C 74 % 1.53 C
559 24-03-2009 15:49:45 6.4 C 70 % 1.34 C
560 24-03-2009 16:01:45 5.5 C 67 % -0.13 C
561 24-03-2009 16:13:45 5 C 72 % 0.38 C
562 24-03-2009 16:25:45 5.3 C 72 % 0.67 C
563 24-03-2009 16:37:44 6.5 C 67 % 0.83 C
564 24-03-2009 16:49:44 5 C 67 % -0.6 C
565 24-03-2009 17:01:44 4.7 C 70 % -0.29 C
566 24-03-2009 17:13:44 5.1 C 64 % -1.13 C
567 24-03-2009 17:25:44 5.9 C 61 % -1.03 C
568 24-03-2009 17:37:44 6.1 C 56 % -2 C
569 24-03-2009 17:49:43 5.2 C 58 % -2.37 C
570 24-03-2009 18:01:44 3.6 C 67 % -1.94 C
571 24-03-2009 18:13:44 3.6 C 69 % -1.54 C
572 24-03-2009 18:25:44 3.5 C 71 % -1.25 C
573 24-03-2009 18:37:43 3.4 C 73 % -0.97 C
574 24-03-2009 18:49:44 3.1 C 73 % -1.26 C
575 24-03-2009 19:01:43 2.9 C 76 % -0.9 C
Sensor: Nr:Datum:Temp:Feuchte:Taupunkt:
Aussen-T/F 576 24-03-2009 19:13:43 2.7 C 76 % -1.1 C
577 24-03-2009 19:25:44 2.5 C 77 % -1.11 C
578 24-03-2009 19:37:42 2.5 C 78 % -0.94 C
579 24-03-2009 19:49:43 2.3 C 77 % -1.31 C
580 24-03-2009 20:01:43 2.2 C 77 % -1.4 C
581 24-03-2009 20:13:42 2.2 C 75 % -1.76 C
582 24-03-2009 20:25:42 2.1 C 74 % -2.04 C
583 24-03-2009 20:37:43 2 C 73 % -2.32 C
584 24-03-2009 20:49:42 1.8 C 73 % -2.51 C
585 24-03-2009 21:01:42 1.4 C 74 % -2.71 C
586 24-03-2009 21:13:41 1.3 C 76 % -2.45 C
587 24-03-2009 21:25:41 1.2 C 77 % -2.37 C
588 24-03-2009 21:37:42 1.1 C 78 % -2.3 C
589 24-03-2009 21:50:43 1 C 78 % -2.39 C
590 24-03-2009 22:02:43 0.9 C 79 % -2.32 C
591 24-03-2009 22:14:43 0.7 C 78 % -2.69 C
592 24-03-2009 22:26:43 1 C 74 % -3.1 C
593 24-03-2009 22:38:43 1 C 72 % -3.47 C
594 24-03-2009 22:50:43 0.7 C 72 % -3.76 C
595 24-03-2009 23:02:43 0.4 C 73 % -3.86 C
596 24-03-2009 23:14:43 0.4 C 74 % -3.68 C
597 24-03-2009 23:26:43 0.2 C 75 % -3.69 C
598 24-03-2009 23:38:43 0.2 C 75 % -3.69 C
599 24-03-2009 23:50:43 0 C 75 % -3.89 C
600 25-03-2009 00:02:43 0 C 76 % -3.71 C
Sensor: Nr:Datum:Temp:Feuchte:Taupunkt:
Aussen-T/F 601 25-03-2009 00:14:43 0.1 C 76 % -3.62 C
602 25-03-2009 00:26:43 0.2 C 75 % -3.69 C
603 25-03-2009 00:38:44 0.2 C 75 % -3.69 C
604 25-03-2009 00:50:44 0.3 C 73 % -3.96 C
605 25-03-2009 01:02:44 0.2 C 73 % -4.05 C
606 25-03-2009 01:14:44 0.2 C 73 % -4.05 C
607 25-03-2009 01:26:44 0.1 C 73 % -4.15 C
608 25-03-2009 01:38:44 0.2 C 74 % -3.87 C
609 25-03-2009 01:50:44 0 C 75 % -3.89 C
610 25-03-2009 02:02:44 0.1 C 76 % -3.62 C
611 25-03-2009 02:14:44 0.2 C 77 % -3.34 C
612 25-03-2009 02:26:44 0.4 C 77 % -3.15 C
613 25-03-2009 02:38:44 0.2 C 77 % -3.34 C
614 25-03-2009 02:50:44 0.2 C 77 % -3.34 C
615 25-03-2009 03:02:44 0.3 C 78 % -3.07 C
616 25-03-2009 03:14:44 0.6 C 78 % -2.78 C
617 25-03-2009 03:26:44 0.9 C 77 % -2.66 C
618 25-03-2009 03:38:44 1.1 C 76 % -2.65 C
619 25-03-2009 03:50:44 1.1 C 75 % -2.82 C
620 25-03-2009 04:02:44 1.1 C 76 % -2.65 C
621 25-03-2009 04:14:44 1.2 C 76 % -2.55 C
622 25-03-2009 04:26:45 1.3 C 75 % -2.63 C
623 25-03-2009 04:38:45 1.3 C 75 % -2.63 C
624 25-03-2009 04:50:45 1.5 C 75 % -2.44 C
625 25-03-2009 05:02:45 1.6 C 75 % -2.34 C
Sensor: Nr:Datum:Temp:Feuchte:Taupunkt:
Aussen-T/F 626 25-03-2009 05:14:45 1.8 C 74 % -2.33 C
627 25-03-2009 05:26:45 1.8 C 74 % -2.33 C
628 25-03-2009 05:38:45 2.2 C 72 % -2.31 C
629 25-03-2009 05:50:45 2.4 C 72 % -2.12 C
630 25-03-2009 06:02:45 2.3 C 72 % -2.22 C
631 25-03-2009 06:14:45 2.1 C 75 % -1.86 C
632 25-03-2009 06:26:45 1.6 C 79 % -1.64 C
633 25-03-2009 06:38:43 1.7 C 82 % -1.03 C
634 25-03-2009 06:50:42 1.8 C 84 % -0.61 C
635 25-03-2009 07:02:43 1.8 C 86 % -0.29 C
636 25-03-2009 07:14:43 1.8 C 86 % -0.29 C
637 25-03-2009 07:26:43 1.9 C 87 % -0.03 C
638 25-03-2009 07:38:42 1.9 C 86 % -0.19 C
639 25-03-2009 07:50:42 1.9 C 86 % -0.19 C
640 25-03-2009 08:02:42 2.1 C 85 % -0.15 C
641 25-03-2009 08:14:41 2.3 C 85 % 0.04 C
642 25-03-2009 08:26:41 2.3 C 84 % -0.12 C
643 25-03-2009 08:38:42 2.4 C 83 % -0.18 C
644 25-03-2009 08:50:41 2.3 C 82 % -0.45 C
645 25-03-2009 09:02:41 2.5 C 81 % -0.42 C
646 25-03-2009 09:14:42 2.6 C 80 % -0.49 C
647 25-03-2009 09:26:42 2.9 C 78 % -0.55 C
648 25-03-2009 09:38:41 3 C 75 % -0.99 C
649 25-03-2009 09:50:41 3.1 C 75 % -0.89 C
650 25-03-2009 10:02:41 3.3 C 74 % -0.88 C
Sensor: Nr:Datum:Temp:Feuchte:Taupunkt:
Aussen-T/F 651 25-03-2009 10:14:41 3.3 C 74 % -0.88 C
652 25-03-2009 10:26:41 3.1 C 75 % -0.89 C
653 25-03-2009 10:38:41 3.3 C 75 % -0.7 C
654 25-03-2009 10:50:40 3.8 C 72 % -0.77 C
655 25-03-2009 11:02:41 3.8 C 72 % -0.77 C
656 25-03-2009 11:14:40 4 C 69 % -1.16 C
657 25-03-2009 11:26:40 4 C 70 % -0.96 C
658 25-03-2009 11:38:40 4.3 C 69 % -0.87 C
659 25-03-2009 11:50:40 4.2 C 69 % -0.97 C
660 25-03-2009 12:02:40 4.2 C 69 % -0.97 C
661 25-03-2009 12:14:39 4.7 C 68 % -0.69 C
662 25-03-2009 12:26:39 4.4 C 67 % -1.18 C
663 25-03-2009 12:38:39 4.3 C 70 % -0.68 C
664 25-03-2009 12:50:39 4.4 C 69 % -0.78 C
665 25-03-2009 13:02:39 4.3 C 70 % -0.68 C
666 25-03-2009 13:14:39 4.4 C 70 % -0.58 C
667 25-03-2009 13:26:39 5.3 C 68 % -0.12 C
668 25-03-2009 13:38:39 5.9 C 65 % -0.16 C
669 25-03-2009 13:50:39 5.6 C 64 % -0.66 C
670 25-03-2009 14:02:38 5.6 C 65 % -0.45 C
671 25-03-2009 14:14:39 6.1 C 63 % -0.4 C
672 25-03-2009 14:26:40 6 C 62 % -0.71 C
673 25-03-2009 14:38:38 6 C 62 % -0.71 C
674 25-03-2009 14:50:38 6.1 C 63 % -0.4 C
675 25-03-2009 15:02:37 5.7 C 65 % -0.35 C
Sensor: Nr:Datum:Temp:Feuchte:Taupunkt:
Aussen-T/F 676 25-03-2009 15:14:38 5 C 72 % 0.38 C
677 25-03-2009 15:26:38 4.7 C 77 % 1.02 C
678 25-03-2009 15:38:38 5.3 C 78 % 1.78 C
679 25-03-2009 15:50:37 5.4 C 78 % 1.88 C
680 25-03-2009 16:02:38 5.7 C 76 % 1.81 C
681 25-03-2009 16:14:37 6.5 C 73 % 2.02 C
682 25-03-2009 16:26:37 6.9 C 69 % 1.62 C
683 25-03-2009 16:38:37 6.9 C 66 % 1 C
684 25-03-2009 16:50:37 6.4 C 67 % 0.73 C
685 25-03-2009 17:02:37 5.8 C 71 % 0.96 C
686 25-03-2009 17:14:37 4.7 C 78 % 1.2 C
687 25-03-2009 17:26:37 4.5 C 81 % 1.53 C
688 25-03-2009 17:38:36 4.6 C 83 % 1.97 C
689 25-03-2009 17:50:37 4.9 C 85 % 2.6 C
690 25-03-2009 18:02:36 4.8 C 85 % 2.5 C
691 25-03-2009 18:14:36 4.8 C 85 % 2.5 C
692 25-03-2009 18:26:36 4.7 C 84 % 2.23 C
693 25-03-2009 18:38:36 4.5 C 85 % 2.2 C
694 25-03-2009 18:50:36 4.2 C 84 % 1.74 C
695 25-03-2009 19:02:35 4 C 84 % 1.55 C
696 25-03-2009 19:14:36 3.8 C 86 % 1.68 C
697 25-03-2009 19:26:37 3.7 C 87 % 1.74 C
698 25-03-2009 19:38:35 3.6 C 88 % 1.8 C
699 25-03-2009 19:50:36 3.5 C 88 % 1.7 C
700 25-03-2009 20:02:35 3.6 C 89 % 1.96 C
Sensor: Nr:Datum:Temp:Feuchte:Taupunkt:
Aussen-T/F 701 25-03-2009 20:14:35 3.5 C 89 % 1.86 C
702 25-03-2009 20:26:35 3.6 C 90 % 2.12 C
703 25-03-2009 20:38:35 3.6 C 90 % 2.12 C
704 25-03-2009 20:50:35 3.6 C 90 % 2.12 C
705 25-03-2009 21:02:34 3.5 C 90 % 2.02 C
706 25-03-2009 21:14:34 3.5 C 90 % 2.02 C
707 25-03-2009 21:26:34 3.6 C 91 % 2.27 C
708 25-03-2009 21:38:35 3.7 C 91 % 2.37 C
709 25-03-2009 21:50:34 3.7 C 91 % 2.37 C
710 25-03-2009 22:02:35 3.7 C 91 % 2.37 C
711 25-03-2009 22:14:33 3.7 C 91 % 2.37 C
712 25-03-2009 22:26:33 3.8 C 91 % 2.47 C
713 25-03-2009 22:38:34 3.9 C 90 % 2.41 C
714 25-03-2009 22:50:33 3.9 C 89 % 2.26 C
715 25-03-2009 23:02:33 3.9 C 89 % 2.26 C
716 25-03-2009 23:14:34 4.1 C 88 % 2.3 C
717 25-03-2009 23:26:34 4.3 C 87 % 2.33 C
718 25-03-2009 23:38:33 4.4 C 84 % 1.94 C
719 25-03-2009 23:50:33 4.4 C 82 % 1.6 C
720 26-03-2009 00:02:33 4.3 C 81 % 1.34 C
721 26-03-2009 00:14:32 4.2 C 82 % 1.41 C
722 26-03-2009 00:26:32 4 C 83 % 1.38 C
723 26-03-2009 00:38:33 4 C 83 % 1.38 C
724 26-03-2009 00:50:32 4.1 C 83 % 1.48 C
725 26-03-2009 01:02:32 4.2 C 82 % 1.41 C
Sensor: Nr:Datum:Temp:Feuchte:Taupunkt:
Aussen-T/F 726 26-03-2009 01:14:32 4.3 C 81 % 1.34 C
727 26-03-2009 01:26:32 4.3 C 81 % 1.34 C
728 26-03-2009 01:38:32 4.2 C 81 % 1.24 C
729 26-03-2009 01:50:31 4.2 C 81 % 1.24 C
730 26-03-2009 02:02:32 4.2 C 81 % 1.24 C
731 26-03-2009 02:14:31 4.1 C 82 % 1.31 C
732 26-03-2009 02:26:31 4 C 84 % 1.55 C
733 26-03-2009 02:38:31 4 C 85 % 1.71 C
734 26-03-2009 02:51:32 4 C 85 % 1.71 C
735 26-03-2009 03:03:32 4 C 85 % 1.71 C
736 26-03-2009 03:15:32 4 C 85 % 1.71 C
737 26-03-2009 03:27:32 4 C 84 % 1.55 C
738 26-03-2009 03:39:32 4.1 C 84 % 1.65 C
739 26-03-2009 03:51:32 4.1 C 83 % 1.48 C
740 26-03-2009 04:03:32 4.1 C 82 % 1.31 C
741 26-03-2009 04:15:31 4.1 C 81 % 1.14 C
742 26-03-2009 04:27:31 4.2 C 79 % 0.89 C
743 26-03-2009 04:39:31 4.2 C 78 % 0.71 C
744 26-03-2009 04:51:31 4.2 C 78 % 0.71 C
745 26-03-2009 05:03:31 4.2 C 78 % 0.71 C
746 26-03-2009 05:15:31 4.1 C 79 % 0.79 C
747 26-03-2009 05:27:31 4.2 C 79 % 0.89 C
748 26-03-2009 05:39:31 4.3 C 78 % 0.81 C
749 26-03-2009 05:51:31 4.3 C 78 % 0.81 C
750 26-03-2009 06:03:30 4.2 C 78 % 0.71 C
Sensor: Nr:Datum:Temp:Feuchte:Taupunkt:
Aussen-T/F 751 26-03-2009 06:15:31 4 C 78 % 0.52 C
752 26-03-2009 06:27:32 4.1 C 78 % 0.62 C
753 26-03-2009 06:39:30 4 C 78 % 0.52 C
754 26-03-2009 06:51:30 3.8 C 79 % 0.5 C
755 26-03-2009 07:03:30 3.8 C 79 % 0.5 C
756 26-03-2009 07:15:30 4.2 C 79 % 0.89 C
757 26-03-2009 07:27:30 4.5 C 77 % 0.83 C
758 26-03-2009 07:39:30 4.5 C 75 % 0.46 C
759 26-03-2009 07:51:30 4.7 C 74 % 0.47 C
760 26-03-2009 08:03:30 5 C 72 % 0.38 C
761 26-03-2009 08:15:29 5.3 C 72 % 0.67 C
762 26-03-2009 08:27:29 5.5 C 71 % 0.67 C
763 26-03-2009 08:39:29 6.1 C 69 % 0.85 C
764 26-03-2009 08:51:29 6.4 C 68 % 0.94 C
765 26-03-2009 09:03:29 6.5 C 68 % 1.03 C
766 26-03-2009 09:15:29 6.6 C 67 % 0.92 C
767 26-03-2009 09:27:29 7 C 66 % 1.09 C
768 26-03-2009 09:39:29 7.4 C 65 % 1.26 C
769 26-03-2009 09:51:29 7.8 C 63 % 1.21 C
770 26-03-2009 10:03:29 7.9 C 62 % 1.08 C
771 26-03-2009 10:15:28 7.7 C 62 % 0.89 C
772 26-03-2009 10:27:28 7.8 C 61 % 0.76 C
773 26-03-2009 10:39:28 8.2 C 60 % 0.91 C
774 26-03-2009 10:51:28 8.5 C 58 % 0.72 C
775 26-03-2009 11:03:28 9.1 C 57 % 1.04 C
Sensor: Nr:Datum:Temp:Feuchte:Taupunkt:
Aussen-T/F 776 26-03-2009 11:15:27 8.8 C 57 % 0.76 C
777 26-03-2009 11:27:27 8.4 C 59 % 0.87 C
778 26-03-2009 11:39:28 8.4 C 60 % 1.1 C
779 26-03-2009 11:51:27 9 C 58 % 1.19 C
780 26-03-2009 12:03:27 9.3 C 55 % 0.74 C
781 26-03-2009 12:15:27 9.2 C 56 % 0.89 C
782 26-03-2009 12:27:27 9 C 56 % 0.71 C
783 26-03-2009 12:39:27 8.6 C 60 % 1.29 C
784 26-03-2009 12:51:27 8.2 C 62 % 1.37 C
785 26-03-2009 13:03:26 8 C 64 % 1.62 C
786 26-03-2009 13:15:27 7.7 C 66 % 1.76 C
787 26-03-2009 13:27:27 7.6 C 68 % 2.08 C
788 26-03-2009 13:39:26 7.5 C 70 % 2.39 C
789 26-03-2009 13:51:26 7.2 C 73 % 2.69 C
790 26-03-2009 14:03:26 7 C 75 % 2.88 C
791 26-03-2009 14:15:26 7 C 77 % 3.25 C
792 26-03-2009 14:27:26 7.2 C 75 % 3.07 C
793 26-03-2009 14:39:26 7.3 C 73 % 2.79 C
794 26-03-2009 14:51:25 7.1 C 73 % 2.6 C
795 26-03-2009 15:03:26 7.1 C 73 % 2.6 C
796 26-03-2009 15:15:25 7.1 C 72 % 2.4 C
797 26-03-2009 15:27:25 7.1 C 72 % 2.4 C
798 26-03-2009 15:39:25 7.3 C 71 % 2.4 C
799 26-03-2009 15:51:25 7.3 C 70 % 2.2 C
800 26-03-2009 16:03:25 7.2 C 72 % 2.5 C
Sensor: Nr:Datum:Temp:Feuchte:Taupunkt:
Aussen-T/F 801 26-03-2009 16:15:25 7.3 C 71 % 2.4 C
802 26-03-2009 16:27:25 7.4 C 71 % 2.5 C
803 26-03-2009 16:39:24 7.4 C 72 % 2.69 C
804 26-03-2009 16:51:25 7.2 C 74 % 2.89 C
805 26-03-2009 17:03:24 7.1 C 76 % 3.16 C
806 26-03-2009 17:15:24 7.1 C 76 % 3.16 C
807 26-03-2009 17:27:24 7.3 C 75 % 3.17 C
808 26-03-2009 17:39:24 7.3 C 75 % 3.17 C
809 26-03-2009 17:51:24 7.3 C 75 % 3.17 C
810 26-03-2009 18:03:23 7.3 C 76 % 3.36 C
811 26-03-2009 18:15:24 7.3 C 75 % 3.17 C
812 26-03-2009 18:27:24 7.5 C 74 % 3.17 C
813 26-03-2009 18:39:24 7.5 C 73 % 2.98 C
814 26-03-2009 18:51:23 7.6 C 72 % 2.88 C
815 26-03-2009 19:03:23 7.5 C 72 % 2.79 C
816 26-03-2009 19:15:23 7.5 C 71 % 2.59 C
817 26-03-2009 19:27:23 7.6 C 70 % 2.49 C
818 26-03-2009 19:39:23 7.6 C 70 % 2.49 C
819 26-03-2009 19:51:22 7.4 C 71 % 2.5 C
820 26-03-2009 20:03:23 7.2 C 72 % 2.5 C
821 26-03-2009 20:15:22 7.4 C 73 % 2.89 C
822 26-03-2009 20:27:22 7.7 C 72 % 2.98 C
823 26-03-2009 20:39:22 7.7 C 72 % 2.98 C
824 26-03-2009 20:51:22 7.7 C 73 % 3.18 C
825 26-03-2009 21:03:22 7.6 C 74 % 3.27 C
Sensor: Nr:Datum:Temp:Feuchte:Taupunkt:
Aussen-T/F 826 26-03-2009 21:15:22 7.6 C 75 % 3.46 C
827 26-03-2009 21:27:22 7.7 C 75 % 3.56 C
828 26-03-2009 21:39:21 7.7 C 75 % 3.56 C
829 26-03-2009 21:51:22 7.7 C 74 % 3.37 C
830 26-03-2009 22:04:21 7.6 C 76 % 3.65 C
831 26-03-2009 22:16:21 7.5 C 79 % 4.1 C
832 26-03-2009 22:28:21 7.5 C 80 % 4.28 C
833 26-03-2009 22:40:21 7.6 C 79 % 4.2 C
834 26-03-2009 22:52:21 7.9 C 77 % 4.12 C
835 26-03-2009 23:04:21 8 C 75 % 3.85 C
836 26-03-2009 23:16:21 8 C 75 % 3.85 C
837 26-03-2009 23:28:21 7.9 C 77 % 4.12 C
838 26-03-2009 23:40:21 7.9 C 78 % 4.31 C
839 26-03-2009 23:52:21 7.6 C 80 % 4.38 C
840 27-03-2009 00:04:21 7.5 C 82 % 4.63 C
841 27-03-2009 00:16:21 7.5 C 83 % 4.81 C
842 27-03-2009 00:28:22 7.6 C 83 % 4.9 C
843 27-03-2009 00:40:22 7.6 C 83 % 4.9 C
844 27-03-2009 00:52:22 7.6 C 83 % 4.9 C
845 27-03-2009 01:04:22 7.6 C 83 % 4.9 C
846 27-03-2009 01:16:22 7.4 C 85 % 5.05 C
847 27-03-2009 01:28:22 7.4 C 86 % 5.22 C
848 27-03-2009 01:40:22 7.3 C 88 % 5.45 C
849 27-03-2009 01:52:22 7.4 C 88 % 5.55 C
850 27-03-2009 02:04:22 7.4 C 88 % 5.55 C
Sensor: Nr:Datum:Temp:Feuchte:Taupunkt:
Aussen-T/F 851 27-03-2009 02:16:22 7.3 C 88 % 5.45 C
852 27-03-2009 02:28:22 7.2 C 87 % 5.19 C
853 27-03-2009 02:40:22 7.3 C 85 % 4.95 C
854 27-03-2009 02:52:22 7.4 C 83 % 4.71 C
855 27-03-2009 03:04:22 7.6 C 81 % 4.55 C
856 27-03-2009 03:16:22 7.5 C 80 % 4.28 C
857 27-03-2009 03:28:22 7.5 C 80 % 4.28 C
858 27-03-2009 03:40:22 7.5 C 80 % 4.28 C
859 27-03-2009 03:52:22 7.4 C 80 % 4.18 C
860 27-03-2009 04:04:22 7.4 C 82 % 4.53 C
861 27-03-2009 04:16:23 7.3 C 82 % 4.44 C
862 27-03-2009 04:28:23 7.3 C 83 % 4.61 C
863 27-03-2009 04:40:23 7.1 C 84 % 4.58 C
864 27-03-2009 04:52:23 7 C 84 % 4.49 C
865 27-03-2009 05:04:23 6.9 C 86 % 4.72 C
866 27-03-2009 05:16:23 7 C 83 % 4.32 C
867 27-03-2009 05:28:23 7 C 82 % 4.14 C
868 27-03-2009 05:40:23 7.1 C 79 % 3.71 C
869 27-03-2009 05:52:23 7.1 C 75 % 2.98 C
870 27-03-2009 06:04:23 7.3 C 70 % 2.2 C
871 27-03-2009 06:16:23 7.2 C 67 % 1.49 C
872 27-03-2009 06:28:23 7 C 67 % 1.3 C
873 27-03-2009 06:40:23 7 C 68 % 1.51 C
874 27-03-2009 06:52:23 6.9 C 71 % 2.02 C
875 27-03-2009 07:04:21 7 C 71 % 2.11 C
Sensor: Nr:Datum:Temp:Feuchte:Taupunkt:
Aussen-T/F 876 27-03-2009 07:16:22 7.1 C 70 % 2.01 C
877 27-03-2009 07:28:22 7.2 C 66 % 1.29 C
878 27-03-2009 07:40:21 7.3 C 65 % 1.17 C
879 27-03-2009 07:52:21 7.3 C 66 % 1.38 C
880 27-03-2009 08:04:21 7.5 C 65 % 1.36 C
881 27-03-2009 08:16:21 7.6 C 63 % 1.02 C
882 27-03-2009 08:28:21 7.8 C 62 % 0.99 C
883 27-03-2009 08:40:21 8 C 60 % 0.72 C
884 27-03-2009 08:52:21 8 C 60 % 0.72 C
885 27-03-2009 09:04:21 8.1 C 60 % 0.82 C
886 27-03-2009 09:16:20 8 C 59 % 0.49 C
887 27-03-2009 09:28:20 7.9 C 60 % 0.63 C
888 27-03-2009 09:40:20 8.4 C 57 % 0.39 C
889 27-03-2009 09:52:20 8.5 C 56 % 0.24 C
890 27-03-2009 10:04:20 8.5 C 55 % -0.01 C
891 27-03-2009 10:16:19 7 C 66 % 1.09 C
892 27-03-2009 10:28:19 7.2 C 72 % 2.5 C
893 27-03-2009 10:40:20 7.7 C 71 % 2.78 C
894 27-03-2009 10:52:19 8.3 C 61 % 1.23 C
895 27-03-2009 11:04:19 8.4 C 54 % -0.35 C
896 27-03-2009 11:16:19 8.5 C 51 % -1.04 C
897 27-03-2009 11:28:19 7.9 C 58 % 0.16 C
898 27-03-2009 11:40:19 8.1 C 60 % 0.82 C
899 27-03-2009 11:52:19 9 C 53 % -0.05 C
900 27-03-2009 12:04:18 9.3 C 48 % -1.13 C
Sensor: Nr:Datum:Temp:Feuchte:Taupunkt:
Aussen-T/F 901 27-03-2009 12:16:19 9.3 C 46 % -1.71 C
902 27-03-2009 12:28:19 8.8 C 46 % -2.17 C
903 27-03-2009 12:40:18 8.9 C 48 % -1.5 C
904 27-03-2009 12:52:18 9.1 C 45 % -2.19 C
905 27-03-2009 13:04:19 9.7 C 42 % -2.57 C
906 27-03-2009 13:16:18 9.7 C 40 % -3.23 C
907 27-03-2009 13:28:18 9.6 C 37 % -4.35 C
908 27-03-2009 13:40:18 9.7 C 37 % -4.26 C
909 27-03-2009 13:52:18 9.8 C 37 % -4.18 C
910 27-03-2009 14:04:18 10.4 C 35 % -4.38 C
911 27-03-2009 14:16:17 10.3 C 35 % -4.47 C
912 27-03-2009 14:28:17 10.3 C 35 % -4.47 C
913 27-03-2009 14:40:17 10.2 C 36 % -4.18 C
914 27-03-2009 14:52:17 10.1 C 39 % -3.21 C
915 27-03-2009 15:04:17 9.7 C 40 % -3.23 C
916 27-03-2009 15:16:17 9.6 C 42 % -2.66 C
917 27-03-2009 15:28:17 9.7 C 40 % -3.23 C
918 27-03-2009 15:40:17 9.8 C 41 % -2.81 C
919 27-03-2009 15:52:17 9.6 C 41 % -2.99 C
920 27-03-2009 16:04:16 8.5 C 45 % -2.73 C
921 27-03-2009 16:16:16 7.9 C 48 % -2.42 C
922 27-03-2009 16:28:16 7.9 C 50 % -1.86 C
923 27-03-2009 16:40:16 7.4 C 55 % -1.03 C
924 27-03-2009 16:52:16 6.9 C 66 % 1 C
925 27-03-2009 17:04:15 6.6 C 71 % 1.73 C
Sensor: Nr:Datum:Temp:Feuchte:Taupunkt:
Aussen-T/F 926 27-03-2009 17:16:16 6.6 C 68 % 1.13 C
927 27-03-2009 17:28:16 6.3 C 72 % 1.63 C
928 27-03-2009 17:40:16 5.9 C 74 % 1.63 C
929 27-03-2009 17:52:15 5.2 C 76 % 1.32 C
930 27-03-2009 18:04:16 5 C 79 % 1.67 C
931 27-03-2009 18:16:15 4.9 C 82 % 2.09 C
932 27-03-2009 18:28:15 4.9 C 82 % 2.09 C
933 27-03-2009 18:40:15 5.1 C 80 % 1.94 C
934 27-03-2009 18:52:15 5.6 C 74 % 1.34 C
935 27-03-2009 19:04:15 5.7 C 68 % 0.27 C
936 27-03-2009 19:16:14 5.9 C 66 % 0.05 C
937 27-03-2009 19:28:14 6 C 66 % 0.14 C
938 27-03-2009 19:40:02 5.8 C 69 % 0.56 C
939 27-03-2009 19:52:01 5.8 C 70 % 0.76 C
940 27-03-2009 20:04:02 5.6 C 72 % 0.96 C
941 27-03-2009 20:16:01 5.6 C 73 % 1.15 C
942 27-03-2009 20:28:01 5.5 C 73 % 1.06 C
943 27-03-2009 20:40:01 5.3 C 74 % 1.05 C
944 27-03-2009 20:52:01 5 C 75 % 0.95 C
945 27-03-2009 21:04:02 4.8 C 76 % 0.94 C
946 27-03-2009 21:16:01 4.8 C 77 % 1.12 C
947 27-03-2009 21:28:01 4.9 C 78 % 1.39 C
948 27-03-2009 21:40:01 4.7 C 79 % 1.38 C
949 27-03-2009 21:52:01 5.2 C 78 % 1.69 C
950 27-03-2009 22:04:01 5.7 C 75 % 1.62 C
Sensor: Nr:Datum:Temp:Feuchte:Taupunkt:
Aussen-T/F 951 27-03-2009 22:16:00 5.8 C 72 % 1.15 C
952 27-03-2009 22:28:00 5.7 C 72 % 1.06 C
953 27-03-2009 22:40:01 5.6 C 73 % 1.15 C
954 27-03-2009 22:53:01 5.6 C 74 % 1.34 C
955 27-03-2009 23:05:01 5.3 C 75 % 1.24 C
956 27-03-2009 23:17:01 5.1 C 77 % 1.41 C
957 27-03-2009 23:29:01 4.8 C 81 % 1.82 C
958 27-03-2009 23:41:01 4.8 C 83 % 2.16 C
959 27-03-2009 23:53:01 4.8 C 84 % 2.33 C
960 28-03-2009 00:05:01 4.9 C 85 % 2.6 C
961 28-03-2009 00:17:01 4.8 C 86 % 2.66 C
962 28-03-2009 00:29:01 4.7 C 87 % 2.73 C
963 28-03-2009 00:41:01 4.4 C 88 % 2.59 C
964 28-03-2009 00:53:01 4 C 88 % 2.2 C
965 28-03-2009 01:05:01 3.6 C 88 % 1.8 C
966 28-03-2009 01:17:01 3.6 C 89 % 1.96 C
967 28-03-2009 01:29:02 3.4 C 89 % 1.76 C
968 28-03-2009 01:41:02 3.3 C 89 % 1.67 C
969 28-03-2009 01:53:02 3.4 C 90 % 1.92 C
970 28-03-2009 02:05:02 3.4 C 90 % 1.92 C
971 28-03-2009 02:17:02 3.5 C 91 % 2.17 C
972 28-03-2009 02:29:02 3.7 C 91 % 2.37 C
973 28-03-2009 02:41:02 3.7 C 92 % 2.52 C
974 28-03-2009 02:53:02 3.8 C 92 % 2.62 C
975 28-03-2009 03:05:02 3.8 C 92 % 2.62 C
Sensor: Nr:Datum:Temp:Feuchte:Taupunkt:
Aussen-T/F 976 28-03-2009 03:17:02 3.9 C 92 % 2.72 C
977 28-03-2009 03:29:02 4 C 92 % 2.82 C
978 28-03-2009 03:41:02 4.1 C 92 % 2.92 C
979 28-03-2009 03:53:02 4.2 C 92 % 3.02 C
980 28-03-2009 04:05:02 4.3 C 93 % 3.27 C
981 28-03-2009 04:17:02 4.3 C 93 % 3.27 C
982 28-03-2009 04:29:02 4.3 C 93 % 3.27 C
983 28-03-2009 04:41:02 4.3 C 93 % 3.27 C
984 28-03-2009 04:53:02 4.3 C 93 % 3.27 C
985 28-03-2009 05:05:02 4.3 C 93 % 3.27 C
986 28-03-2009 05:17:03 4.3 C 93 % 3.27 C
987 28-03-2009 05:29:03 4.4 C 93 % 3.37 C
988 28-03-2009 05:41:03 4.6 C 93 % 3.57 C
989 28-03-2009 05:53:03 4.7 C 93 % 3.67 C
990 28-03-2009 06:05:03 4.8 C 93 % 3.77 C
991 28-03-2009 06:17:03 4.8 C 92 % 3.61 C
992 28-03-2009 06:29:03 4.9 C 92 % 3.71 C
993 28-03-2009 06:41:03 5 C 91 % 3.66 C
994 28-03-2009 06:53:03 5.2 C 90 % 3.7 C
995 28-03-2009 07:05:03 5 C 89 % 3.34 C
996 28-03-2009 07:17:03 4.7 C 90 % 3.2 C
997 28-03-2009 07:29:03 4.9 C 90 % 3.4 C
998 28-03-2009 07:41:03 4.8 C 90 % 3.3 C
999 28-03-2009 07:53:03 5.2 C 89 % 3.54 C
1000 28-03-2009 08:05:03 5.6 C 90 % 4.09 C
Sensor: Nr:Datum:Temp:Feuchte:Taupunkt:
Aussen-T/F 1001 28-03-2009 08:17:03 5.8 C 90 % 4.29 C
1002 28-03-2009 08:29:03 5.9 C 89 % 4.23 C
1003 28-03-2009 08:41:03 6.8 C 88 % 4.96 C
1004 28-03-2009 08:53:03 7.6 C 78 % 4.02 C
1005 28-03-2009 09:05:04 8.2 C 71 % 3.26 C
1006 28-03-2009 09:17:04 8.9 C 66 % 2.9 C
1007 28-03-2009 09:29:04 9 C 61 % 1.89 C
1008 28-03-2009 09:41:02 8.6 C 67 % 2.83 C
1009 28-03-2009 09:53:01 7.9 C 71 % 2.98 C
1010 28-03-2009 10:05:01 7.7 C 74 % 3.37 C
1011 28-03-2009 10:17:01 7.6 C 77 % 3.83 C
1012 28-03-2009 10:29:01 7.6 C 78 % 4.02 C
1013 28-03-2009 10:41:01 7.9 C 80 % 4.67 C
1014 28-03-2009 10:53:00 7.9 C 81 % 4.85 C
1015 28-03-2009 11:05:01 7.9 C 80 % 4.67 C
1016 28-03-2009 11:17:00 8.5 C 74 % 4.14 C
1017 28-03-2009 11:29:00 8.6 C 70 % 3.45 C
1018 28-03-2009 11:41:00 8.6 C 68 % 3.04 C
1019 28-03-2009 11:53:02 8.5 C 70 % 3.35 C
1020 28-03-2009 12:05:01 8.3 C 72 % 3.56 C
1021 28-03-2009 12:17:01 8.3 C 73 % 3.75 C
1022 28-03-2009 12:29:01 8.1 C 71 % 3.17 C
1023 28-03-2009 12:41:02 8.5 C 71 % 3.55 C
1024 28-03-2009 12:53:01 9 C 63 % 2.35 C
1025 28-03-2009 13:05:01 9.1 C 63 % 2.44 C
Sensor: Nr:Datum:Temp:Feuchte:Taupunkt:
Aussen-T/F 1026 28-03-2009 13:17:01 9.4 C 61 % 2.27 C
1027 28-03-2009 13:29:01 9.9 C 57 % 1.79 C
1028 28-03-2009 13:41:01 10.3 C 54 % 1.41 C
1029 28-03-2009 13:53:00 8.9 C 62 % 2.03 C
1030 28-03-2009 14:05:01 7 C 69 % 1.71 C
1031 28-03-2009 14:17:00 7.1 C 71 % 2.21 C
1032 28-03-2009 14:29:00 8.2 C 66 % 2.24 C
1033 28-03-2009 14:41:00 9.2 C 62 % 2.31 C
1034 28-03-2009 14:53:00 10.5 C 54 % 1.6 C
1035 28-03-2009 15:05:00 11.2 C 52 % 1.72 C
1036 28-03-2009 15:17:00 11.6 C 46 % 0.39 C
1037 28-03-2009 15:29:00 11 C 47 % 0.14 C
1038 28-03-2009 15:41:59 10.7 C 49 % 0.44 C
1039 28-03-2009 15:53:00 11.2 C 42 % -1.22 C
1040 28-03-2009 16:05:59 10.5 C 43 % -1.53 C
1041 28-03-2009 16:17:59 10.9 C 43 % -1.17 C
1042 28-03-2009 16:29:59 10.3 C 44 % -1.4 C
1043 28-03-2009 16:41:58 10.7 C 42 % -1.67 C
1044 28-03-2009 16:53:59 11.3 C 36 % -3.21 C
1045 28-03-2009 17:05:59 10.6 C 36 % -3.83 C
1046 28-03-2009 17:17:58 10.2 C 37 % -3.82 C
1047 28-03-2009 17:29:58 9.7 C 39 % -3.57 C
1048 28-03-2009 17:41:59 9.7 C 38 % -3.91 C
1049 28-03-2009 17:53:58 9.7 C 40 % -3.23 C
1050 28-03-2009 18:05:58 9.7 C 40 % -3.23 C
Sensor: Nr:Datum:Temp:Feuchte:Taupunkt:
Aussen-T/F 1051 28-03-2009 18:17:58 10.5 C 37 % -3.55 C
1052 28-03-2009 18:29:58 10.2 C 35 % -4.56 C
1053 28-03-2009 18:41:58 9.5 C 37 % -4.44 C
1054 28-03-2009 18:53:57 9 C 38 % -4.54 C
1055 28-03-2009 19:05:58 8.7 C 40 % -4.13 C
1056 28-03-2009 19:17:58 8.2 C 41 % -4.25 C
1057 28-03-2009 19:29:58 7.9 C 45 % -3.28 C
1058 28-03-2009 19:41:57 7.6 C 46 % -3.26 C
1059 28-03-2009 19:53:57 7.3 C 50 % -2.42 C
1060 28-03-2009 20:05:57 6.9 C 54 % -1.75 C
1061 28-03-2009 20:17:57 6.7 C 57 % -1.2 C
1062 28-03-2009 20:29:57 6.9 C 56 % -1.26 C
1063 28-03-2009 20:41:57 7 C 56 % -1.16 C
1064 28-03-2009 20:53:57 6.9 C 57 % -1.01 C
1065 28-03-2009 21:05:57 6.4 C 58 % -1.25 C
1066 28-03-2009 21:17:56 6.2 C 60 % -0.97 C
1067 28-03-2009 21:29:56 6 C 61 % -0.94 C
1068 28-03-2009 21:41:56 6 C 61 % -0.94 C
1069 28-03-2009 21:53:56 6.4 C 61 % -0.56 C
1070 28-03-2009 22:05:56 6.4 C 61 % -0.56 C
1071 28-03-2009 22:17:56 6.5 C 60 % -0.69 C
1072 28-03-2009 22:29:56 6.9 C 58 % -0.78 C
1073 28-03-2009 22:42:56 7.1 C 55 % -1.31 C
1074 28-03-2009 22:54:56 7.2 C 54 % -1.47 C
1075 28-03-2009 23:06:56 7.2 C 54 % -1.47 C
Sensor: Nr:Datum:Temp:Feuchte:Taupunkt:
Aussen-T/F 1076 28-03-2009 23:18:56 6.6 C 63 % 0.07 C
1077 28-03-2009 23:30:57 6 C 69 % 0.76 C
1078 28-03-2009 23:42:57 5.8 C 72 % 1.15 C
1079 28-03-2009 23:54:57 5.9 C 74 % 1.63 C
1080 29-03-2009 00:06:57 6 C 70 % 0.95 C
1081 29-03-2009 00:18:57 6.3 C 67 % 0.64 C
1082 29-03-2009 00:30:57 6.3 C 64 % 0 C
1083 29-03-2009 00:42:57 6 C 66 % 0.14 C
1084 29-03-2009 00:54:57 5.9 C 68 % 0.46 C
1085 29-03-2009 01:06:57 5.9 C 69 % 0.66 C
1086 29-03-2009 01:18:57 5.9 C 68 % 0.46 C
1087 29-03-2009 01:30:57 6 C 68 % 0.55 C
1088 29-03-2009 01:42:57 5.9 C 69 % 0.66 C
1089 29-03-2009 01:54:57 5.9 C 71 % 1.06 C
1090 29-03-2009 02:06:57 5.7 C 70 % 0.67 C
1091 29-03-2009 02:18:57 5.3 C 72 % 0.67 C
1092 29-03-2009 02:30:57 5.1 C 72 % 0.48 C
1093 29-03-2009 02:42:57 4.8 C 74 % 0.57 C
1094 29-03-2009 02:54:57 4.9 C 75 % 0.85 C
1095 29-03-2009 04:06:57 5 C 74 % 0.76 C
1096 29-03-2009 04:18:57 5.2 C 73 % 0.77 C
1097 29-03-2009 04:30:58 5.2 C 70 % 0.19 C
1098 29-03-2009 04:42:58 5.2 C 68 % -0.21 C
1099 29-03-2009 04:54:58 5.2 C 66 % -0.62 C
1100 29-03-2009 05:06:58 5.1 C 63 % -1.35 C
Sensor: Nr:Datum:Temp:Feuchte:Taupunkt:
Aussen-T/F 1101 29-03-2009 05:18:58 5.1 C 62 % -1.57 C
1102 29-03-2009 05:30:58 5.1 C 61 % -1.79 C
1103 29-03-2009 05:42:58 5.1 C 63 % -1.35 C
1104 29-03-2009 05:54:58 5.2 C 62 % -1.47 C
1105 29-03-2009 06:06:58 5.2 C 61 % -1.69 C
1106 29-03-2009 06:18:58 5.2 C 61 % -1.69 C
1107 29-03-2009 06:30:58 5.1 C 62 % -1.57 C
1108 29-03-2009 06:42:58 5 C 62 % -1.66 C
1109 29-03-2009 06:54:58 4.8 C 66 % -1 C
1110 29-03-2009 07:06:58 4.6 C 67 % -0.99 C
1111 29-03-2009 07:18:58 4.6 C 68 % -0.78 C
1112 29-03-2009 07:30:58 4.7 C 68 % -0.69 C
1113 29-03-2009 07:42:58 4.5 C 68 % -0.88 C
1114 29-03-2009 07:54:58 4.4 C 68 % -0.98 C
1115 29-03-2009 08:06:58 4.7 C 68 % -0.69 C
1116 29-03-2009 08:18:59 5 C 66 % -0.81 C
1117 29-03-2009 08:30:59 5.1 C 65 % -0.92 C
1118 29-03-2009 08:42:59 5.1 C 65 % -0.92 C
1119 29-03-2009 08:54:59 5.2 C 65 % -0.83 C
1120 29-03-2009 09:06:59 5.4 C 64 % -0.85 C
1121 29-03-2009 09:18:59 5.5 C 65 % -0.54 C
1122 29-03-2009 09:30:56 5.5 C 65 % -0.54 C
1123 29-03-2009 09:42:56 5.6 C 66 % -0.24 C
1124 29-03-2009 09:54:56 5.1 C 73 % 0.67 C
1125 29-03-2009 10:06:56 5.3 C 76 % 1.42 C
Sensor: Nr:Datum:Temp:Feuchte:Taupunkt:
Aussen-T/F 1126 29-03-2009 10:18:01 5.4 C 77 % 1.7 C
1127 29-03-2009 10:30:01 5.9 C 77 % 2.19 C
1128 29-03-2009 10:42:02 6.3 C 73 % 1.83 C
1129 29-03-2009 10:54:01 6.4 C 70 % 1.34 C
1130 29-03-2009 11:06:02 6.2 C 69 % 0.95 C
1131 29-03-2009 11:18:01 6.2 C 69 % 0.95 C
1132 29-03-2009 11:30:01 6.5 C 67 % 0.83 C
1133 29-03-2009 11:42:01 6.5 C 66 % 0.62 C
1134 29-03-2009 11:54:01 6.7 C 66 % 0.81 C
1135 29-03-2009 12:06:01 6.9 C 65 % 0.79 C
1136 29-03-2009 12:18:00 7.6 C 63 % 1.02 C
1137 29-03-2009 12:30:00 8.4 C 60 % 1.1 C
1138 29-03-2009 12:42:01 8 C 59 % 0.49 C
1139 29-03-2009 12:54:00 8.1 C 60 % 0.82 C
1140 29-03-2009 13:06:00 8.9 C 57 % 0.86 C
1141 29-03-2009 13:18:00 7.8 C 58 % 0.07 C
1142 29-03-2009 13:30:00 7.8 C 62 % 0.99 C
1143 29-03-2009 13:42:00 8.5 C 58 % 0.72 C
1144 29-03-2009 13:54:00 8.8 C 57 % 0.76 C
1145 29-03-2009 14:06:00 9 C 52 % -0.31 C
1146 29-03-2009 14:18:00 7.9 C 59 % 0.4 C
1147 29-03-2009 14:30:00 6.7 C 67 % 1.02 C
1148 29-03-2009 14:42:59 6.6 C 72 % 1.92 C
1149 29-03-2009 14:54:00 6.9 C 75 % 2.78 C
1150 29-03-2009 15:06:59 8.3 C 75 % 4.14 C
Sensor: Nr:Datum:Temp:Feuchte:Taupunkt:
Aussen-T/F 1151 29-03-2009 15:18:59 9 C 69 % 3.63 C
1152 29-03-2009 15:30:58 8.4 C 62 % 1.55 C
1153 29-03-2009 15:42:58 9 C 62 % 2.12 C
1154 29-03-2009 15:54:59 8.1 C 56 % -0.13 C
1155 29-03-2009 16:06:58 7.4 C 58 % -0.31 C
1156 29-03-2009 16:18:58 7.7 C 56 % -0.51 C
1157 29-03-2009 16:30:58 8.1 C 55 % -0.38 C
1158 29-03-2009 16:42:58 8.3 C 52 % -0.96 C
1159 29-03-2009 16:54:58 8.4 C 49 % -1.68 C
1160 29-03-2009 17:06:58 9 C 47 % -1.69 C
1161 29-03-2009 17:18:57 9.5 C 47 % -1.23 C
1162 29-03-2009 17:30:58 9.8 C 44 % -1.86 C
1163 29-03-2009 17:42:58 9 C 45 % -2.28 C
1164 29-03-2009 17:54:57 8.5 C 45 % -2.73 C
1165 29-03-2009 18:06:58 8.2 C 48 % -2.14 C
1166 29-03-2009 18:18:57 8 C 51 % -1.5 C
1167 29-03-2009 18:30:57 8 C 53 % -0.98 C
1168 29-03-2009 18:42:57 7.8 C 55 % -0.66 C
1169 29-03-2009 18:54:57 7.5 C 59 % 0.02 C
1170 29-03-2009 19:06:57 7.3 C 61 % 0.29 C
1171 29-03-2009 19:18:56 7 C 62 % 0.23 C
1172 29-03-2009 19:30:56 6.3 C 71 % 1.44 C
1173 29-03-2009 19:42:56 6.1 C 75 % 2.01 C
1174 29-03-2009 19:54:56 6 C 78 % 2.46 C
1175 29-03-2009 20:06:56 5.9 C 81 % 2.9 C
Sensor: Nr:Datum:Temp:Feuchte:Taupunkt:
Aussen-T/F 1176 29-03-2009 20:18:56 5.7 C 82 % 2.87 C
1177 29-03-2009 20:30:56 5.5 C 83 % 2.85 C
1178 29-03-2009 20:42:56 5.4 C 84 % 2.92 C
1179 29-03-2009 20:54:56 5.3 C 84 % 2.82 C
1180 29-03-2009 21:06:55 5 C 84 % 2.53 C
1181 29-03-2009 21:18:56 4.8 C 85 % 2.5 C
1182 29-03-2009 21:30:55 4.7 C 85 % 2.4 C
1183 29-03-2009 21:42:55 4.5 C 85 % 2.2 C
1184 29-03-2009 21:54:55 4.5 C 86 % 2.37 C
1185 29-03-2009 22:06:55 4.6 C 86 % 2.47 C
1186 29-03-2009 22:18:55 4.6 C 86 % 2.47 C
1187 29-03-2009 22:30:55 4.4 C 85 % 2.11 C
1188 29-03-2009 22:42:55 4.3 C 85 % 2.01 C
1189 29-03-2009 22:54:55 4.3 C 84 % 1.84 C
1190 29-03-2009 23:06:55 4.3 C 83 % 1.67 C
1191 29-03-2009 23:18:54 4.3 C 82 % 1.51 C
1192 29-03-2009 23:31:02 4.1 C 81 % 1.14 C
1193 29-03-2009 23:43:02 3.8 C 82 % 1.02 C
1194 29-03-2009 23:55:02 3.6 C 82 % 0.82 C
1195 30-03-2009 00:07:02 3.5 C 82 % 0.72 C
1196 30-03-2009 00:19:02 3.3 C 82 % 0.53 C
1197 30-03-2009 00:31:02 3.1 C 82 % 0.33 C
1198 30-03-2009 00:43:02 3 C 83 % 0.4 C
1199 30-03-2009 00:55:02 3 C 83 % 0.4 C
1200 30-03-2009 01:07:02 2.7 C 84 % 0.27 C
Sensor: Nr:Datum:Temp:Feuchte:Taupunkt:
Aussen-T/F 1201 30-03-2009 01:19:02 2.5 C 84 % 0.08 C
1202 30-03-2009 01:31:02 2.3 C 85 % 0.04 C
1203 30-03-2009 01:43:02 2.1 C 85 % -0.15 C
1204 30-03-2009 01:55:02 2 C 85 % -0.25 C
1205 30-03-2009 02:07:03 2 C 86 % -0.09 C
1206 30-03-2009 02:19:03 1.9 C 87 % -0.03 C
1207 30-03-2009 02:31:03 1.8 C 87 % -0.13 C
1208 30-03-2009 02:43:03 1.7 C 87 % -0.23 C
1209 30-03-2009 02:55:03 1.8 C 87 % -0.13 C
1210 30-03-2009 03:07:03 1.5 C 88 % -0.27 C
1211 30-03-2009 03:19:03 1.5 C 87 % -0.42 C
1212 30-03-2009 03:31:03 1.4 C 88 % -0.36 C
1213 30-03-2009 03:43:03 1.3 C 88 % -0.46 C
1214 30-03-2009 03:55:03 1.2 C 88 % -0.56 C
1215 30-03-2009 04:07:03 1.2 C 88 % -0.56 C
1216 30-03-2009 04:19:03 1.2 C 88 % -0.56 C
1217 30-03-2009 04:31:03 1.1 C 88 % -0.66 C
1218 30-03-2009 04:43:03 1.2 C 88 % -0.56 C
1219 30-03-2009 04:55:03 1.3 C 88 % -0.46 C
1220 30-03-2009 05:07:03 1 C 88 % -0.76 C
1221 30-03-2009 05:19:03 1 C 88 % -0.76 C
1222 30-03-2009 05:31:03 0.8 C 89 % -0.8 C
1223 30-03-2009 05:43:03 0.7 C 89 % -0.9 C
1224 30-03-2009 05:55:03 0.7 C 89 % -0.9 C
1225 30-03-2009 06:07:04 0.6 C 89 % -1 C
Sensor: Nr:Datum:Temp:Feuchte:Taupunkt:
Aussen-T/F 1226 30-03-2009 06:19:04 0.4 C 89 % -1.2 C
1227 30-03-2009 06:31:04 0.3 C 89 % -1.29 C
1228 30-03-2009 06:43:04 0.3 C 90 % -1.14 C
1229 30-03-2009 06:55:04 0 C 89 % -1.59 C
1230 30-03-2009 07:07:01 -0.2 C 89 % -1.79 C
1231 30-03-2009 07:19:01 -0.2 C 89 % -1.79 C
1232 30-03-2009 07:31:01 -0.2 C 89 % -1.79 C
1233 30-03-2009 07:43:01 -0.2 C 90 % -1.64 C
1234 30-03-2009 07:55:01 -0.2 C 90 % -1.64 C
1235 30-03-2009 08:07:00 0 C 90 % -1.44 C
1236 30-03-2009 08:19:01 0.3 C 90 % -1.14 C
1237 30-03-2009 08:31:00 0.5 C 91 % -0.79 C
1238 30-03-2009 08:43:00 0.6 C 91 % -0.7 C
1239 30-03-2009 08:55:00 0.9 C 91 % -0.4 C
1240 30-03-2009 09:07:00 1.3 C 91 % 0 C
1241 30-03-2009 09:19:00 1.4 C 92 % 0.25 C
1242 30-03-2009 09:31:00 1.5 C 91 % 0.19 C
1243 30-03-2009 09:43:00 1.9 C 92 % 0.74 C
1244 30-03-2009 09:55:00 2.7 C 92 % 1.53 C
1245 30-03-2009 10:07:00 3.1 C 92 % 1.93 C
1246 30-03-2009 10:19:59 3.4 C 92 % 2.23 C
1247 30-03-2009 10:31:59 3.7 C 92 % 2.52 C
1248 30-03-2009 10:43:59 4.1 C 92 % 2.92 C
1249 30-03-2009 10:55:59 4.6 C 92 % 3.42 C
1250 30-03-2009 11:07:59 5.1 C 91 % 3.76 C
Sensor: Nr:Datum:Temp:Feuchte:Taupunkt:
Aussen-T/F 1251 30-03-2009 11:19:59 5.7 C 91 % 4.35 C
1252 30-03-2009 11:31:58 6.2 C 89 % 4.53 C
1253 30-03-2009 11:43:58 6.7 C 84 % 4.19 C
1254 30-03-2009 11:55:59 7 C 74 % 2.69 C
1255 30-03-2009 12:07:58 7.7 C 71 % 2.78 C
1256 30-03-2009 12:19:58 8.2 C 63 % 1.59 C
1257 30-03-2009 12:31:58 8.5 C 58 % 0.72 C
1258 30-03-2009 12:43:58 9.1 C 55 % 0.55 C
1259 30-03-2009 12:55:58 10.1 C 50 % 0.16 C
1260 30-03-2009 13:07:57 10.4 C 45 % -1 C
1261 30-03-2009 13:19:58 10 C 44 % -1.67 C
1262 30-03-2009 13:31:58 10.1 C 45 % -1.28 C
1263 30-03-2009 13:43:58 10.7 C 42 % -1.67 C
1264 30-03-2009 13:55:57 11.7 C 39 % -1.78 C
1265 30-03-2009 14:07:58 12.9 C 35 % -2.17 C
1266 30-03-2009 14:19:57 12.9 C 31 % -3.8 C
1267 30-03-2009 14:31:57 12.8 C 30 % -4.32 C
1268 30-03-2009 14:43:57 12.7 C 30 % -4.41 C
1269 30-03-2009 14:55:57 13.4 C 24 % -6.73 C
1270 30-03-2009 15:07:57 13.9 C 23 % -6.86 C
1271 30-03-2009 15:19:56 13.2 C 25 % -6.37 C
1272 30-03-2009 15:31:56 12.9 C 27 % -5.62 C
1273 30-03-2009 15:43:56 14.5 C 20 % -8.16 C
1274 30-03-2009 15:55:56 15.8 C 20 % -7.08 C
1275 30-03-2009 16:07:56 16.6 C 20 % -6.42 C
Sensor: Nr:Datum:Temp:Feuchte:Taupunkt:
Aussen-T/F 1276 30-03-2009 16:19:55 16.7 C 20 % -6.34 C
1277 30-03-2009 16:31:56 15.2 C 20 % -7.58 C
1278 30-03-2009 16:43:56 15 C 20 % -7.75 C
1279 30-03-2009 16:55:55 15.6 C 20 % -7.25 C
1280 30-03-2009 17:07:55 14.2 C 20 % -8.41 C
1281 30-03-2009 17:19:56 14.1 C 20 % -8.49 C
1282 30-03-2009 17:31:55 15.4 C 20 % -7.41 C
1283 30-03-2009 17:43:55 16.3 C 20 % -6.67 C
1284 30-03-2009 17:55:55 14.8 C 20 % -7.91 C
1285 30-03-2009 18:07:55 14.3 C 20 % -8.33 C
1286 30-03-2009 18:19:55 13.5 C 21 % -8.37 C
1287 30-03-2009 18:31:54 13.3 C 26 % -5.77 C
1288 30-03-2009 18:43:54 13.5 C 26 % -5.6 C
1289 30-03-2009 18:55:55 13.9 C 26 % -5.26 C
1290 30-03-2009 19:07:54 12.9 C 30 % -4.23 C
1291 30-03-2009 19:19:54 12.5 C 31 % -4.15 C
1292 30-03-2009 19:31:54 12.1 C 32 % -4.07 C
1293 30-03-2009 19:43:54 11.5 C 37 % -2.66 C
1294 30-03-2009 19:55:54 10.7 C 41 % -2 C
1295 30-03-2009 20:07:54 10.1 C 43 % -1.89 C
1296 30-03-2009 20:19:53 9.8 C 46 % -1.25 C
1297 30-03-2009 20:31:54 9.3 C 49 % -0.85 C
1298 30-03-2009 20:43:54 8.7 C 50 % -1.13 C
1299 30-03-2009 20:55:53 8.3 C 51 % -1.23 C
1300 30-03-2009 21:07:53 8 C 52 % -1.24 C
Sensor: Nr:Datum:Temp:Feuchte:Taupunkt:
Aussen-T/F 1301 30-03-2009 21:19:53 7.7 C 54 % -1 C
1302 30-03-2009 21:32:54 7.4 C 55 % -1.03 C
1303 30-03-2009 21:44:54 7.2 C 57 % -0.73 C
1304 30-03-2009 21:56:54 7 C 58 % -0.68 C
1305 30-03-2009 22:08:54 6.9 C 58 % -0.78 C
1306 30-03-2009 22:20:54 6.5 C 60 % -0.69 C
1307 30-03-2009 22:32:54 6.3 C 61 % -0.65 C
1308 30-03-2009 22:44:54 6.4 C 61 % -0.56 C
1309 30-03-2009 22:56:54 5.9 C 63 % -0.59 C
1310 30-03-2009 23:08:54 5.5 C 63 % -0.97 C
1311 30-03-2009 23:20:54 5.3 C 65 % -0.73 C
1312 30-03-2009 23:32:54 5.2 C 66 % -0.62 C
1313 30-03-2009 23:44:54 5.1 C 67 % -0.51 C
1314 30-03-2009 23:56:54 4.9 C 67 % -0.7 C
1315 31-03-2009 00:08:54 4.7 C 67 % -0.89 C
1316 31-03-2009 00:20:54 4.5 C 68 % -0.88 C
1317 31-03-2009 00:32:54 4.3 C 69 % -0.87 C
1318 31-03-2009 00:44:54 4 C 70 % -0.96 C
1319 31-03-2009 00:56:54 3.8 C 71 % -0.96 C
1320 31-03-2009 01:08:54 3.6 C 72 % -0.96 C
1321 31-03-2009 01:20:54 3.5 C 72 % -1.06 C
1322 31-03-2009 01:32:54 3.2 C 73 % -1.16 C
1323 31-03-2009 01:44:55 3.1 C 74 % -1.07 C
1324 31-03-2009 01:56:55 3 C 74 % -1.17 C
1325 31-03-2009 02:08:55 2.9 C 76 % -0.9 C
Sensor: Nr:Datum:Temp:Feuchte:Taupunkt:
Aussen-T/F 1326 31-03-2009 02:20:55 2.7 C 75 % -1.28 C
1327 31-03-2009 02:32:55 2.5 C 75 % -1.47 C
1328 31-03-2009 02:44:55 2.3 C 76 % -1.48 C
1329 31-03-2009 02:56:55 2.1 C 76 % -1.68 C
1330 31-03-2009 03:08:55 2.1 C 77 % -1.5 C
1331 31-03-2009 03:20:55 2 C 78 % -1.42 C
1332 31-03-2009 03:32:55 1.8 C 79 % -1.44 C
1333 31-03-2009 03:44:55 1.6 C 79 % -1.64 C
1334 31-03-2009 03:56:55 1.5 C 80 % -1.57 C
1335 31-03-2009 04:08:55 1.3 C 81 % -1.59 C
1336 31-03-2009 04:20:55 1.2 C 81 % -1.69 C
1337 31-03-2009 04:32:55 1 C 81 % -1.88 C
1338 31-03-2009 04:44:55 1 C 81 % -1.88 C
1339 31-03-2009 04:56:55 1 C 81 % -1.88 C
1340 31-03-2009 05:08:55 0.8 C 82 % -1.91 C
1341 31-03-2009 05:20:55 0.6 C 82 % -2.11 C
1342 31-03-2009 05:32:55 0.6 C 82 % -2.11 C
1343 31-03-2009 05:44:56 0.4 C 82 % -2.3 C
1344 31-03-2009 05:56:56 0.3 C 82 % -2.4 C
1345 31-03-2009 06:08:56 0.3 C 83 % -2.24 C
1346 31-03-2009 06:20:56 0.2 C 83 % -2.34 C
1347 31-03-2009 06:32:56 0 C 84 % -2.37 C
1348 31-03-2009 06:44:56 -0.2 C 83 % -2.73 C
1349 31-03-2009 06:56:56 -0.3 C 83 % -2.83 C
1350 31-03-2009 07:08:53 -0.3 C 84 % -2.67 C
Sensor: Nr:Datum:Temp:Feuchte:Taupunkt:
Aussen-T/F 1351 31-03-2009 07:20:54 -0.3 C 84 % -2.67 C
1352 31-03-2009 07:32:53 -0.5 C 84 % -2.86 C
1353 31-03-2009 07:44:53 -0.4 C 84 % -2.77 C
1354 31-03-2009 07:56:53 -0.3 C 84 % -2.67 C
1355 31-03-2009 08:08:53 -0.1 C 85 % -2.31 C
1356 31-03-2009 08:20:53 0 C 85 % -2.21 C
1357 31-03-2009 08:32:52 0.1 C 86 % -1.96 C
1358 31-03-2009 08:44:53 0.3 C 86 % -1.76 C
1359 31-03-2009 08:56:53 0.4 C 86 % -1.66 C
1360 31-03-2009 09:08:52 0.6 C 86 % -1.46 C
1361 31-03-2009 09:20:52 0.8 C 86 % -1.27 C
1362 31-03-2009 09:32:52 1.1 C 86 % -0.97 C
1363 31-03-2009 09:44:52 1.5 C 87 % -0.42 C
1364 31-03-2009 09:56:52 2.1 C 87 % 0.17 C
1365 31-03-2009 10:08:52 2.8 C 86 % 0.7 C
1366 31-03-2009 10:20:51 3.4 C 82 % 0.63 C
1367 31-03-2009 10:32:52 4.1 C 78 % 0.62 C
1368 31-03-2009 10:44:51 4.6 C 76 % 0.74 C
1369 31-03-2009 10:56:51 5.2 C 70 % 0.19 C
1370 31-03-2009 11:08:52 5.9 C 66 % 0.05 C
1371 31-03-2009 11:20:51 6.5 C 61 % -0.46 C
1372 31-03-2009 11:32:51 7.4 C 59 % -0.07 C
1373 31-03-2009 11:44:51 7.9 C 57 % -0.08 C
1374 31-03-2009 11:56:51 8.5 C 54 % -0.26 C
1375 31-03-2009 12:08:51 9.1 C 50 % -0.76 C
Sensor: Nr:Datum:Temp:Feuchte:Taupunkt:
Aussen-T/F 1376 31-03-2009 12:20:50 9.6 C 45 % -1.73 C
1377 31-03-2009 12:32:50 10.6 C 41 % -2.09 C
1378 31-03-2009 12:44:50 11 C 36 % -3.47 C
1379 31-03-2009 12:56:50 11.6 C 32 % -4.51 C
1380 31-03-2009 13:08:50 12.1 C 31 % -4.49 C
1381 31-03-2009 13:20:49 12.5 C 27 % -5.96 C
1382 31-03-2009 13:32:50 13.2 C 22 % -8.02 C
1383 31-03-2009 13:44:49 13.6 C 22 % -7.69 C
1384 31-03-2009 13:56:49 14.2 C 20 % -8.41 C
1385 31-03-2009 14:08:49 14.7 C 20 % -7.99 C
1386 31-03-2009 14:20:50 15.1 C 20 % -7.66 C
1387 31-03-2009 14:32:49 15.9 C 20 % -7 C
1388 31-03-2009 14:44:49 16 C 20 % -6.92 C
1389 31-03-2009 14:56:49 16.8 C 20 % -6.26 C
1390 31-03-2009 15:08:49 17.2 C 20 % -5.93 C
1391 31-03-2009 15:20:49 17.3 C 20 % -5.84 C
1392 31-03-2009 15:32:48 17.8 C 20 % -5.43 C
1393 31-03-2009 15:44:49 18.1 C 20 % -5.18 C
1394 31-03-2009 15:56:49 18.6 C 20 % -4.77 C
1395 31-03-2009 16:08:48 18.3 C 20 % -5.02 C
1396 31-03-2009 16:20:48 19 C 20 % -4.44 C
1397 31-03-2009 16:32:48 19.6 C 20 % -3.94 C
1398 31-03-2009 16:44:48 20 C 20 % -3.61 C
1399 31-03-2009 16:56:49 20.3 C 20 % -3.37 C
1400 31-03-2009 17:08:47 20.3 C 20 % -3.37 C
Sensor: Nr:Datum:Temp:Feuchte:Taupunkt:
Aussen-T/F 1401 31-03-2009 17:20:48 20.3 C 20 % -3.37 C
1402 31-03-2009 17:32:48 20 C 20 % -3.61 C
1403 31-03-2009 17:44:47 20.6 C 20 % -3.12 C
1404 31-03-2009 17:56:47 20.1 C 20 % -3.53 C
1405 31-03-2009 18:08:48 20 C 20 % -3.61 C
1406 31-03-2009 18:20:47 19.8 C 20 % -3.78 C
1407 31-03-2009 18:32:47 19.3 C 20 % -4.19 C
1408 31-03-2009 18:44:46 19.2 C 20 % -4.27 C
1409 31-03-2009 18:56:46 19 C 20 % -4.44 C
1410 31-03-2009 19:08:47 18.5 C 20 % -4.85 C
1411 31-03-2009 19:20:46 17.7 C 20 % -5.51 C
1412 31-03-2009 19:32:46 17 C 20 % -6.09 C
1413 31-03-2009 19:44:46 15.7 C 21 % -6.53 C
1414 31-03-2009 19:56:46 14.4 C 25 % -5.35 C
1415 31-03-2009 20:08:46 13.6 C 28 % -4.54 C
1416 31-03-2009 20:20:46 12.7 C 30 % -4.41 C
1417 31-03-2009 20:32:46 12.3 C 30 % -4.75 C
1418 31-03-2009 20:44:46 11.8 C 31 % -4.76 C
1419 31-03-2009 20:56:46 11.7 C 31 % -4.84 C
1420 31-03-2009 21:08:46 11.5 C 30 % -5.45 C
1421 31-03-2009 21:21:46 11.4 C 32 % -4.69 C
1422 31-03-2009 21:33:46 11.1 C 32 % -4.95 C
1423 31-03-2009 21:45:46 10.9 C 35 % -3.94 C
1424 31-03-2009 21:57:46 10.7 C 36 % -3.74 C
1425 31-03-2009 22:09:46 10.3 C 39 % -3.03 C
Sensor: Nr:Datum:Temp:Feuchte:Taupunkt:
Aussen-T/F 1426 31-03-2009 22:21:46 9.8 C 42 % -2.48 C
1427 31-03-2009 22:33:46 9.5 C 42 % -2.75 C
1428 31-03-2009 22:45:46 9.1 C 44 % -2.49 C
1429 31-03-2009 22:57:46 8.9 C 46 % -2.07 C
1430 31-03-2009 23:09:46 8.7 C 47 % -1.97 C
1431 31-03-2009 23:21:46 8.6 C 47 % -2.06 C
1432 31-03-2009 23:33:46 8.3 C 49 % -1.77 C
1433 31-03-2009 23:45:46 8.1 C 49 % -1.95 C
1434 31-03-2009 23:57:46 8.1 C 49 % -1.95 C
1435 01-04-2009 00:09:46 8 C 48 % -2.32 C
1436 01-04-2009 00:21:46 7.6 C 51 % -1.87 C
1437 01-04-2009 00:33:46 7.5 C 52 % -1.7 C
1438 01-04-2009 00:45:47 7.3 C 53 % -1.63 C
1439 01-04-2009 00:57:47 7.2 C 54 % -1.47 C
1440 01-04-2009 01:09:47 7 C 56 % -1.16 C
1441 01-04-2009 01:21:47 6.9 C 56 % -1.26 C
1442 01-04-2009 01:33:47 6.7 C 57 % -1.2 C
1443 01-04-2009 01:45:47 6.6 C 58 % -1.06 C
1444 01-04-2009 01:57:47 6.3 C 60 % -0.88 C
1445 01-04-2009 02:09:47 6.2 C 61 % -0.75 C
1446 01-04-2009 02:21:47 5.8 C 62 % -0.9 C
1447 01-04-2009 02:33:47 5.6 C 63 % -0.87 C
1448 01-04-2009 02:45:47 5.5 C 64 % -0.75 C
1449 01-04-2009 02:57:47 5.2 C 64 % -1.04 C
1450 01-04-2009 03:09:47 4.9 C 65 % -1.11 C
Sensor: Nr:Datum:Temp:Feuchte:Taupunkt:
Aussen-T/F 1451 01-04-2009 03:21:47 4.8 C 66 % -1 C
1452 01-04-2009 03:33:47 4.7 C 67 % -0.89 C
1453 01-04-2009 03:45:47 4.6 C 68 % -0.78 C
1454 01-04-2009 03:57:47 4.4 C 69 % -0.78 C
1455 01-04-2009 04:09:47 4 C 69 % -1.16 C
1456 01-04-2009 04:21:47 4.1 C 70 % -0.87 C
1457 01-04-2009 04:33:47 3.8 C 71 % -0.96 C
1458 01-04-2009 04:45:48 3.9 C 72 % -0.68 C
1459 01-04-2009 04:57:48 3.6 C 72 % -0.96 C
1460 01-04-2009 05:09:48 3.3 C 72 % -1.25 C
1461 01-04-2009 05:21:48 3.4 C 74 % -0.78 C
1462 01-04-2009 05:33:48 3.2 C 74 % -0.98 C
1463 01-04-2009 05:45:48 3.2 C 74 % -0.98 C
1464 01-04-2009 05:57:48 3.1 C 74 % -1.07 C
1465 01-04-2009 06:09:48 3.3 C 74 % -0.88 C
1466 01-04-2009 06:21:48 3.2 C 76 % -0.61 C
1467 01-04-2009 06:33:48 2.9 C 76 % -0.9 C
1468 01-04-2009 06:45:48 2.7 C 77 % -0.92 C
1469 01-04-2009 06:57:48 2.5 C 77 % -1.11 C
1470 01-04-2009 07:09:46 2.5 C 78 % -0.94 C
1471 01-04-2009 07:21:45 2.1 C 77 % -1.5 C
1472 01-04-2009 07:33:45 2.2 C 78 % -1.23 C
1473 01-04-2009 07:45:45 2.3 C 79 % -0.96 C
1474 01-04-2009 07:57:45 2.4 C 79 % -0.86 C
1475 01-04-2009 08:09:45 2.4 C 80 % -0.69 C
Sensor: Nr:Datum:Temp:Feuchte:Taupunkt:
Aussen-T/F 1476 01-04-2009 08:21:44 2.5 C 80 % -0.59 C
1477 01-04-2009 08:33:45 2.6 C 80 % -0.49 C
1478 01-04-2009 08:45:45 2.7 C 80 % -0.4 C
1479 01-04-2009 08:57:45 3 C 79 % -0.28 C
1480 01-04-2009 09:09:44 3.3 C 79 % 0.02 C
1481 01-04-2009 09:21:45 3.7 C 79 % 0.4 C
1482 01-04-2009 09:33:44 4.1 C 78 % 0.62 C
1483 01-04-2009 09:45:44 4.9 C 75 % 0.85 C
1484 01-04-2009 09:57:44 5.7 C 70 % 0.67 C
1485 01-04-2009 10:09:44 6.7 C 65 % 0.6 C
1486 01-04-2009 10:21:44 7.4 C 61 % 0.38 C
1487 01-04-2009 10:33:44 8.1 C 57 % 0.11 C
1488 01-04-2009 10:45:43 8.8 C 54 % 0.02 C
1489 01-04-2009 10:57:43 9.4 C 51 % -0.21 C
1490 01-04-2009 11:09:44 10.5 C 45 % -0.91 C
1491 01-04-2009 11:21:43 11.2 C 41 % -1.55 C
1492 01-04-2009 11:33:43 11.8 C 37 % -2.4 C
1493 01-04-2009 11:45:43 12.2 C 34 % -3.18 C
1494 01-04-2009 11:57:43 12.7 C 31 % -3.97 C
1495 01-04-2009 12:09:43 12.9 C 29 % -4.68 C
1496 01-04-2009 12:21:42 13.4 C 27 % -5.19 C
1497 01-04-2009 12:33:43 13.7 C 28 % -4.45 C
1498 01-04-2009 12:45:42 14.1 C 26 % -5.09 C
1499 01-04-2009 12:57:42 14.4 C 25 % -5.35 C
1500 01-04-2009 13:09:42 14.8 C 23 % -6.1 C
Sensor: Nr:Datum:Temp:Feuchte:Taupunkt:
Aussen-T/F 1501 01-04-2009 13:21:42 14.9 C 25 % -4.93 C
1502 01-04-2009 13:33:42 15.6 C 21 % -6.62 C
1503 01-04-2009 13:45:42 16 C 20 % -6.92 C
1504 01-04-2009 13:57:42 16.5 C 20 % -6.5 C
1505 01-04-2009 14:09:41 17.2 C 21 % -5.29 C
1506 01-04-2009 14:21:42 17.6 C 20 % -5.6 C
1507 01-04-2009 14:33:41 18.3 C 20 % -5.02 C
1508 01-04-2009 14:45:41 18.6 C 20 % -4.77 C
1509 01-04-2009 14:57:42 18.8 C 20 % -4.6 C
1510 01-04-2009 15:09:41 18.8 C 20 % -4.6 C
1511 01-04-2009 15:21:41 19.5 C 20 % -4.03 C
1512 01-04-2009 15:33:41 19.9 C 20 % -3.7 C
1513 01-04-2009 15:45:41 19.7 C 20 % -3.86 C
1514 01-04-2009 15:57:41 20.2 C 20 % -3.45 C
1515 01-04-2009 16:09:41 20.3 C 20 % -3.37 C
1516 01-04-2009 16:21:40 20.5 C 20 % -3.2 C
1517 01-04-2009 16:33:40 20.8 C 20 % -2.95 C
1518 01-04-2009 16:45:40 21.1 C 20 % -2.71 C
1519 01-04-2009 16:57:40 21.4 C 20 % -2.46 C
1520 01-04-2009 17:09:40 21.2 C 20 % -2.62 C
1521 01-04-2009 17:21:39 21.5 C 20 % -2.38 C
1522 01-04-2009 17:33:40 21.5 C 20 % -2.38 C
1523 01-04-2009 17:45:39 21.5 C 20 % -2.38 C
1524 01-04-2009 17:57:39 21.1 C 20 % -2.71 C
1525 01-04-2009 18:09:39 20.8 C 20 % -2.95 C
Sensor: Nr:Datum:Temp:Feuchte:Taupunkt:
Aussen-T/F 1526 01-04-2009 18:21:40 20.3 C 20 % -3.37 C
1527 01-04-2009 18:33:39 20.4 C 20 % -3.28 C
1528 01-04-2009 18:45:39 19.7 C 20 % -3.86 C
1529 01-04-2009 18:57:39 19.1 C 20 % -4.36 C
1530 01-04-2009 19:09:39 18.6 C 20 % -4.77 C
1531 01-04-2009 19:21:39 18.2 C 20 % -5.1 C
1532 01-04-2009 19:33:38 17.5 C 21 % -5.04 C
1533 01-04-2009 19:45:39 16.7 C 26 % -2.87 C
1534 01-04-2009 19:57:39 15.8 C 28 % -2.65 C
1535 01-04-2009 20:09:38 15.1 C 29 % -2.78 C
1536 01-04-2009 20:21:38 14.6 C 30 % -2.76 C
1537 01-04-2009 20:33:38 14.3 C 31 % -2.58 C
1538 01-04-2009 20:45:38 13.8 C 33 % -2.17 C
1539 01-04-2009 20:57:38 13.5 C 33 % -2.44 C
1540 01-04-2009 21:09:37 13.4 C 33 % -2.52 C
1541 01-04-2009 21:21:38 13.1 C 33 % -2.79 C
1542 01-04-2009 21:33:38 13 C 34 % -2.47 C
1543 01-04-2009 21:45:37 12.8 C 35 % -2.26 C
1544 01-04-2009 21:57:37 12.5 C 36 % -2.14 C
1545 01-04-2009 22:10:38 12.5 C 36 % -2.14 C
1546 01-04-2009 22:22:38 12.2 C 37 % -2.04 C
1547 01-04-2009 22:34:38 12.2 C 37 % -2.04 C
1548 01-04-2009 22:46:38 11.9 C 39 % -1.6 C
1549 01-04-2009 22:58:38 11.8 C 40 % -1.34 C
1550 01-04-2009 23:10:39 11.7 C 40 % -1.43 C
Sensor: Nr:Datum:Temp:Feuchte:Taupunkt:
Aussen-T/F 1551 01-04-2009 23:22:39 11.7 C 41 % -1.1 C
1552 01-04-2009 23:34:39 12 C 40 % -1.16 C
1553 01-04-2009 23:46:39 12.2 C 39 % -1.33 C
1554 01-04-2009 23:58:39 12.4 C 38 % -1.5 C
1555 02-04-2009 00:10:39 12.5 C 38 % -1.41 C
1556 02-04-2009 00:22:39 12.6 C 38 % -1.32 C
1557 02-04-2009 00:34:39 12.5 C 39 % -1.06 C
1558 02-04-2009 00:46:39 12.4 C 40 % -0.8 C
1559 02-04-2009 00:58:39 12.4 C 39 % -1.15 C
1560 02-04-2009 01:10:39 12 C 40 % -1.16 C
1561 02-04-2009 01:22:39 11.8 C 41 % -1.01 C
1562 02-04-2009 01:34:39 11.5 C 42 % -0.95 C
1563 02-04-2009 01:46:39 11.4 C 42 % -1.04 C
1564 02-04-2009 01:58:39 11.5 C 43 % -0.63 C
1565 02-04-2009 02:10:39 11.5 C 43 % -0.63 C
1566 02-04-2009 02:22:39 11.3 C 43 % -0.81 C
1567 02-04-2009 02:34:39 10.8 C 45 % -0.64 C
1568 02-04-2009 02:46:39 10.6 C 45 % -0.82 C
1569 02-04-2009 02:58:40 10.5 C 45 % -0.91 C
1570 02-04-2009 03:10:40 10.3 C 46 % -0.8 C
1571 02-04-2009 03:22:40 10.2 C 46 % -0.89 C
1572 02-04-2009 03:34:40 10.2 C 46 % -0.89 C
1573 02-04-2009 03:46:40 10.1 C 46 % -0.98 C
1574 02-04-2009 03:58:40 10 C 46 % -1.07 C
1575 02-04-2009 04:10:40 10 C 46 % -1.07 C
Sensor: Nr:Datum:Temp:Feuchte:Taupunkt:
Aussen-T/F 1576 02-04-2009 04:22:40 10 C 46 % -1.07 C
1577 02-04-2009 04:34:40 9.9 C 47 % -0.87 C
1578 02-04-2009 04:46:40 9.8 C 47 % -0.96 C
1579 02-04-2009 04:58:40 9.7 C 47 % -1.05 C
1580 02-04-2009 05:10:40 9.6 C 47 % -1.14 C
1581 02-04-2009 05:22:40 9.5 C 48 % -0.95 C
1582 02-04-2009 05:34:40 9.3 C 49 % -0.85 C
1583 02-04-2009 05:46:40 9.2 C 50 % -0.67 C
1584 02-04-2009 05:58:40 9.3 C 50 % -0.57 C
1585 02-04-2009 06:10:40 9.2 C 50 % -0.67 C
1586 02-04-2009 06:22:40 8.9 C 52 % -0.41 C
1587 02-04-2009 06:34:40 8.7 C 53 % -0.33 C
1588 02-04-2009 06:46:41 8.5 C 54 % -0.26 C
1589 02-04-2009 06:58:41 8.5 C 54 % -0.26 C
1590 02-04-2009 07:10:38 8.5 C 54 % -0.26 C
1591 02-04-2009 07:22:38 8.4 C 55 % -0.1 C
1592 02-04-2009 07:34:38 8.3 C 56 % 0.05 C
1593 02-04-2009 07:46:38 8.2 C 57 % 0.2 C
1594 02-04-2009 07:58:38 8.2 C 57 % 0.2 C
1595 02-04-2009 08:10:38 8.1 C 57 % 0.11 C
1596 02-04-2009 08:22:37 8.2 C 57 % 0.2 C
1597 02-04-2009 08:34:38 8.3 C 57 % 0.3 C
1598 02-04-2009 08:46:37 8.5 C 57 % 0.48 C
1599 02-04-2009 08:58:37 8.9 C 57 % 0.86 C
1600 02-04-2009 09:10:37 9.1 C 56 % 0.8 C
Sensor: Nr:Datum:Temp:Feuchte:Taupunkt:
Aussen-T/F 1601 02-04-2009 09:22:37 9.5 C 54 % 0.67 C
1602 02-04-2009 09:34:37 10.1 C 52 % 0.7 C
1603 02-04-2009 09:46:36 10.7 C 50 % 0.72 C
1604 02-04-2009 09:58:36 11.1 C 49 % 0.8 C
1605 02-04-2009 10:10:37 11.6 C 47 % 0.69 C
1606 02-04-2009 10:22:36 12.1 C 47 % 1.14 C
1607 02-04-2009 10:34:36 12.6 C 46 % 1.3 C
1608 02-04-2009 10:46:37 13.1 C 44 % 1.14 C
1609 02-04-2009 10:58:37 13.5 C 43 % 1.18 C
1610 02-04-2009 11:10:36 14 C 41 % 0.97 C
1611 02-04-2009 11:22:36 14.3 C 41 % 1.24 C
1612 02-04-2009 11:34:35 14.6 C 40 % 1.17 C
1613 02-04-2009 11:46:36 15.1 C 39 % 1.26 C
1614 02-04-2009 11:58:36 15.4 C 38 % 1.17 C
1615 02-04-2009 12:10:35 15.8 C 38 % 1.53 C
1616 02-04-2009 12:22:35 16.4 C 38 % 2.06 C
1617 02-04-2009 12:34:35 16.6 C 37 % 1.87 C
1618 02-04-2009 12:46:35 17 C 36 % 1.84 C
1619 02-04-2009 12:58:35 17.4 C 35 % 1.8 C
1620 02-04-2009 13:10:34 17.8 C 35 % 2.15 C
1621 02-04-2009 13:22:35 18.2 C 35 % 2.5 C
1622 02-04-2009 13:34:35 18.7 C 32 % 1.69 C
1623 02-04-2009 13:46:34 19.4 C 32 % 2.3 C
1624 02-04-2009 13:58:34 19.6 C 30 % 1.57 C
1625 02-04-2009 14:10:35 20 C 30 % 1.92 C
Sensor: Nr:Datum:Temp:Feuchte:Taupunkt:
Aussen-T/F 1626 02-04-2009 14:22:34 20.3 C 29 % 1.7 C
1627 02-04-2009 14:34:34 20.8 C 28 % 1.64 C
1628 02-04-2009 14:46:34 21.6 C 26 % 1.29 C
1629 02-04-2009 14:58:34 22.2 C 26 % 1.8 C
1630 02-04-2009 15:10:34 22.6 C 24 % 1.03 C
1631 02-04-2009 15:22:33 23 C 22 % 0.16 C
1632 02-04-2009 15:34:33 23.5 C 23 % 1.19 C
1633 02-04-2009 15:46:33 23.6 C 21 % 0.02 C
1634 02-04-2009 15:58:33 24.4 C 21 % 0.68 C
1635 02-04-2009 16:10:33 24.1 C 20 % -0.24 C
1636 02-04-2009 16:22:33 24.1 C 21 % 0.43 C
1637 02-04-2009 16:34:33 25.3 C 20 % 0.75 C
1638 02-04-2009 16:46:33 25.1 C 20 % 0.59 C
1639 02-04-2009 16:58:33 25.4 C 20 % 0.83 C
1640 02-04-2009 17:10:32 25.5 C 20 % 0.91 C
1641 02-04-2009 17:22:33 25.7 C 20 % 1.08 C
1642 02-04-2009 17:34:32 25.6 C 20 % 1 C
1643 02-04-2009 17:46:32 25.8 C 20 % 1.16 C
1644 02-04-2009 17:58:32 25.4 C 20 % 0.83 C
1645 02-04-2009 18:10:32 25.3 C 20 % 0.75 C
1646 02-04-2009 18:22:32 25.1 C 20 % 0.59 C
1647 02-04-2009 18:34:32 24.9 C 21 % 1.1 C
1648 02-04-2009 18:46:31 24.7 C 21 % 0.93 C
1649 02-04-2009 18:58:31 24.1 C 22 % 1.08 C
1650 02-04-2009 19:10:32 22.9 C 25 % 1.85 C
Sensor: Nr:Datum:Temp:Feuchte:Taupunkt:
Aussen-T/F 1651 02-04-2009 19:22:31 22.5 C 26 % 2.06 C
1652 02-04-2009 19:34:31 21.6 C 28 % 2.33 C
1653 02-04-2009 19:46:31 20.7 C 31 % 2.98 C
1654 02-04-2009 19:58:31 19.8 C 35 % 3.91 C
1655 02-04-2009 20:10:31 19.2 C 35 % 3.38 C
1656 02-04-2009 20:22:30 18.7 C 37 % 3.73 C
1657 02-04-2009 20:34:31 18.2 C 37 % 3.29 C
1658 02-04-2009 20:46:30 17.6 C 40 % 3.86 C
1659 02-04-2009 20:58:30 17.1 C 40 % 3.41 C
1660 02-04-2009 21:10:30 16.8 C 40 % 3.14 C
1661 02-04-2009 21:22:31 16.8 C 41 % 3.49 C
1662 02-04-2009 21:34:30 16.6 C 41 % 3.31 C
1663 02-04-2009 21:46:30 16.5 C 41 % 3.22 C
1664 02-04-2009 21:58:30 16.1 C 42 % 3.2 C
1665 02-04-2009 22:11:32 15.8 C 43 % 3.26 C
1666 02-04-2009 22:23:32 15.6 C 43 % 3.08 C
1667 02-04-2009 22:35:32 15.4 C 44 % 3.22 C
1668 02-04-2009 22:47:32 15.1 C 45 % 3.27 C
1669 02-04-2009 22:59:32 14.8 C 46 % 3.31 C
1670 02-04-2009 23:11:32 14.5 C 47 % 3.34 C
1671 02-04-2009 23:23:32 14.4 C 47 % 3.25 C
1672 02-04-2009 23:35:32 14 C 49 % 3.47 C
1673 02-04-2009 23:47:32 14 C 48 % 3.18 C
1674 02-04-2009 23:59:32 13.9 C 50 % 3.66 C
1675 03-04-2009 00:11:32 13.6 C 50 % 3.39 C
Sensor: Nr:Datum:Temp:Feuchte:Taupunkt:
Aussen-T/F 1676 03-04-2009 00:23:32 13.8 C 50 % 3.57 C
1677 03-04-2009 00:35:32 13.6 C 50 % 3.39 C
1678 03-04-2009 00:47:32 13.4 C 51 % 3.48 C
1679 03-04-2009 00:59:32 13.2 C 51 % 3.3 C
1680 03-04-2009 01:11:32 13.1 C 51 % 3.2 C
1681 03-04-2009 01:23:32 12.8 C 54 % 3.74 C
1682 03-04-2009 01:35:32 12.6 C 54 % 3.55 C
1683 03-04-2009 01:47:32 12.6 C 55 % 3.81 C
1684 03-04-2009 01:59:33 12.4 C 55 % 3.62 C
1685 03-04-2009 02:11:33 12.2 C 56 % 3.69 C
1686 03-04-2009 02:23:33 12 C 56 % 3.51 C
1687 03-04-2009 02:35:33 11.6 C 59 % 3.87 C
1688 03-04-2009 02:47:33 11.4 C 60 % 3.92 C
1689 03-04-2009 02:59:33 11.1 C 61 % 3.87 C
1690 03-04-2009 03:11:33 10.7 C 62 % 3.73 C
1691 03-04-2009 03:23:33 10.4 C 63 % 3.67 C
1692 03-04-2009 03:35:33 10.2 C 65 % 3.92 C
1693 03-04-2009 03:47:33 10.1 C 65 % 3.83 C
1694 03-04-2009 03:59:33 9.8 C 66 % 3.76 C
1695 03-04-2009 04:11:33 9.6 C 67 % 3.78 C
1696 03-04-2009 04:23:33 9.5 C 68 % 3.9 C
1697 03-04-2009 04:35:33 9.2 C 69 % 3.82 C
1698 03-04-2009 04:47:33 9 C 70 % 3.83 C
1699 03-04-2009 04:59:33 8.9 C 71 % 3.94 C
1700 03-04-2009 05:11:33 8.9 C 70 % 3.74 C
Sensor: Nr:Datum:Temp:Feuchte:Taupunkt:
Aussen-T/F 1701 03-04-2009 05:23:33 8.7 C 72 % 3.94 C
1702 03-04-2009 05:35:33 8.6 C 72 % 3.85 C
1703 03-04-2009 05:47:34 8.4 C 73 % 3.85 C
1704 03-04-2009 05:59:34 8.2 C 73 % 3.66 C
1705 03-04-2009 06:11:34 8 C 74 % 3.66 C
1706 03-04-2009 06:23:34 7.8 C 76 % 3.84 C
1707 03-04-2009 06:35:34 7.8 C 77 % 4.03 C
1708 03-04-2009 06:47:34 7.7 C 76 % 3.75 C
1709 03-04-2009 06:59:34 7.6 C 76 % 3.65 C
1710 03-04-2009 07:11:31 7.6 C 76 % 3.65 C
1711 03-04-2009 07:23:31 7.5 C 76 % 3.55 C
1712 03-04-2009 07:35:31 7.4 C 76 % 3.45 C
1713 03-04-2009 07:47:31 7.3 C 76 % 3.36 C
1714 03-04-2009 07:59:31 7.4 C 77 % 3.64 C
1715 03-04-2009 08:11:30 7.4 C 77 % 3.64 C
1716 03-04-2009 08:23:31 7.5 C 77 % 3.74 C
1717 03-04-2009 08:35:30 7.6 C 77 % 3.83 C
1718 03-04-2009 08:47:30 7.7 C 78 % 4.11 C
1719 03-04-2009 08:59:30 8 C 77 % 4.22 C
1720 03-04-2009 09:11:30 8.3 C 77 % 4.51 C
1721 03-04-2009 09:23:30 8.7 C 76 % 4.71 C
1722 03-04-2009 09:35:30 9.1 C 74 % 4.72 C
1723 03-04-2009 09:47:30 9.7 C 73 % 5.1 C
1724 03-04-2009 09:59:30 10.5 C 69 % 5.06 C
1725 03-04-2009 10:11:29 11.2 C 67 % 5.31 C
Sensor: Nr:Datum:Temp:Feuchte:Taupunkt:
Aussen-T/F 1726 03-04-2009 10:23:29 11.7 C 63 % 4.9 C
1727 03-04-2009 10:35:29 12.4 C 59 % 4.62 C
1728 03-04-2009 10:47:29 13 C 58 % 4.94 C
1729 03-04-2009 10:59:29 13.6 C 57 % 5.25 C
1730 03-04-2009 11:11:29 14.3 C 54 % 5.13 C
1731 03-04-2009 11:23:28 14.9 C 52 % 5.14 C
1732 03-04-2009 11:35:29 15.5 C 48 % 4.55 C
1733 03-04-2009 11:47:28 16.1 C 45 % 4.18 C
1734 03-04-2009 11:59:28 17 C 42 % 4.01 C
1735 03-04-2009 12:11:28 17.6 C 40 % 3.86 C
1736 03-04-2009 12:23:29 18.1 C 39 % 3.94 C
1737 03-04-2009 12:35:28 18.4 C 38 % 3.84 C
1738 03-04-2009 12:47:28 18.8 C 38 % 4.2 C
1739 03-04-2009 12:59:28 19 C 36 % 3.61 C
1740 03-04-2009 13:11:28 19.5 C 36 % 4.05 C
1741 03-04-2009 13:23:28 20.2 C 35 % 4.26 C
1742 03-04-2009 13:35:27 20.6 C 32 % 3.34 C
1743 03-04-2009 13:47:27 20.7 C 32 % 3.43 C
1744 03-04-2009 13:59:27 21.2 C 30 % 2.95 C
1745 03-04-2009 14:11:27 21.7 C 30 % 3.39 C
1746 03-04-2009 14:23:27 22.9 C 30 % 4.42 C
1747 03-04-2009 14:35:27 23.3 C 26 % 2.74 C
1748 03-04-2009 14:47:27 23.9 C 25 % 2.69 C
1749 03-04-2009 14:59:27 24 C 25 % 2.78 C
1750 03-04-2009 15:11:27 23.8 C 25 % 2.61 C
Sensor: Nr:Datum:Temp:Feuchte:Taupunkt:
Aussen-T/F 1751 03-04-2009 15:23:27 24.3 C 23 % 1.86 C
1752 03-04-2009 15:35:26 25.1 C 22 % 1.91 C
1753 03-04-2009 15:47:26 25.5 C 22 % 2.24 C
1754 03-04-2009 15:59:26 23.4 C 25 % 2.27 C
1755 03-04-2009 16:11:26 24.6 C 24 % 2.71 C
1756 03-04-2009 16:23:25 23.7 C 25 % 2.53 C
1757 03-04-2009 16:35:26 24.5 C 25 % 3.2 C
1758 03-04-2009 16:47:25 24.5 C 25 % 3.2 C
1759 03-04-2009 16:59:25 24.4 C 25 % 3.12 C
1760 03-04-2009 17:11:26 26 C 21 % 2 C
1761 03-04-2009 17:23:25 24.8 C 25 % 3.45 C
1762 03-04-2009 17:35:25 25.8 C 23 % 3.12 C
1763 03-04-2009 17:47:25 25.8 C 23 % 3.12 C
1764 03-04-2009 17:59:25 26.5 C 21 % 2.42 C
1765 03-04-2009 18:11:25 26.8 C 21 % 2.67 C
1766 03-04-2009 18:23:25 26.1 C 22 % 2.74 C
1767 03-04-2009 18:35:24 25.6 C 23 % 2.95 C
1768 03-04-2009 18:47:25 25.3 C 24 % 3.3 C
1769 03-04-2009 18:59:25 24.7 C 26 % 3.93 C
1770 03-04-2009 19:11:24 24.3 C 27 % 4.12 C
1771 03-04-2009 19:23:24 23.5 C 30 % 4.94 C
1772 03-04-2009 19:35:24 22.4 C 33 % 5.35 C
1773 03-04-2009 19:47:24 21.5 C 35 % 5.41 C
1774 03-04-2009 19:59:24 20.8 C 38 % 5.97 C
1775 03-04-2009 20:11:23 20.2 C 39 % 5.82 C
Sensor: Nr:Datum:Temp:Feuchte:Taupunkt:
Aussen-T/F 1776 03-04-2009 20:23:24 19.5 C 41 % 5.91 C
1777 03-04-2009 20:35:24 19.1 C 42 % 5.9 C
1778 03-04-2009 20:47:23 18.8 C 42 % 5.63 C
1779 03-04-2009 20:59:24 18.9 C 42 % 5.72 C
1780 03-04-2009 21:11:23 18.6 C 43 % 5.79 C
1781 03-04-2009 21:23:23 18.3 C 43 % 5.52 C
1782 03-04-2009 21:35:23 18.1 C 45 % 5.99 C
1783 03-04-2009 21:47:23 17.7 C 46 % 5.95 C
1784 03-04-2009 21:59:23 17.4 C 47 % 5.98 C
1785 03-04-2009 22:11:22 17.2 C 48 % 6.11 C
1786 03-04-2009 22:23:22 17.2 C 48 % 6.11 C
1787 03-04-2009 22:36:24 17 C 48 % 5.92 C
1788 03-04-2009 22:48:24 16.7 C 50 % 6.24 C
1789 03-04-2009 23:00:24 16.4 C 51 % 6.25 C
1790 03-04-2009 23:12:24 16.3 C 51 % 6.16 C
1791 03-04-2009 23:24:24 16.1 C 52 % 6.25 C
1792 03-04-2009 23:36:24 15.9 C 54 % 6.61 C
1793 03-04-2009 23:48:24 15.8 C 54 % 6.52 C
1794 04-04-2009 00:00:24 15.6 C 55 % 6.6 C
1795 04-04-2009 00:12:24 15.4 C 56 % 6.68 C
1796 04-04-2009 00:24:24 15.4 C 55 % 6.42 C
1797 04-04-2009 00:36:24 15.6 C 55 % 6.6 C
1798 04-04-2009 00:48:24 15.5 C 55 % 6.51 C
1799 04-04-2009 01:00:24 15.3 C 56 % 6.58 C
1800 04-04-2009 01:12:24 15.2 C 57 % 6.75 C
Sensor: Nr:Datum:Temp:Feuchte:Taupunkt:
Aussen-T/F 1801 04-04-2009 01:24:24 15.1 C 57 % 6.65 C
1802 04-04-2009 01:36:24 15.1 C 57 % 6.65 C
1803 04-04-2009 01:48:24 15 C 58 % 6.81 C
1804 04-04-2009 02:00:24 14.9 C 59 % 6.97 C
1805 04-04-2009 02:12:25 14.8 C 59 % 6.87 C
1806 04-04-2009 02:24:25 14.7 C 59 % 6.78 C
1807 04-04-2009 02:36:25 14.5 C 60 % 6.84 C
1808 04-04-2009 02:48:25 14.2 C 61 % 6.8 C
1809 04-04-2009 03:00:25 14.1 C 62 % 6.94 C
1810 04-04-2009 03:12:25 14 C 63 % 7.08 C
1811 04-04-2009 03:24:25 13.6 C 65 % 7.15 C
1812 04-04-2009 03:36:25 13.6 C 65 % 7.15 C
1813 04-04-2009 03:48:25 13.7 C 65 % 7.25 C
1814 04-04-2009 04:00:25 13.6 C 65 % 7.15 C
1815 04-04-2009 04:12:25 13.6 C 65 % 7.15 C
1816 04-04-2009 04:24:25 13.6 C 65 % 7.15 C
1817 04-04-2009 04:36:25 13.7 C 65 % 7.25 C
1818 04-04-2009 04:48:25 13.7 C 64 % 7.02 C
1819 04-04-2009 05:00:25 13.8 C 64 % 7.12 C
1820 04-04-2009 05:12:25 13.9 C 63 % 6.98 C
1821 04-04-2009 05:24:25 13.9 C 63 % 6.98 C
1822 04-04-2009 05:36:25 13.9 C 63 % 6.98 C
1823 04-04-2009 05:48:25 14 C 62 % 6.84 C
1824 04-04-2009 06:00:26 14.2 C 62 % 7.03 C
1825 04-04-2009 06:12:26 13.8 C 63 % 6.89 C
Sensor: Nr:Datum:Temp:Feuchte:Taupunkt:
Aussen-T/F 1826 04-04-2009 06:24:26 13.7 C 64 % 7.02 C
1827 04-04-2009 06:36:26 13.7 C 64 % 7.02 C
1828 04-04-2009 06:48:26 13.6 C 64 % 6.93 C
1829 04-04-2009 07:00:26 13.7 C 64 % 7.02 C
1830 04-04-2009 07:12:26 13.6 C 64 % 6.93 C
1831 04-04-2009 07:24:26 13.5 C 64 % 6.83 C
1832 04-04-2009 07:36:26 13.7 C 63 % 6.79 C
1833 04-04-2009 07:48:26 13.6 C 63 % 6.7 C
1834 04-04-2009 08:00:26 13.5 C 64 % 6.83 C
1835 04-04-2009 08:12:26 13.5 C 64 % 6.83 C
1836 04-04-2009 08:24:26 13.7 C 64 % 7.02 C
1837 04-04-2009 08:36:24 13.9 C 63 % 6.98 C
1838 04-04-2009 08:48:24 14.1 C 61 % 6.7 C
1839 04-04-2009 09:00:24 14.2 C 60 % 6.56 C
1840 04-04-2009 09:12:24 14.4 C 60 % 6.74 C
1841 04-04-2009 09:24:23 14.4 C 60 % 6.74 C
1842 04-04-2009 09:36:24 14.5 C 59 % 6.59 C
1843 04-04-2009 09:48:23 14.6 C 59 % 6.69 C
1844 04-04-2009 10:00:23 14.9 C 58 % 6.72 C
1845 04-04-2009 10:12:23 15.3 C 57 % 6.84 C
1846 04-04-2009 10:24:23 15.5 C 56 % 6.77 C
1847 04-04-2009 10:36:23 15.7 C 55 % 6.69 C
1848 04-04-2009 10:48:23 16 C 53 % 6.44 C
1849 04-04-2009 11:00:23 16.4 C 53 % 6.81 C
1850 04-04-2009 11:12:23 16.7 C 51 % 6.52 C
Sensor: Nr:Datum:Temp:Feuchte:Taupunkt:
Aussen-T/F 1851 04-04-2009 11:24:22 17.6 C 48 % 6.47 C
1852 04-04-2009 11:36:23 17.7 C 46 % 5.95 C
1853 04-04-2009 11:48:22 18 C 45 % 5.9 C
1854 04-04-2009 12:00:22 18.4 C 43 % 5.61 C
1855 04-04-2009 12:12:22 18.5 C 43 % 5.7 C
1856 04-04-2009 12:24:21 18.7 C 42 % 5.54 C
1857 04-04-2009 12:36:22 18.7 C 41 % 5.19 C
1858 04-04-2009 12:48:22 19.1 C 40 % 5.2 C
1859 04-04-2009 13:00:21 19.5 C 39 % 5.19 C
1860 04-04-2009 13:12:21 19.5 C 38 % 4.82 C
1861 04-04-2009 13:24:22 19.4 C 37 % 4.35 C
1862 04-04-2009 13:36:21 19.3 C 37 % 4.26 C
1863 04-04-2009 13:48:21 19.9 C 36 % 4.4 C
1864 04-04-2009 14:00:21 20.1 C 35 % 4.18 C
1865 04-04-2009 14:12:21 20.3 C 35 % 4.35 C
1866 04-04-2009 14:24:21 20.7 C 35 % 4.7 C
1867 04-04-2009 14:36:20 20.9 C 34 % 4.47 C
1868 04-04-2009 14:48:20 21.1 C 33 % 4.22 C
1869 04-04-2009 15:00:21 21.6 C 32 % 4.21 C
1870 04-04-2009 15:12:21 21.6 C 31 % 3.76 C
1871 04-04-2009 15:24:20 21.9 C 30 % 3.56 C
1872 04-04-2009 15:36:21 22.1 C 30 % 3.73 C
1873 04-04-2009 15:48:20 22.1 C 30 % 3.73 C
1874 04-04-2009 16:00:20 22.1 C 30 % 3.73 C
1875 04-04-2009 16:12:20 21.7 C 35 % 5.58 C
Sensor: Nr:Datum:Temp:Feuchte:Taupunkt:
Aussen-T/F 1876 04-04-2009 16:24:20 20.3 C 40 % 6.27 C
1877 04-04-2009 16:36:20 20.9 C 38 % 6.06 C
1878 04-04-2009 16:48:19 20.8 C 38 % 5.97 C
1879 04-04-2009 17:00:20 21.8 C 37 % 6.48 C
1880 04-04-2009 17:12:20 22.2 C 35 % 6.02 C
1881 04-04-2009 17:24:19 21.9 C 37 % 6.56 C
1882 04-04-2009 17:36:19 21.6 C 37 % 6.3 C
1883 04-04-2009 17:48:19 20.7 C 39 % 6.26 C
1884 04-04-2009 18:00:19 21.6 C 37 % 6.3 C
1885 04-04-2009 18:12:19 21.4 C 36 % 5.73 C
1886 04-04-2009 18:24:18 20.1 C 40 % 6.09 C
1887 04-04-2009 18:36:18 19.7 C 41 % 6.09 C
1888 04-04-2009 18:48:19 19.2 C 41 % 5.64 C
1889 04-04-2009 19:00:18 18.8 C 42 % 5.63 C
1890 04-04-2009 19:12:18 18.7 C 42 % 5.54 C
1891 04-04-2009 19:24:18 18.2 C 43 % 5.43 C
1892 04-04-2009 19:36:18 17.9 C 46 % 6.13 C
1893 04-04-2009 19:48:18 17.6 C 47 % 6.17 C
1894 04-04-2009 20:00:17 17.4 C 48 % 6.29 C
1895 04-04-2009 20:12:17 17.2 C 48 % 6.11 C
1896 04-04-2009 20:24:18 17.1 C 49 % 6.31 C
1897 04-04-2009 20:36:17 17 C 50 % 6.51 C
1898 04-04-2009 20:48:17 16.9 C 51 % 6.71 C
1899 04-04-2009 21:00:17 16.8 C 51 % 6.62 C
1900 04-04-2009 21:12:17 16.8 C 52 % 6.9 C
Sensor: Nr:Datum:Temp:Feuchte:Taupunkt:
Aussen-T/F 1901 04-04-2009 21:24:17 16.5 C 52 % 6.62 C
1902 04-04-2009 21:36:17 16.3 C 53 % 6.71 C
1903 04-04-2009 21:48:16 16.2 C 53 % 6.62 C
1904 04-04-2009 22:00:17 15.9 C 55 % 6.88 C
1905 04-04-2009 22:12:17 15.6 C 56 % 6.86 C
1906 04-04-2009 22:24:16 15.2 C 57 % 6.75 C
1907 04-04-2009 22:37:17 15.1 C 57 % 6.65 C
1908 04-04-2009 22:49:17 14.9 C 59 % 6.97 C
1909 04-04-2009 23:01:17 14.5 C 60 % 6.84 C
1910 04-04-2009 23:13:17 14.3 C 62 % 7.13 C
1911 04-04-2009 23:25:17 14.2 C 62 % 7.03 C
1912 04-04-2009 23:37:17 14.4 C 61 % 6.98 C
1913 04-04-2009 23:49:17 14.4 C 61 % 6.98 C
1914 05-04-2009 00:01:17 14.4 C 60 % 6.74 C
1915 05-04-2009 00:13:17 14.2 C 61 % 6.8 C
1916 05-04-2009 00:25:17 14 C 61 % 6.61 C
1917 05-04-2009 00:37:17 13.7 C 62 % 6.56 C
1918 05-04-2009 00:49:17 13.7 C 63 % 6.79 C
1919 05-04-2009 01:01:17 13.9 C 62 % 6.75 C
1920 05-04-2009 01:13:18 14.1 C 61 % 6.7 C
1921 05-04-2009 01:25:18 13.8 C 63 % 6.89 C
1922 05-04-2009 01:37:18 13.5 C 62 % 6.37 C
1923 05-04-2009 01:49:18 13.1 C 63 % 6.22 C
1924 05-04-2009 02:01:18 13 C 64 % 6.36 C
1925 05-04-2009 02:13:18 12.8 C 66 % 6.61 C
Sensor: Nr:Datum:Temp:Feuchte:Taupunkt:
Aussen-T/F 1926 05-04-2009 02:25:18 12.7 C 66 % 6.52 C
1927 05-04-2009 02:37:18 12.5 C 66 % 6.33 C
1928 05-04-2009 02:49:18 12.8 C 66 % 6.61 C
1929 05-04-2009 03:01:18 12.6 C 66 % 6.42 C
1930 05-04-2009 03:13:18 12.3 C 66 % 6.14 C
1931 05-04-2009 03:25:18 12.2 C 67 % 6.26 C
1932 05-04-2009 03:37:18 12 C 68 % 6.29 C
1933 05-04-2009 03:49:18 11.9 C 69 % 6.4 C
1934 05-04-2009 04:01:18 11.7 C 69 % 6.21 C
1935 05-04-2009 04:13:18 11.2 C 69 % 5.73 C
1936 05-04-2009 04:25:18 11 C 70 % 5.75 C
1937 05-04-2009 04:37:18 10.8 C 72 % 5.96 C
1938 05-04-2009 04:49:18 10.7 C 72 % 5.87 C
1939 05-04-2009 05:01:19 10.8 C 73 % 6.16 C
1940 05-04-2009 05:13:19 10.7 C 73 % 6.07 C
1941 05-04-2009 05:25:19 10.7 C 73 % 6.07 C
1942 05-04-2009 05:37:19 10.7 C 73 % 6.07 C
1943 05-04-2009 05:49:16 10.8 C 73 % 6.16 C
1944 05-04-2009 06:01:17 10.7 C 73 % 6.07 C
1945 05-04-2009 06:13:17 10.6 C 73 % 5.97 C
1946 05-04-2009 06:25:17 10.6 C 73 % 5.97 C
1947 05-04-2009 06:37:16 10.6 C 73 % 5.97 C
1948 05-04-2009 06:49:17 10.7 C 73 % 6.07 C
1949 05-04-2009 07:01:01 10.8 C 73 % 6.16 C
1950 05-04-2009 07:13:01 10.6 C 73 % 5.97 C
Sensor: Nr:Datum:Temp:Feuchte:Taupunkt:
Aussen-T/F 1951 05-04-2009 07:25:01 10.7 C 74 % 6.26 C
1952 05-04-2009 07:37:01 10.9 C 73 % 6.26 C
1953 05-04-2009 07:49:01 11 C 72 % 6.15 C
1954 05-04-2009 08:01:01 11 C 72 % 6.15 C
1955 05-04-2009 08:13:01 11 C 72 % 6.15 C
1956 05-04-2009 08:25:00 11.2 C 72 % 6.35 C
1957 05-04-2009 08:37:01 11.3 C 71 % 6.24 C
1958 05-04-2009 08:49:00 11.5 C 71 % 6.43 C
1959 05-04-2009 09:01:01 11.6 C 70 % 6.32 C
1960 05-04-2009 09:13:01 12.4 C 68 % 6.67 C
1961 05-04-2009 09:25:00 12.3 C 66 % 6.14 C
1962 05-04-2009 09:37:01 12.6 C 65 % 6.2 C
1963 05-04-2009 09:49:00 12.7 C 64 % 6.07 C
1964 05-04-2009 10:01:00 13.1 C 63 % 6.22 C
1965 05-04-2009 10:13:00 13.2 C 59 % 5.37 C
1966 05-04-2009 10:25:59 13.4 C 59 % 5.56 C
1967 05-04-2009 10:37:00 13.9 C 57 % 5.53 C
1968 05-04-2009 10:49:59 14.2 C 53 % 4.77 C
1969 05-04-2009 11:01:01 15 C 51 % 4.96 C
1970 05-04-2009 11:13:01 15.2 C 50 % 4.86 C
1971 05-04-2009 11:25:02 15.2 C 47 % 3.98 C
1972 05-04-2009 11:37:02 15.5 C 49 % 4.84 C
1973 05-04-2009 11:49:02 16.3 C 44 % 4.04 C
1974 05-04-2009 12:01:01 16 C 46 % 4.4 C
1975 05-04-2009 12:13:01 16.7 C 44 % 4.4 C
Sensor: Nr:Datum:Temp:Feuchte:Taupunkt:
Aussen-T/F 1976 05-04-2009 12:25:02 17.4 C 44 % 5.03 C
1977 05-04-2009 12:37:01 17.7 C 43 % 4.98 C
1978 05-04-2009 12:49:01 17.8 C 44 % 5.4 C
1979 05-04-2009 13:01:01 18.2 C 42 % 5.09 C
1980 05-04-2009 13:13:01 18.7 C 41 % 5.19 C
1981 05-04-2009 13:25:01 19.2 C 39 % 4.92 C
1982 05-04-2009 13:37:00 19.5 C 37 % 4.44 C
1983 05-04-2009 13:49:00 19 C 38 % 4.38 C
1984 05-04-2009 14:01:00 19.2 C 39 % 4.92 C
1985 05-04-2009 14:13:00 20.2 C 36 % 4.67 C
1986 05-04-2009 14:25:00 19.9 C 36 % 4.4 C
1987 05-04-2009 14:37:00 20 C 35 % 4.09 C
1988 05-04-2009 14:49:00 19.7 C 35 % 3.82 C
1989 05-04-2009 15:01:00 20.7 C 34 % 4.29 C
1990 05-04-2009 15:13:00 21.2 C 32 % 3.87 C
1991 05-04-2009 15:24:59 20.1 C 33 % 3.34 C
1992 05-04-2009 15:37:00 20.2 C 34 % 3.85 C
1993 05-04-2009 15:49:59 21.6 C 30 % 3.3 C
1994 05-04-2009 16:01:59 20.3 C 30 % 2.18 C
1995 05-04-2009 16:13:00 21.5 C 28 % 2.24 C
1996 05-04-2009 16:25:59 21.8 C 28 % 2.5 C
1997 05-04-2009 16:37:59 20.8 C 31 % 3.07 C
1998 05-04-2009 16:49:58 21.1 C 29 % 2.39 C
1999 05-04-2009 17:01:59 20.5 C 29 % 1.87 C
2000 05-04-2009 17:13:59 21.2 C 27 % 1.48 C
Sensor: Nr:Datum:Temp:Feuchte:Taupunkt:
Aussen-T/F 2001 05-04-2009 17:25:59 19.7 C 30 % 1.66 C
2002 05-04-2009 17:37:58 19.9 C 31 % 2.29 C
2003 05-04-2009 17:49:59 19.1 C 33 % 2.47 C
2004 05-04-2009 18:01:58 18.9 C 34 % 2.71 C
2005 05-04-2009 18:13:58 19.5 C 33 % 2.82 C
2006 05-04-2009 18:25:58 19 C 35 % 3.21 C
2007 05-04-2009 18:37:58 18.3 C 36 % 2.99 C
2008 05-04-2009 18:49:58 17.8 C 38 % 3.31 C
2009 05-04-2009 19:01:58 17.4 C 40 % 3.68 C
2010 05-04-2009 19:13:58 17.2 C 40 % 3.5 C
2011 05-04-2009 19:25:57 17 C 41 % 3.67 C
2012 05-04-2009 19:37:58 16.8 C 42 % 3.83 C
2013 05-04-2009 19:49:57 16.7 C 44 % 4.4 C
2014 05-04-2009 20:01:57 16.3 C 45 % 4.36 C
2015 05-04-2009 20:13:57 15.9 C 47 % 4.61 C
2016 05-04-2009 20:25:57 15.8 C 49 % 5.12 C
2017 05-04-2009 20:37:57 15.7 C 49 % 5.03 C
2018 05-04-2009 20:49:56 15.5 C 50 % 5.13 C
2019 05-04-2009 21:01:57 15.4 C 51 % 5.33 C
2020 05-04-2009 21:13:57 15.2 C 51 % 5.14 C
2021 05-04-2009 21:25:56 14.8 C 52 % 5.05 C
2022 05-04-2009 21:37:56 14.4 C 55 % 5.49 C
2023 05-04-2009 21:49:56 14.3 C 55 % 5.39 C
2024 05-04-2009 22:01:56 14.1 C 55 % 5.21 C
2025 05-04-2009 22:13:56 14 C 56 % 5.37 C
Sensor: Nr:Datum:Temp:Feuchte:Taupunkt:
Aussen-T/F 2026 05-04-2009 22:25:55 13.8 C 58 % 5.69 C
2027 05-04-2009 22:38:57 13.6 C 59 % 5.75 C
2028 05-04-2009 22:50:57 13.4 C 60 % 5.8 C
2029 05-04-2009 23:02:57 13 C 61 % 5.66 C
2030 05-04-2009 23:14:57 13 C 61 % 5.66 C
2031 05-04-2009 23:26:57 13 C 62 % 5.9 C
2032 05-04-2009 23:38:57 12.7 C 62 % 5.62 C
2033 05-04-2009 23:50:57 12.6 C 63 % 5.75 C
2034 06-04-2009 00:02:57 12.8 C 63 % 5.94 C
2035 06-04-2009 00:14:57 12.9 C 63 % 6.04 C
2036 06-04-2009 00:26:57 12.6 C 63 % 5.75 C
2037 06-04-2009 00:38:57 12.5 C 64 % 5.88 C
2038 06-04-2009 00:50:57 12.7 C 64 % 6.07 C
2039 06-04-2009 01:02:57 12.7 C 64 % 6.07 C
2040 06-04-2009 01:14:57 12.7 C 64 % 6.07 C
2041 06-04-2009 01:26:57 12.7 C 64 % 6.07 C
2042 06-04-2009 01:38:57 12.2 C 64 % 5.6 C
2043 06-04-2009 01:50:57 11.8 C 66 % 5.66 C
2044 06-04-2009 02:02:57 11.5 C 67 % 5.59 C
2045 06-04-2009 02:14:57 11.4 C 67 % 5.5 C
2046 06-04-2009 02:26:58 11 C 69 % 5.54 C
2047 06-04-2009 02:38:58 10.9 C 70 % 5.65 C
2048 06-04-2009 02:50:58 10.7 C 71 % 5.66 C
2049 06-04-2009 03:02:58 10.5 C 71 % 5.47 C
2050 06-04-2009 03:14:58 10.2 C 71 % 5.18 C
Sensor: Nr:Datum:Temp:Feuchte:Taupunkt:
Aussen-T/F 2051 06-04-2009 03:26:58 10.1 C 72 % 5.29 C
2052 06-04-2009 03:38:58 10 C 73 % 5.39 C
2053 06-04-2009 03:50:58 9.9 C 74 % 5.49 C
2054 06-04-2009 04:02:58 9.7 C 74 % 5.3 C
2055 06-04-2009 04:14:58 9.5 C 74 % 5.1 C
2056 06-04-2009 04:26:58 9.3 C 75 % 5.1 C
2057 06-04-2009 04:38:58 9.2 C 75 % 5.01 C
2058 06-04-2009 04:50:58 9 C 76 % 5 C
2059 06-04-2009 05:02:58 9 C 76 % 5 C
2060 06-04-2009 05:14:58 8.8 C 78 % 5.18 C
2061 06-04-2009 05:26:58 8.6 C 78 % 4.99 C
2062 06-04-2009 05:38:58 8.5 C 79 % 5.07 C
2063 06-04-2009 05:50:58 8.3 C 79 % 4.88 C
2064 06-04-2009 06:02:58 8.2 C 80 % 4.96 C
2065 06-04-2009 06:14:59 8 C 80 % 4.77 C
2066 06-04-2009 06:26:59 7.7 C 82 % 4.83 C
2067 06-04-2009 06:38:59 7.7 C 82 % 4.83 C
2068 06-04-2009 06:50:59 7.6 C 83 % 4.9 C
2069 06-04-2009 07:02:56 7.5 C 83 % 4.81 C
2070 06-04-2009 07:14:57 7.4 C 83 % 4.71 C
2071 06-04-2009 07:26:58 7.3 C 84 % 4.78 C
2072 06-04-2009 07:38:56 7.3 C 84 % 4.78 C
2073 06-04-2009 07:50:56 7.3 C 84 % 4.78 C
2074 06-04-2009 08:02:56 7.5 C 84 % 4.98 C
2075 06-04-2009 08:14:56 7.6 C 84 % 5.07 C
Sensor: Nr:Datum:Temp:Feuchte:Taupunkt:
Aussen-T/F 2076 06-04-2009 08:26:56 7.6 C 83 % 4.9 C
2077 06-04-2009 08:38:56 7.7 C 83 % 5 C
2078 06-04-2009 08:50:56 7.8 C 83 % 5.1 C
2079 06-04-2009 09:02:56 7.8 C 83 % 5.1 C
2080 06-04-2009 09:14:55 8 C 83 % 5.29 C
2081 06-04-2009 09:26:55 8.3 C 83 % 5.59 C
2082 06-04-2009 09:38:55 8.5 C 82 % 5.61 C
2083 06-04-2009 09:50:55 8.6 C 82 % 5.71 C
2084 06-04-2009 10:02:55 9.1 C 81 % 6.02 C
2085 06-04-2009 10:14:55 9.6 C 79 % 6.14 C
2086 06-04-2009 10:26:55 10.1 C 76 % 6.07 C
2087 06-04-2009 10:38:54 10.8 C 74 % 6.36 C
2088 06-04-2009 10:50:55 11.5 C 70 % 6.23 C
2089 06-04-2009 11:02:55 12.2 C 68 % 6.48 C
2090 06-04-2009 11:14:54 13.1 C 65 % 6.68 C
2091 06-04-2009 11:26:54 13.9 C 63 % 6.98 C
2092 06-04-2009 11:38:54 14.6 C 60 % 6.93 C
2093 06-04-2009 11:50:54 15.2 C 56 % 6.49 C
2094 06-04-2009 12:02:54 15.9 C 54 % 6.61 C
2095 06-04-2009 12:14:53 16.5 C 52 % 6.62 C
2096 06-04-2009 12:26:53 17.5 C 48 % 6.38 C
2097 06-04-2009 12:38:54 17.9 C 46 % 6.13 C
2098 06-04-2009 12:50:53 18.6 C 44 % 6.12 C
2099 06-04-2009 13:02:53 19.3 C 41 % 5.73 C
2100 06-04-2009 13:14:54 19.4 C 40 % 5.47 C
Sensor: Nr:Datum:Temp:Feuchte:Taupunkt:
Aussen-T/F 2101 06-04-2009 13:26:54 20 C 39 % 5.64 C
2102 06-04-2009 13:38:53 20.8 C 37 % 5.59 C
2103 06-04-2009 13:50:53 21.5 C 34 % 4.99 C
2104 06-04-2009 14:02:52 21.4 C 33 % 4.48 C
2105 06-04-2009 14:14:53 21.7 C 32 % 4.3 C
2106 06-04-2009 14:26:53 22.2 C 30 % 3.82 C
2107 06-04-2009 14:38:52 22.5 C 31 % 4.54 C
2108 06-04-2009 14:50:52 22.5 C 30 % 4.08 C
2109 06-04-2009 15:02:52 23.2 C 28 % 3.7 C
2110 06-04-2009 15:14:52 24.1 C 25 % 2.86 C
2111 06-04-2009 15:26:52 24.1 C 24 % 2.29 C
2112 06-04-2009 15:38:52 23.8 C 24 % 2.04 C
2113 06-04-2009 15:50:52 24.1 C 24 % 2.29 C
2114 06-04-2009 16:02:52 23.5 C 25 % 2.36 C
2115 06-04-2009 16:14:51 22.1 C 27 % 2.25 C
2116 06-04-2009 16:26:51 22.4 C 28 % 3.01 C
2117 06-04-2009 16:38:51 22.6 C 27 % 2.67 C
2118 06-04-2009 16:50:51 22.3 C 26 % 1.89 C
2119 06-04-2009 17:02:51 22.1 C 26 % 1.72 C
2120 06-04-2009 17:14:50 21.8 C 27 % 1.99 C
2121 06-04-2009 17:26:50 21.9 C 26 % 1.55 C
2122 06-04-2009 17:38:51 21.6 C 26 % 1.29 C
2123 06-04-2009 17:50:50 21.4 C 28 % 2.16 C
2124 06-04-2009 18:02:50 21.4 C 28 % 2.16 C
2125 06-04-2009 18:14:51 21.9 C 29 % 3.08 C
Sensor: Nr:Datum:Temp:Feuchte:Taupunkt:
Aussen-T/F 2126 06-04-2009 18:26:51 21.7 C 29 % 2.91 C
2127 06-04-2009 18:38:50 21.8 C 30 % 3.47 C
2128 06-04-2009 18:50:50 21.6 C 30 % 3.3 C
2129 06-04-2009 19:02:50 21.8 C 30 % 3.47 C
2130 06-04-2009 19:14:50 21.5 C 32 % 4.13 C
2131 06-04-2009 19:26:50 21 C 32 % 3.69 C
2132 06-04-2009 19:38:49 20.2 C 35 % 4.26 C
2133 06-04-2009 19:50:50 19.2 C 37 % 4.17 C
2134 06-04-2009 20:02:49 18.5 C 38 % 3.93 C
2135 06-04-2009 20:14:49 18.1 C 40 % 4.3 C
2136 06-04-2009 20:26:49 17.6 C 40 % 3.86 C
2137 06-04-2009 20:38:49 17.2 C 41 % 3.85 C
2138 06-04-2009 20:50:49 16.7 C 42 % 3.74 C
2139 06-04-2009 21:02:49 16.6 C 42 % 3.65 C
2140 06-04-2009 21:14:48 16.3 C 42 % 3.38 C
2141 06-04-2009 21:26:48 16 C 43 % 3.44 C
2142 06-04-2009 21:39:49 15.8 C 43 % 3.26 C
2143 06-04-2009 21:51:49 15.6 C 44 % 3.4 C
2144 06-04-2009 22:03:49 15.4 C 45 % 3.54 C
2145 06-04-2009 22:15:49 15.2 C 45 % 3.36 C
2146 06-04-2009 22:27:49 15.1 C 46 % 3.58 C
2147 06-04-2009 22:39:49 15.5 C 45 % 3.63 C
2148 06-04-2009 22:51:49 15.4 C 46 % 3.85 C
2149 06-04-2009 23:03:49 15.2 C 47 % 3.98 C
2150 06-04-2009 23:15:49 15.1 C 48 % 4.18 C
Sensor: Nr:Datum:Temp:Feuchte:Taupunkt:
Aussen-T/F 2151 06-04-2009 23:27:49 14.9 C 50 % 4.58 C
2152 06-04-2009 23:39:49 14.6 C 51 % 4.59 C
2153 06-04-2009 23:51:49 14.6 C 51 % 4.59 C
2154 07-04-2009 00:03:49 14.3 C 52 % 4.59 C
2155 07-04-2009 00:15:50 14.1 C 53 % 4.68 C
2156 07-04-2009 00:27:50 13.9 C 55 % 5.02 C
2157 07-04-2009 00:39:50 13.8 C 55 % 4.93 C
2158 07-04-2009 00:51:50 13.6 C 57 % 5.25 C
2159 07-04-2009 01:03:50 13.5 C 58 % 5.41 C
2160 07-04-2009 01:15:50 13.2 C 59 % 5.37 C
2161 07-04-2009 01:27:50 12.9 C 60 % 5.33 C
2162 07-04-2009 01:39:50 12.5 C 61 % 5.19 C
2163 07-04-2009 01:51:50 12.1 C 63 % 5.28 C
2164 07-04-2009 02:03:50 11.9 C 65 % 5.54 C
2165 07-04-2009 02:15:50 11.8 C 66 % 5.66 C
2166 07-04-2009 02:27:50 11.4 C 66 % 5.28 C
2167 07-04-2009 02:39:50 11.3 C 67 % 5.4 C
2168 07-04-2009 02:51:50 11.2 C 67 % 5.31 C
2169 07-04-2009 03:03:50 11.1 C 68 % 5.43 C
2170 07-04-2009 03:15:50 10.9 C 69 % 5.44 C
2171 07-04-2009 03:27:50 10.6 C 70 % 5.36 C
2172 07-04-2009 03:39:50 10.5 C 71 % 5.47 C
2173 07-04-2009 03:51:50 10.3 C 71 % 5.28 C
2174 07-04-2009 04:03:50 10 C 72 % 5.19 C
2175 07-04-2009 04:15:51 9.8 C 74 % 5.39 C
Sensor: Nr:Datum:Temp:Feuchte:Taupunkt:
Aussen-T/F 2176 07-04-2009 04:27:51 9.8 C 74 % 5.39 C
2177 07-04-2009 04:39:51 9.8 C 74 % 5.39 C
2178 07-04-2009 04:51:51 9.7 C 74 % 5.3 C
2179 07-04-2009 05:03:51 9.6 C 74 % 5.2 C
2180 07-04-2009 05:15:51 9.4 C 74 % 5.01 C
2181 07-04-2009 05:27:51 9.4 C 75 % 5.2 C
2182 07-04-2009 05:39:51 9.2 C 76 % 5.2 C
2183 07-04-2009 05:51:51 9 C 76 % 5 C
2184 07-04-2009 06:03:51 8.7 C 77 % 4.9 C
2185 07-04-2009 06:15:51 8.6 C 77 % 4.8 C
2186 07-04-2009 06:27:51 8.4 C 78 % 4.79 C
2187 07-04-2009 06:39:51 8.4 C 79 % 4.98 C
2188 07-04-2009 06:51:51 8.3 C 80 % 5.06 C
2189 07-04-2009 07:03:51 8.2 C 80 % 4.96 C
2190 07-04-2009 07:15:49 8.1 C 80 % 4.86 C
2191 07-04-2009 07:27:49 8.1 C 81 % 5.04 C
2192 07-04-2009 07:39:48 8.1 C 81 % 5.04 C
2193 07-04-2009 07:51:49 8.1 C 81 % 5.04 C
2194 07-04-2009 08:03:48 8.1 C 81 % 5.04 C
2195 07-04-2009 08:15:48 8.2 C 81 % 5.14 C
2196 07-04-2009 08:27:48 8.3 C 81 % 5.24 C
2197 07-04-2009 08:39:47 8.6 C 81 % 5.53 C
2198 07-04-2009 08:51:48 8.9 C 81 % 5.82 C
2199 07-04-2009 09:03:48 9.1 C 80 % 5.84 C
2200 07-04-2009 09:15:47 9.6 C 79 % 6.14 C
Sensor: Nr:Datum:Temp:Feuchte:Taupunkt:
Aussen-T/F 2201 07-04-2009 09:27:47 10 C 75 % 5.78 C
2202 07-04-2009 09:39:48 10.6 C 73 % 5.97 C
2203 07-04-2009 09:51:47 11.2 C 71 % 6.14 C
2204 07-04-2009 10:03:47 12 C 68 % 6.29 C
2205 07-04-2009 10:15:47 12.8 C 64 % 6.17 C
2206 07-04-2009 10:27:47 13.4 C 60 % 5.8 C
2207 07-04-2009 10:39:47 14.2 C 60 % 6.56 C
2208 07-04-2009 10:51:46 15.4 C 49 % 4.75 C
2209 07-04-2009 11:03:46 16.6 C 42 % 3.65 C
2210 07-04-2009 11:15:47 17.1 C 40 % 3.41 C
2211 07-04-2009 11:27:47 17.7 C 40 % 3.95 C
2212 07-04-2009 11:39:46 18.2 C 38 % 3.66 C
2213 07-04-2009 11:51:46 18.5 C 37 % 3.55 C
2214 07-04-2009 12:03:46 19.2 C 35 % 3.38 C
2215 07-04-2009 12:15:46 19.8 C 33 % 3.08 C
2216 07-04-2009 12:27:46 20.1 C 31 % 2.46 C
2217 07-04-2009 12:39:46 20.4 C 31 % 2.72 C
2218 07-04-2009 12:51:46 20.4 C 30 % 2.26 C
2219 07-04-2009 13:03:46 20.9 C 30 % 2.69 C
2220 07-04-2009 13:15:45 21 C 30 % 2.78 C
2221 07-04-2009 13:27:45 21.5 C 29 % 2.74 C
2222 07-04-2009 13:39:45 21.7 C 28 % 2.41 C
2223 07-04-2009 13:51:45 21.5 C 30 % 3.21 C
2224 07-04-2009 14:03:45 20.8 C 32 % 3.52 C
2225 07-04-2009 14:15:44 21.2 C 32 % 3.87 C
Sensor: Nr:Datum:Temp:Feuchte:Taupunkt:
Aussen-T/F 2226 07-04-2009 14:27:44 22.5 C 30 % 4.08 C
2227 07-04-2009 14:39:45 22.3 C 28 % 2.93 C
2228 07-04-2009 14:51:44 22.8 C 27 % 2.84 C
2229 07-04-2009 15:03:44 22.9 C 26 % 2.4 C
2230 07-04-2009 15:15:45 22.9 C 25 % 1.85 C
2231 07-04-2009 15:27:45 22.6 C 25 % 1.6 C
2232 07-04-2009 15:39:44 22.1 C 26 % 1.72 C
2233 07-04-2009 15:51:44 21.8 C 28 % 2.5 C
2234 07-04-2009 16:03:44 22.7 C 27 % 2.76 C
2235 07-04-2009 16:15:44 22.9 C 26 % 2.4 C
2236 07-04-2009 16:27:44 22.3 C 27 % 2.42 C
2237 07-04-2009 16:39:43 21.7 C 29 % 2.91 C
2238 07-04-2009 16:51:44 21.4 C 29 % 2.65 C
2239 07-04-2009 17:03:43 21.2 C 30 % 2.95 C
2240 07-04-2009 17:15:43 20.9 C 31 % 3.16 C
2241 07-04-2009 17:27:43 20.7 C 32 % 3.43 C
2242 07-04-2009 17:39:43 20.4 C 33 % 3.6 C
2243 07-04-2009 17:51:43 20.4 C 34 % 4.03 C
2244 07-04-2009 18:03:43 18.7 C 44 % 6.21 C
2245 07-04-2009 18:15:42 18.3 C 49 % 7.41 C
2246 07-04-2009 18:27:42 17.7 C 51 % 7.45 C
2247 07-04-2009 18:39:43 17.7 C 52 % 7.73 C
2248 07-04-2009 18:51:42 16.3 C 64 % 9.48 C
2249 07-04-2009 19:03:42 15.3 C 67 % 9.21 C
2250 07-04-2009 19:15:41 15.3 C 74 % 10.7 C
Sensor: Nr:Datum:Temp:Feuchte:Taupunkt:
Aussen-T/F 2251 07-04-2009 19:27:41 14.7 C 78 % 10.91 C
2252 07-04-2009 19:39:42 14.6 C 81 % 11.38 C
2253 07-04-2009 19:51:41 14.8 C 74 % 10.22 C
2254 07-04-2009 20:03:41 14.7 C 69 % 9.08 C
2255 07-04-2009 20:15:42 14.5 C 68 % 8.67 C
2256 07-04-2009 20:27:42 14.3 C 72 % 9.33 C
2257 07-04-2009 20:39:41 14.2 C 75 % 9.84 C
2258 07-04-2009 20:51:41 14.1 C 73 % 9.34 C
2259 07-04-2009 21:03:41 14.1 C 73 % 9.34 C
2260 07-04-2009 21:15:41 14 C 74 % 9.44 C
2261 07-04-2009 21:27:41 14.1 C 74 % 9.54 C
2262 07-04-2009 21:39:41 13.9 C 74 % 9.35 C
2263 07-04-2009 21:52:42 13.9 C 74 % 9.35 C
2264 07-04-2009 22:04:42 13.5 C 76 % 9.36 C
2265 07-04-2009 22:16:42 13.2 C 78 % 9.45 C
2266 07-04-2009 22:28:42 13.3 C 81 % 10.11 C
2267 07-04-2009 22:40:42 13.1 C 81 % 9.92 C
2268 07-04-2009 22:52:42 13 C 81 % 9.82 C
2269 07-04-2009 23:04:42 12.4 C 81 % 9.23 C
2270 07-04-2009 23:16:42 12.3 C 83 % 9.5 C
2271 07-04-2009 23:28:42 12.4 C 83 % 9.6 C
2272 07-04-2009 23:40:42 12.6 C 81 % 9.43 C
2273 07-04-2009 23:52:42 12.7 C 79 % 9.16 C
2274 08-04-2009 00:04:42 12.6 C 75 % 8.29 C
2275 08-04-2009 00:16:42 12.5 C 75 % 8.19 C
Sensor: Nr:Datum:Temp:Feuchte:Taupunkt:
Aussen-T/F 2276 08-04-2009 00:28:42 12.6 C 75 % 8.29 C
2277 08-04-2009 00:40:42 12.5 C 74 % 8 C
2278 08-04-2009 00:52:42 12.4 C 74 % 7.9 C
2279 08-04-2009 01:04:42 12.5 C 74 % 8 C
2280 08-04-2009 01:16:43 12.4 C 74 % 7.9 C
2281 08-04-2009 01:28:43 12.2 C 74 % 7.71 C
2282 08-04-2009 01:40:43 12.2 C 75 % 7.91 C
2283 08-04-2009 01:52:43 12.2 C 75 % 7.91 C
2284 08-04-2009 02:04:43 12.2 C 75 % 7.91 C
2285 08-04-2009 02:16:43 12.2 C 75 % 7.91 C
2286 08-04-2009 02:28:43 12.1 C 73 % 7.41 C
2287 08-04-2009 02:40:43 12.1 C 71 % 7.01 C
2288 08-04-2009 02:52:43 12.1 C 69 % 6.59 C
2289 08-04-2009 03:04:43 12 C 68 % 6.29 C
2290 08-04-2009 03:16:43 12 C 68 % 6.29 C
2291 08-04-2009 03:28:43 11.8 C 69 % 6.31 C
2292 08-04-2009 03:40:43 11.7 C 69 % 6.21 C
2293 08-04-2009 03:52:43 11.5 C 70 % 6.23 C
2294 08-04-2009 04:04:43 11.6 C 71 % 6.53 C
2295 08-04-2009 04:16:43 11.4 C 70 % 6.13 C
2296 08-04-2009 04:28:43 11.3 C 70 % 6.03 C
2297 08-04-2009 04:40:43 11.3 C 71 % 6.24 C
2298 08-04-2009 04:52:43 11.4 C 72 % 6.54 C
2299 08-04-2009 05:04:43 11.4 C 72 % 6.54 C
2300 08-04-2009 05:16:43 11.3 C 72 % 6.44 C
Sensor: Nr:Datum:Temp:Feuchte:Taupunkt:
Aussen-T/F 2301 08-04-2009 05:28:44 11.4 C 72 % 6.54 C
2302 08-04-2009 05:40:44 11.4 C 72 % 6.54 C
2303 08-04-2009 05:52:44 11.5 C 72 % 6.63 C
2304 08-04-2009 06:04:44 11.7 C 72 % 6.83 C
2305 08-04-2009 06:16:44 11.5 C 72 % 6.63 C
2306 08-04-2009 06:28:44 11.7 C 72 % 6.83 C
2307 08-04-2009 06:40:44 11.4 C 71 % 6.34 C
2308 08-04-2009 06:52:44 11.4 C 71 % 6.34 C
2309 08-04-2009 07:04:41 11.2 C 71 % 6.14 C
2310 08-04-2009 07:16:42 11.2 C 71 % 6.14 C
2311 08-04-2009 07:28:42 11.1 C 72 % 6.25 C
2312 08-04-2009 07:40:41 11.2 C 71 % 6.14 C
2313 08-04-2009 07:52:41 11.3 C 71 % 6.24 C
2314 08-04-2009 08:04:41 11.3 C 71 % 6.24 C
2315 08-04-2009 08:16:41 11.5 C 70 % 6.23 C
2316 08-04-2009 08:28:41 11.7 C 69 % 6.21 C
2317 08-04-2009 08:40:40 11.9 C 67 % 5.98 C
2318 08-04-2009 08:52:40 12.1 C 66 % 5.95 C
2319 08-04-2009 09:04:40 12.2 C 65 % 5.82 C
2320 08-04-2009 09:16:40 12 C 65 % 5.63 C
2321 08-04-2009 09:28:40 11.9 C 66 % 5.76 C
2322 08-04-2009 09:40:40 12.1 C 63 % 5.28 C
2323 08-04-2009 09:52:40 12.5 C 61 % 5.19 C
2324 08-04-2009 10:04:40 12.9 C 59 % 5.09 C
2325 08-04-2009 10:16:39 13.3 C 56 % 4.72 C
Sensor: Nr:Datum:Temp:Feuchte:Taupunkt:
Aussen-T/F 2326 08-04-2009 10:28:39 13.5 C 53 % 4.12 C
2327 08-04-2009 10:40:39 14.2 C 50 % 3.94 C
2328 08-04-2009 10:52:39 14.5 C 46 % 3.03 C
2329 08-04-2009 11:04:39 15.1 C 45 % 3.27 C
2330 08-04-2009 11:16:39 15.4 C 42 % 2.57 C
2331 08-04-2009 11:28:39 15.1 C 40 % 1.62 C
2332 08-04-2009 11:40:39 14.8 C 41 % 1.69 C
2333 08-04-2009 11:52:39 14.9 C 39 % 1.09 C
2334 08-04-2009 12:04:38 15.4 C 39 % 1.53 C
2335 08-04-2009 12:16:39 15.8 C 40 % 2.24 C
2336 08-04-2009 12:28:39 15.8 C 39 % 1.89 C
2337 08-04-2009 12:40:38 15.4 C 37 % 0.8 C
2338 08-04-2009 12:52:38 16.2 C 36 % 1.13 C
2339 08-04-2009 13:04:37 16.3 C 32 % -0.4 C
2340 08-04-2009 13:16:38 16.7 C 32 % -0.06 C
2341 08-04-2009 13:28:38 16.8 C 29 % -1.31 C
2342 08-04-2009 13:40:38 17.3 C 27 % -1.85 C
2343 08-04-2009 13:52:37 17.7 C 27 % -1.51 C
2344 08-04-2009 14:04:38 17.5 C 26 % -2.19 C
2345 08-04-2009 14:16:37 17.9 C 23 % -3.5 C
2346 08-04-2009 14:28:37 18 C 20 % -5.27 C
2347 08-04-2009 14:40:37 17.8 C 20 % -5.43 C
2348 08-04-2009 14:52:37 17.4 C 20 % -5.76 C
2349 08-04-2009 15:04:37 17.7 C 21 % -4.87 C
2350 08-04-2009 15:16:36 18.4 C 20 % -4.93 C
Sensor: Nr:Datum:Temp:Feuchte:Taupunkt:
Aussen-T/F 2351 08-04-2009 15:28:36 17.5 C 20 % -5.68 C
2352 08-04-2009 15:40:37 17.2 C 21 % -5.29 C
2353 08-04-2009 15:52:36 17.5 C 21 % -5.04 C
2354 08-04-2009 16:04:36 17.7 C 21 % -4.87 C
2355 08-04-2009 16:16:36 17.7 C 22 % -4.26 C
2356 08-04-2009 16:28:36 17.7 C 22 % -4.26 C
2357 08-04-2009 16:40:36 17.5 C 21 % -5.04 C
2358 08-04-2009 16:52:36 17.5 C 20 % -5.68 C
2359 08-04-2009 17:04:35 17.6 C 20 % -5.6 C
2360 08-04-2009 17:16:36 17.6 C 20 % -5.6 C
2361 08-04-2009 17:28:37 17.2 C 20 % -5.93 C
2362 08-04-2009 17:40:35 17.5 C 20 % -5.68 C
2363 08-04-2009 17:52:35 17.7 C 22 % -4.26 C
2364 08-04-2009 18:04:35 17.7 C 21 % -4.87 C
2365 08-04-2009 18:16:35 17.5 C 20 % -5.68 C
2366 08-04-2009 18:28:35 17.2 C 20 % -5.93 C
2367 08-04-2009 18:40:35 17.6 C 22 % -4.34 C
2368 08-04-2009 18:52:35 17.8 C 21 % -4.79 C
2369 08-04-2009 19:04:35 17.7 C 22 % -4.26 C
2370 08-04-2009 19:16:34 18.3 C 21 % -4.37 C
2371 08-04-2009 19:28:34 17.5 C 24 % -3.27 C
2372 08-04-2009 19:40:34 16.6 C 30 % -1.02 C
2373 08-04-2009 19:52:34 15.9 C 33 % -0.33 C
2374 08-04-2009 20:04:34 15.6 C 35 % 0.21 C
2375 08-04-2009 20:16:33 15.2 C 36 % 0.25 C
Sensor: Nr:Datum:Temp:Feuchte:Taupunkt:
Aussen-T/F 2376 08-04-2009 20:28:33 15 C 38 % 0.82 C
2377 08-04-2009 20:40:34 14.7 C 40 % 1.26 C
2378 08-04-2009 20:52:34 14.6 C 42 % 1.85 C
2379 08-04-2009 21:04:33 14.6 C 43 % 2.18 C
2380 08-04-2009 21:16:34 14.6 C 43 % 2.18 C
2381 08-04-2009 21:28:34 14.4 C 45 % 2.63 C
2382 08-04-2009 21:40:33 14.2 C 46 % 2.76 C
2383 08-04-2009 21:52:33 14.2 C 48 % 3.36 C
2384 08-04-2009 22:04:33 13.8 C 50 % 3.57 C
2385 08-04-2009 22:17:35 13.6 C 52 % 3.94 C
2386 08-04-2009 22:29:35 13.2 C 54 % 4.11 C
2387 08-04-2009 22:41:35 13.2 C 55 % 4.37 C
2388 08-04-2009 22:53:35 13.2 C 55 % 4.37 C
2389 08-04-2009 23:05:35 13.2 C 55 % 4.37 C
2390 08-04-2009 23:17:35 13.2 C 55 % 4.37 C
2391 08-04-2009 23:29:35 13.1 C 55 % 4.28 C
2392 08-04-2009 23:41:35 13.2 C 55 % 4.37 C
2393 08-04-2009 23:53:35 13.2 C 56 % 4.63 C
2394 09-04-2009 00:05:35 13.2 C 57 % 4.88 C
2395 09-04-2009 00:17:35 13.2 C 58 % 5.13 C
2396 09-04-2009 00:29:35 13.2 C 58 % 5.13 C
2397 09-04-2009 00:41:35 13.2 C 59 % 5.37 C
2398 09-04-2009 00:53:35 13.2 C 59 % 5.37 C
2399 09-04-2009 01:05:35 13.3 C 60 % 5.71 C
2400 09-04-2009 01:17:35 13.2 C 61 % 5.85 C
Sensor: Nr:Datum:Temp:Feuchte:Taupunkt:
Aussen-T/F 2401 09-04-2009 01:29:36 13.2 C 62 % 6.09 C
2402 09-04-2009 01:41:36 13.1 C 63 % 6.22 C
2403 09-04-2009 01:53:36 13.2 C 63 % 6.32 C
2404 09-04-2009 02:05:36 13.2 C 63 % 6.32 C
2405 09-04-2009 02:17:36 13.3 C 64 % 6.64 C
2406 09-04-2009 02:29:36 13.4 C 63 % 6.51 C
2407 09-04-2009 02:41:36 13.5 C 63 % 6.6 C
2408 09-04-2009 02:53:36 13.5 C 63 % 6.6 C
2409 09-04-2009 03:05:36 13.3 C 63 % 6.41 C
2410 09-04-2009 03:17:36 13.3 C 63 % 6.41 C
2411 09-04-2009 03:29:36 13 C 65 % 6.58 C
2412 09-04-2009 03:41:36 13.2 C 65 % 6.77 C
2413 09-04-2009 03:53:36 13.2 C 65 % 6.77 C
2414 09-04-2009 04:05:36 13.4 C 64 % 6.74 C
2415 09-04-2009 04:17:36 13.4 C 63 % 6.51 C
2416 09-04-2009 04:29:36 13.1 C 64 % 6.45 C
2417 09-04-2009 04:41:36 13.3 C 64 % 6.64 C
2418 09-04-2009 04:53:36 13.3 C 64 % 6.64 C
2419 09-04-2009 05:05:36 13.3 C 64 % 6.64 C
2420 09-04-2009 05:17:36 12.4 C 73 % 7.7 C
2421 09-04-2009 05:29:36 12.3 C 74 % 7.8 C
2422 09-04-2009 05:41:37 12.4 C 74 % 7.9 C
2423 09-04-2009 05:53:37 12.4 C 74 % 7.9 C
2424 09-04-2009 06:05:37 12.1 C 77 % 8.2 C
2425 09-04-2009 06:17:37 12.1 C 78 % 8.38 C
Sensor: Nr:Datum:Temp:Feuchte:Taupunkt:
Aussen-T/F 2426 09-04-2009 06:29:37 12.3 C 77 % 8.39 C
2427 09-04-2009 06:41:37 12.4 C 75 % 8.1 C
2428 09-04-2009 06:53:37 12.4 C 75 % 8.1 C
2429 09-04-2009 07:05:34 12.4 C 75 % 8.1 C
2430 09-04-2009 07:17:34 12.5 C 75 % 8.19 C
2431 09-04-2009 07:29:34 12.7 C 74 % 8.19 C
2432 09-04-2009 07:41:33 12.8 C 74 % 8.29 C
2433 09-04-2009 07:53:34 12.9 C 73 % 8.18 C
2434 09-04-2009 08:05:33 13.1 C 72 % 8.17 C
2435 09-04-2009 08:17:33 13.4 C 69 % 7.84 C
2436 09-04-2009 08:29:33 13.6 C 68 % 7.81 C
2437 09-04-2009 08:41:33 13.9 C 67 % 7.88 C
2438 09-04-2009 08:53:33 14.1 C 65 % 7.63 C
2439 09-04-2009 09:05:33 14.2 C 63 % 7.27 C
2440 09-04-2009 09:17:33 14.6 C 62 % 7.41 C
2441 09-04-2009 09:29:33 14.4 C 61 % 6.98 C
2442 09-04-2009 09:41:33 14.5 C 61 % 7.08 C
2443 09-04-2009 09:53:32 14.5 C 61 % 7.08 C
2444 09-04-2009 10:05:33 14.6 C 59 % 6.69 C
2445 09-04-2009 10:17:32 14.7 C 60 % 7.03 C
2446 09-04-2009 10:29:32 14.6 C 59 % 6.69 C
2447 09-04-2009 10:41:32 14.5 C 60 % 6.84 C
2448 09-04-2009 10:53:32 14.8 C 60 % 7.12 C
2449 09-04-2009 11:05:32 15.2 C 58 % 7 C
2450 09-04-2009 11:17:31 15.4 C 57 % 6.93 C
Sensor: Nr:Datum:Temp:Feuchte:Taupunkt:
Aussen-T/F 2451 09-04-2009 11:29:31 15.6 C 57 % 7.12 C
2452 09-04-2009 11:41:31 15.6 C 57 % 7.12 C
2453 09-04-2009 11:53:31 16.5 C 54 % 7.17 C
2454 09-04-2009 12:05:31 16.5 C 53 % 6.9 C
2455 09-04-2009 12:17:31 16.4 C 53 % 6.81 C
2456 09-04-2009 12:29:31 16.4 C 53 % 6.81 C
2457 09-04-2009 12:41:31 16.3 C 54 % 6.98 C
2458 09-04-2009 12:53:31 16.7 C 52 % 6.81 C
2459 09-04-2009 13:05:30 16.8 C 52 % 6.9 C
2460 09-04-2009 13:17:31 17 C 50 % 6.51 C
2461 09-04-2009 13:29:31 16.9 C 52 % 6.99 C
2462 09-04-2009 13:41:31 17.2 C 50 % 6.7 C
2463 09-04-2009 13:53:30 18.1 C 48 % 6.93 C
2464 09-04-2009 14:05:30 18.5 C 46 % 6.67 C
2465 09-04-2009 14:17:30 19.7 C 42 % 6.44 C
2466 09-04-2009 14:29:30 19.1 C 42 % 5.9 C
2467 09-04-2009 14:41:30 19.5 C 42 % 6.26 C
2468 09-04-2009 14:53:29 20.4 C 41 % 6.72 C
2469 09-04-2009 15:05:30 21.2 C 37 % 5.94 C
2470 09-04-2009 15:17:29 21.1 C 37 % 5.86 C
2471 09-04-2009 15:29:29 20.3 C 40 % 6.27 C
2472 09-04-2009 15:41:29 19.7 C 41 % 6.09 C
2473 09-04-2009 15:53:29 20.7 C 39 % 6.26 C
2474 09-04-2009 16:05:29 20.9 C 38 % 6.06 C
2475 09-04-2009 16:17:29 21 C 37 % 5.77 C
Sensor: Nr:Datum:Temp:Feuchte:Taupunkt:
Aussen-T/F 2476 09-04-2009 16:29:29 21 C 36 % 5.37 C
2477 09-04-2009 16:41:28 21.8 C 35 % 5.67 C
2478 09-04-2009 16:53:29 22.7 C 33 % 5.61 C
2479 09-04-2009 17:05:28 24 C 29 % 4.88 C
2480 09-04-2009 17:17:28 23.8 C 29 % 4.71 C
2481 09-04-2009 17:29:28 22.8 C 30 % 4.34 C
2482 09-04-2009 17:41:28 22 C 31 % 4.11 C
2483 09-04-2009 17:53:28 23.1 C 30 % 4.59 C
2484 09-04-2009 18:05:28 23.8 C 29 % 4.71 C
2485 09-04-2009 18:17:28 24.3 C 27 % 4.12 C
2486 09-04-2009 18:29:28 24.2 C 27 % 4.04 C
2487 09-04-2009 18:41:27 23.9 C 28 % 4.3 C
2488 09-04-2009 18:53:02 23.7 C 28 % 4.13 C
2489 09-04-2009 19:05:01 23.5 C 28 % 3.96 C
2490 09-04-2009 19:17:02 23.1 C 28 % 3.61 C
2491 09-04-2009 19:29:02 23 C 30 % 4.51 C
2492 09-04-2009 19:41:01 22.6 C 32 % 5.08 C
2493 09-04-2009 19:53:01 21.5 C 35 % 5.41 C
2494 09-04-2009 20:05:02 19.9 C 39 % 5.55 C
2495 09-04-2009 20:17:01 18.6 C 42 % 5.45 C
2496 09-04-2009 20:29:01 17.9 C 45 % 5.81 C
2497 09-04-2009 20:41:01 17.3 C 46 % 5.58 C
2498 09-04-2009 20:53:01 16.9 C 48 % 5.83 C
2499 09-04-2009 21:05:01 16.6 C 50 % 6.15 C
2500 09-04-2009 21:17:00 16.2 C 50 % 5.78 C
Sensor: Nr:Datum:Temp:Feuchte:Taupunkt:
Aussen-T/F 2501 09-04-2009 21:29:00 16 C 51 % 5.88 C
2502 09-04-2009 21:41:00 15.8 C 52 % 5.97 C
2503 09-04-2009 21:53:00 15.6 C 53 % 6.06 C
2504 09-04-2009 22:05:00 15.4 C 54 % 6.15 C
2505 09-04-2009 22:17:00 15.2 C 54 % 5.96 C
2506 09-04-2009 22:29:00 14.9 C 56 % 6.21 C
2507 09-04-2009 22:41:59 14.8 C 56 % 6.12 C
2508 09-04-2009 23:05:59 14.6 C 57 % 6.19 C
2509 09-04-2009 23:17:59 14.4 C 57 % 6 C
2510 09-04-2009 23:29:59 14 C 58 % 5.88 C
2511 09-04-2009 23:41:59 13.8 C 60 % 6.18 C
2512 09-04-2009 23:53:59 13.7 C 61 % 6.32 C
2513 10-04-2009 00:05:59 13.4 C 62 % 6.28 C
2514 10-04-2009 00:17:59 13.2 C 63 % 6.32 C
2515 10-04-2009 00:29:59 13 C 63 % 6.13 C
2516 10-04-2009 00:41:59 12.9 C 64 % 6.26 C
2517 10-04-2009 00:53:59 12.9 C 65 % 6.49 C
2518 10-04-2009 01:05:59 12.8 C 65 % 6.39 C
2519 10-04-2009 01:17:59 12.7 C 65 % 6.3 C
2520 10-04-2009 01:29:59 12.7 C 66 % 6.52 C
2521 10-04-2009 01:41:59 12.8 C 66 % 6.61 C
2522 10-04-2009 01:53:59 12.8 C 66 % 6.61 C
2523 10-04-2009 02:05:59 12.7 C 66 % 6.52 C
2524 10-04-2009 02:17:59 12.3 C 68 % 6.57 C
2525 10-04-2009 02:29:59 12.4 C 68 % 6.67 C
Sensor: Nr:Datum:Temp:Feuchte:Taupunkt:
Aussen-T/F 2526 10-04-2009 02:41:59 12.5 C 67 % 6.55 C
2527 10-04-2009 02:53:59 12.5 C 67 % 6.55 C
2528 10-04-2009 03:06:00 12.4 C 67 % 6.45 C
2529 10-04-2009 03:18:00 12.4 C 67 % 6.45 C
2530 10-04-2009 03:30:00 12.4 C 68 % 6.67 C
2531 10-04-2009 03:42:00 12.4 C 68 % 6.67 C
2532 10-04-2009 03:54:00 12.2 C 68 % 6.48 C
2533 10-04-2009 04:06:00 12.2 C 68 % 6.48 C
2534 10-04-2009 04:18:00 12.1 C 69 % 6.59 C
2535 10-04-2009 04:30:00 12.1 C 69 % 6.59 C
2536 10-04-2009 04:42:00 12.1 C 69 % 6.59 C
2537 10-04-2009 04:54:00 12.1 C 69 % 6.59 C
2538 10-04-2009 05:06:00 12 C 69 % 6.5 C
2539 10-04-2009 05:18:00 11.9 C 70 % 6.61 C
2540 10-04-2009 05:30:00 11.9 C 71 % 6.82 C
2541 10-04-2009 05:42:00 11.7 C 72 % 6.83 C
2542 10-04-2009 05:54:00 11.8 C 72 % 6.92 C
2543 10-04-2009 06:06:00 11.6 C 73 % 6.93 C
2544 10-04-2009 06:18:00 11.5 C 74 % 7.03 C
2545 10-04-2009 06:30:00 11.4 C 74 % 6.94 C
2546 10-04-2009 06:42:00 11.3 C 74 % 6.84 C
2547 10-04-2009 06:54:00 11.3 C 75 % 7.04 C
2548 10-04-2009 07:06:00 11.1 C 75 % 6.84 C
2549 10-04-2009 07:18:01 11.1 C 76 % 7.04 C
2550 10-04-2009 07:30:01 11.1 C 76 % 7.04 C
Sensor: Nr:Datum:Temp:Feuchte:Taupunkt:
Aussen-T/F 2551 10-04-2009 07:30:58 11.3 C 76 % 7.23 C
2552 10-04-2009 07:42:58 11.4 C 75 % 7.13 C
2553 10-04-2009 07:54:58 11.5 C 75 % 7.23 C
2554 10-04-2009 08:06:58 11.7 C 75 % 7.42 C
2555 10-04-2009 08:18:58 12 C 74 % 7.52 C
2556 10-04-2009 08:30:58 12.3 C 73 % 7.61 C
2557 10-04-2009 08:42:58 12.9 C 72 % 7.98 C
2558 10-04-2009 08:54:58 13.2 C 68 % 7.43 C
2559 10-04-2009 09:06:58 13.6 C 67 % 7.6 C
2560 10-04-2009 09:18:57 13.8 C 66 % 7.57 C
2561 10-04-2009 09:30:57 13.9 C 65 % 7.44 C
2562 10-04-2009 09:42:57 14.3 C 64 % 7.59 C
2563 10-04-2009 09:54:57 14.9 C 61 % 7.45 C
2564 10-04-2009 10:06:57 15.5 C 59 % 7.53 C
2565 10-04-2009 10:18:56 16.2 C 56 % 7.42 C
2566 10-04-2009 10:30:57 16.8 C 54 % 7.45 C
2567 10-04-2009 10:42:57 17.4 C 50 % 6.88 C
2568 10-04-2009 10:54:56 17.8 C 50 % 7.25 C
2569 10-04-2009 11:06:57 18.5 C 45 % 6.36 C
2570 10-04-2009 11:18:56 19.2 C 41 % 5.64 C
2571 10-04-2009 11:30:56 19.7 C 40 % 5.73 C
2572 10-04-2009 11:42:56 20 C 38 % 5.26 C
2573 10-04-2009 11:54:56 20.4 C 38 % 5.62 C
2574 10-04-2009 12:06:56 21 C 35 % 4.97 C
2575 10-04-2009 12:18:56 21.7 C 36 % 5.99 C
Sensor: Nr:Datum:Temp:Feuchte:Taupunkt:
Aussen-T/F 2576 10-04-2009 12:30:55 22.1 C 32 % 4.65 C
2577 10-04-2009 12:42:55 22.6 C 32 % 5.08 C
2578 10-04-2009 12:54:56 23 C 31 % 4.98 C
2579 10-04-2009 13:06:55 23.2 C 30 % 4.68 C
2580 10-04-2009 13:18:55 23.4 C 28 % 3.87 C
2581 10-04-2009 13:30:55 24.1 C 27 % 3.95 C
2582 10-04-2009 13:42:55 24.7 C 25 % 3.37 C
2583 10-04-2009 13:54:55 24.9 C 23 % 2.36 C
2584 10-04-2009 14:06:54 25.5 C 23 % 2.86 C
2585 10-04-2009 14:18:55 25 C 21 % 1.18 C
2586 10-04-2009 14:30:55 25.9 C 20 % 1.24 C
2587 10-04-2009 14:42:55 26.5 C 20 % 1.74 C
2588 10-04-2009 14:54:54 26.7 C 20 % 1.9 C
2589 10-04-2009 15:06:54 27.4 C 20 % 2.47 C
2590 10-04-2009 15:18:54 27.5 C 20 % 2.56 C
2591 10-04-2009 15:30:54 27.9 C 20 % 2.88 C
2592 10-04-2009 15:42:54 28.4 C 20 % 3.29 C
2593 10-04-2009 15:54:53 28.5 C 20 % 3.38 C
2594 10-04-2009 16:06:54 28.9 C 20 % 3.7 C
2595 10-04-2009 16:18:53 28.8 C 20 % 3.62 C
2596 10-04-2009 16:30:53 28.3 C 20 % 3.21 C
2597 10-04-2009 16:42:53 28.1 C 20 % 3.05 C
2598 10-04-2009 16:54:53 27.9 C 20 % 2.88 C
2599 10-04-2009 17:06:53 28.9 C 20 % 3.7 C
2600 10-04-2009 17:18:53 29.3 C 20 % 4.03 C
Sensor: Nr:Datum:Temp:Feuchte:Taupunkt:
Aussen-T/F 2601 10-04-2009 17:30:52 29.6 C 20 % 4.28 C
2602 10-04-2009 17:42:52 29.9 C 20 % 4.52 C
2603 10-04-2009 17:54:53 28.9 C 20 % 3.7 C
2604 10-04-2009 18:06:52 28.5 C 20 % 3.38 C
2605 10-04-2009 18:18:52 28.1 C 20 % 3.05 C
2606 10-04-2009 18:30:52 26.3 C 20 % 1.57 C
2607 10-04-2009 18:42:52 26.9 C 20 % 2.06 C
2608 10-04-2009 18:54:52 27.2 C 20 % 2.31 C
2609 10-04-2009 19:06:52 27 C 20 % 2.15 C
2610 10-04-2009 19:18:52 27.1 C 20 % 2.23 C
2611 10-04-2009 19:30:52 26.7 C 20 % 1.9 C
2612 10-04-2009 19:42:52 25.6 C 21 % 1.67 C
2613 10-04-2009 19:54:51 24.1 C 24 % 2.29 C
2614 10-04-2009 20:06:52 22.8 C 26 % 2.31 C
2615 10-04-2009 20:18:51 22 C 28 % 2.67 C
2616 10-04-2009 20:30:51 21.2 C 30 % 2.95 C
2617 10-04-2009 20:42:51 20.8 C 32 % 3.52 C
2618 10-04-2009 20:54:50 20.4 C 34 % 4.03 C
2619 10-04-2009 21:06:50 19.8 C 36 % 4.31 C
2620 10-04-2009 21:18:51 19.7 C 37 % 4.62 C
2621 10-04-2009 21:30:51 19.5 C 38 % 4.82 C
2622 10-04-2009 21:42:51 19.2 C 38 % 4.55 C
2623 10-04-2009 21:54:50 18.7 C 40 % 4.84 C
2624 10-04-2009 22:06:51 18.5 C 40 % 4.66 C
2625 10-04-2009 22:18:50 18.3 C 41 % 4.83 C
Sensor: Nr:Datum:Temp:Feuchte:Taupunkt:
Aussen-T/F 2626 10-04-2009 22:31:51 18 C 41 % 4.57 C
2627 10-04-2009 22:43:51 17.7 C 43 % 4.98 C
2628 10-04-2009 22:55:51 17.4 C 44 % 5.03 C
2629 10-04-2009 23:07:51 17.1 C 44 % 4.76 C
2630 10-04-2009 23:19:51 16.8 C 46 % 5.13 C
2631 10-04-2009 23:31:51 16.7 C 47 % 5.34 C
2632 10-04-2009 23:43:51 16.3 C 46 % 4.67 C
2633 10-04-2009 23:55:51 16 C 48 % 5.01 C
2634 11-04-2009 00:07:51 15.7 C 50 % 5.32 C
2635 11-04-2009 00:19:51 15.3 C 51 % 5.23 C
2636 11-04-2009 00:31:51 15.2 C 51 % 5.14 C
2637 11-04-2009 00:43:51 15 C 52 % 5.24 C
2638 11-04-2009 00:55:51 14.7 C 55 % 5.76 C
2639 11-04-2009 01:07:51 14.5 C 55 % 5.58 C
2640 11-04-2009 01:19:51 14 C 57 % 5.63 C
2641 11-04-2009 01:31:51 13.8 C 59 % 5.94 C
2642 11-04-2009 01:43:51 13.6 C 60 % 5.99 C
2643 11-04-2009 01:55:51 13.5 C 60 % 5.9 C
2644 11-04-2009 02:07:51 13.4 C 59 % 5.56 C
2645 11-04-2009 02:19:52 13.2 C 59 % 5.37 C
2646 11-04-2009 02:31:52 13 C 61 % 5.66 C
2647 11-04-2009 02:43:52 13 C 62 % 5.9 C
2648 11-04-2009 02:55:52 12.5 C 64 % 5.88 C
2649 11-04-2009 03:07:52 12.4 C 64 % 5.79 C
2650 11-04-2009 03:19:52 12.3 C 64 % 5.69 C
Sensor: Nr:Datum:Temp:Feuchte:Taupunkt:
Aussen-T/F 2651 11-04-2009 03:31:52 12 C 65 % 5.63 C
2652 11-04-2009 03:43:52 11.7 C 68 % 6 C
2653 11-04-2009 03:55:52 11.4 C 69 % 5.92 C
2654 11-04-2009 04:07:52 11.3 C 69 % 5.83 C
2655 11-04-2009 04:19:52 11.1 C 70 % 5.84 C
2656 11-04-2009 04:31:52 11.2 C 70 % 5.94 C
2657 11-04-2009 04:43:52 11.4 C 69 % 5.92 C
2658 11-04-2009 04:55:52 11.3 C 69 % 5.83 C
2659 11-04-2009 05:07:52 11.2 C 70 % 5.94 C
2660 11-04-2009 05:19:52 11.4 C 70 % 6.13 C
2661 11-04-2009 05:31:52 11.4 C 69 % 5.92 C
2662 11-04-2009 05:43:52 11.4 C 69 % 5.92 C
2663 11-04-2009 05:55:52 11.2 C 70 % 5.94 C
2664 11-04-2009 06:07:52 11 C 70 % 5.75 C
2665 11-04-2009 06:19:52 10.9 C 71 % 5.86 C
2666 11-04-2009 06:31:53 10.5 C 72 % 5.67 C
2667 11-04-2009 06:43:53 10.2 C 73 % 5.58 C
2668 11-04-2009 06:55:53 10.2 C 74 % 5.78 C
2669 11-04-2009 07:07:53 10.3 C 74 % 5.88 C
2670 11-04-2009 07:19:53 10.2 C 75 % 5.97 C
2671 11-04-2009 07:31:53 10.3 C 75 % 6.07 C
2672 11-04-2009 07:43:53 10.3 C 75 % 6.07 C
2673 11-04-2009 07:55:53 10.4 C 74 % 5.97 C
2674 11-04-2009 08:07:53 10.4 C 75 % 6.17 C
2675 11-04-2009 08:19:53 10.6 C 74 % 6.17 C
Sensor: Nr:Datum:Temp:Feuchte:Taupunkt:
Aussen-T/F 2676 11-04-2009 08:31:51 10.7 C 74 % 6.26 C
2677 11-04-2009 08:43:51 11.1 C 73 % 6.45 C
2678 11-04-2009 08:55:50 11.5 C 72 % 6.63 C
2679 11-04-2009 09:07:51 12.1 C 69 % 6.59 C
2680 11-04-2009 09:19:50 12.7 C 67 % 6.74 C
2681 11-04-2009 09:31:50 13.4 C 62 % 6.28 C
2682 11-04-2009 09:43:50 13.5 C 61 % 6.14 C
2683 11-04-2009 09:55:50 13.7 C 61 % 6.32 C
2684 11-04-2009 10:07:50 14.5 C 60 % 6.84 C
2685 11-04-2009 10:19:50 15.1 C 57 % 6.65 C
2686 11-04-2009 10:31:49 15.6 C 55 % 6.6 C
2687 11-04-2009 10:43:49 16.1 C 53 % 6.53 C
2688 11-04-2009 10:55:49 16.6 C 51 % 6.43 C
2689 11-04-2009 11:07:49 17.4 C 50 % 6.88 C
2690 11-04-2009 11:19:50 18.5 C 45 % 6.36 C
2691 11-04-2009 11:31:49 19.3 C 41 % 5.73 C
2692 11-04-2009 11:43:49 19.6 C 40 % 5.64 C
2693 11-04-2009 11:55:49 20 C 37 % 4.88 C
2694 11-04-2009 12:07:48 20.4 C 36 % 4.84 C
2695 11-04-2009 12:19:49 21.2 C 34 % 4.73 C
2696 11-04-2009 12:31:48 21.7 C 33 % 4.74 C
2697 11-04-2009 12:43:48 22.1 C 31 % 4.2 C
2698 11-04-2009 12:55:48 22.6 C 30 % 4.16 C
2699 11-04-2009 13:07:48 23.3 C 28 % 3.78 C
2700 11-04-2009 13:19:48 23.4 C 29 % 4.37 C
Sensor: Nr:Datum:Temp:Feuchte:Taupunkt:
Aussen-T/F 2701 11-04-2009 13:31:48 23.6 C 27 % 3.53 C
2702 11-04-2009 13:43:48 24.2 C 27 % 4.04 C
2703 11-04-2009 13:55:48 24.6 C 25 % 3.29 C
2704 11-04-2009 14:07:48 25.5 C 25 % 4.04 C
2705 11-04-2009 14:19:47 25.6 C 24 % 3.55 C
2706 11-04-2009 14:31:48 24.9 C 25 % 3.54 C
2707 11-04-2009 14:43:48 25.1 C 25 % 3.71 C
2708 11-04-2009 14:55:47 25.5 C 25 % 4.04 C
2709 11-04-2009 15:07:47 27.2 C 22 % 3.65 C
2710 11-04-2009 15:19:47 27 C 21 % 2.83 C
2711 11-04-2009 15:31:47 26.9 C 22 % 3.4 C
2712 11-04-2009 15:43:47 26.1 C 22 % 2.74 C
2713 11-04-2009 15:55:46 25.3 C 23 % 2.7 C
2714 11-04-2009 16:07:47 25.2 C 24 % 3.21 C
2715 11-04-2009 16:19:47 25.2 C 26 % 4.35 C
2716 11-04-2009 16:31:46 25.9 C 21 % 1.92 C
2717 11-04-2009 16:43:46 26.5 C 20 % 1.74 C
2718 11-04-2009 16:55:46 26 C 20 % 1.32 C
2719 11-04-2009 17:07:46 23.4 C 26 % 2.82 C
2720 11-04-2009 17:19:46 21.3 C 49 % 10.16 C
2721 11-04-2009 17:31:45 22.4 C 41 % 8.51 C
2722 11-04-2009 17:43:45 24.1 C 34 % 7.27 C
2723 11-04-2009 17:55:46 25.3 C 26 % 4.43 C
2724 11-04-2009 18:07:45 25.2 C 26 % 4.35 C
2725 11-04-2009 18:19:45 23.5 C 30 % 4.94 C
Sensor: Nr:Datum:Temp:Feuchte:Taupunkt:
Aussen-T/F 2726 11-04-2009 18:31:45 22.9 C 31 % 4.89 C
2727 11-04-2009 18:43:45 22.3 C 32 % 4.82 C
2728 11-04-2009 18:55:45 22 C 33 % 5 C
2729 11-04-2009 19:07:45 22.1 C 33 % 5.09 C
2730 11-04-2009 19:19:44 21.6 C 35 % 5.5 C
2731 11-04-2009 19:31:45 21.3 C 35 % 5.23 C
2732 11-04-2009 19:43:45 20.9 C 36 % 5.28 C
2733 11-04-2009 19:55:44 20.5 C 37 % 5.32 C
2734 11-04-2009 20:07:44 19.9 C 40 % 5.91 C
2735 11-04-2009 20:19:44 19.6 C 40 % 5.64 C
2736 11-04-2009 20:31:44 18.9 C 43 % 6.06 C
2737 11-04-2009 20:43:44 18.8 C 42 % 5.63 C
2738 11-04-2009 20:55:43 18.5 C 44 % 6.03 C
2739 11-04-2009 21:07:43 18.3 C 44 % 5.85 C
2740 11-04-2009 21:19:43 18.4 C 44 % 5.94 C
2741 11-04-2009 21:31:44 18.3 C 44 % 5.85 C
2742 11-04-2009 21:43:44 17.9 C 47 % 6.44 C
2743 11-04-2009 21:55:43 17.6 C 48 % 6.47 C
2744 11-04-2009 22:07:43 17.4 C 49 % 6.59 C
2745 11-04-2009 22:19:43 17.1 C 50 % 6.6 C
2746 11-04-2009 22:31:43 16.8 C 52 % 6.9 C
2747 11-04-2009 22:43:43 16.5 C 53 % 6.9 C
2748 11-04-2009 22:55:42 16.3 C 54 % 6.98 C
2749 11-04-2009 23:07:43 16.1 C 55 % 7.07 C
2750 11-04-2009 23:19:42 15.9 C 56 % 7.14 C
Sensor: Nr:Datum:Temp:Feuchte:Taupunkt:
Aussen-T/F 2751 11-04-2009 23:32:43 15.8 C 56 % 7.05 C
2752 11-04-2009 23:44:43 15.4 C 58 % 7.19 C
2753 11-04-2009 23:56:43 15.2 C 59 % 7.25 C
2754 12-04-2009 00:08:43 14.8 C 61 % 7.36 C
2755 12-04-2009 00:20:44 14.5 C 62 % 7.32 C
2756 12-04-2009 00:32:44 14.4 C 63 % 7.45 C
2757 12-04-2009 00:44:44 14.2 C 63 % 7.27 C
2758 12-04-2009 00:56:44 14 C 64 % 7.31 C
2759 12-04-2009 01:08:44 13.8 C 66 % 7.57 C
2760 12-04-2009 01:20:44 13.7 C 67 % 7.69 C
2761 12-04-2009 01:32:44 13.4 C 68 % 7.62 C
2762 12-04-2009 01:44:44 13.3 C 68 % 7.53 C
2763 12-04-2009 01:56:44 13.2 C 68 % 7.43 C
2764 12-04-2009 02:08:44 13.2 C 68 % 7.43 C
2765 12-04-2009 02:20:44 13 C 69 % 7.45 C
2766 12-04-2009 02:32:44 12.9 C 70 % 7.57 C
2767 12-04-2009 02:44:44 12.7 C 71 % 7.58 C
2768 12-04-2009 02:56:44 12.5 C 72 % 7.6 C
2769 12-04-2009 03:08:44 12.3 C 72 % 7.4 C
2770 12-04-2009 03:20:44 12.1 C 73 % 7.41 C
2771 12-04-2009 03:32:44 11.9 C 75 % 7.62 C
2772 12-04-2009 03:44:44 11.7 C 75 % 7.42 C
2773 12-04-2009 03:56:44 11.6 C 75 % 7.33 C
2774 12-04-2009 04:08:45 11.4 C 75 % 7.13 C
2775 12-04-2009 04:20:45 11.2 C 76 % 7.13 C
Sensor: Nr:Datum:Temp:Feuchte:Taupunkt:
Aussen-T/F 2776 12-04-2009 04:32:45 11.1 C 77 % 7.23 C
2777 12-04-2009 04:44:45 11 C 76 % 6.94 C
2778 12-04-2009 04:56:45 10.8 C 78 % 7.12 C
2779 12-04-2009 05:08:45 10.7 C 78 % 7.03 C
2780 12-04-2009 05:20:45 10.6 C 79 % 7.11 C
2781 12-04-2009 05:32:45 10.4 C 79 % 6.92 C
2782 12-04-2009 05:44:45 10.2 C 80 % 6.91 C
2783 12-04-2009 05:56:45 10.2 C 80 % 6.91 C
2784 12-04-2009 06:08:45 10 C 80 % 6.71 C
2785 12-04-2009 06:20:45 9.9 C 82 % 6.98 C
2786 12-04-2009 06:32:45 9.7 C 82 % 6.78 C
2787 12-04-2009 06:44:45 9.6 C 82 % 6.68 C
2788 12-04-2009 06:56:45 9.6 C 81 % 6.5 C
2789 12-04-2009 07:08:45 9.7 C 82 % 6.78 C
2790 12-04-2009 07:20:45 10 C 80 % 6.71 C
2791 12-04-2009 07:32:45 10.2 C 80 % 6.91 C
2792 12-04-2009 07:44:45 10.5 C 79 % 7.02 C
2793 12-04-2009 07:56:46 10.8 C 79 % 7.31 C
2794 12-04-2009 08:08:46 11.1 C 77 % 7.23 C
2795 12-04-2009 08:20:46 11.1 C 76 % 7.04 C
2796 12-04-2009 08:32:42 11.2 C 75 % 6.94 C
2797 12-04-2009 08:44:43 11.5 C 74 % 7.03 C
2798 12-04-2009 08:56:43 11.9 C 73 % 7.22 C
2799 12-04-2009 09:08:42 12.2 C 72 % 7.31 C
2800 12-04-2009 09:20:42 12.6 C 70 % 7.28 C
Sensor: Nr:Datum:Temp:Feuchte:Taupunkt:
Aussen-T/F 2801 12-04-2009 09:32:42 13 C 69 % 7.45 C
2802 12-04-2009 09:44:42 13.8 C 68 % 8 C
2803 12-04-2009 09:56:42 14.3 C 64 % 7.59 C
2804 12-04-2009 10:08:41 14.8 C 63 % 7.83 C
2805 12-04-2009 10:20:42 15.6 C 61 % 8.11 C
2806 12-04-2009 10:32:42 16.3 C 59 % 8.28 C
2807 12-04-2009 10:44:41 16.8 C 58 % 8.5 C
2808 12-04-2009 10:56:41 17.3 C 55 % 8.18 C
2809 12-04-2009 11:08:42 17.8 C 55 % 8.65 C
2810 12-04-2009 11:20:41 18.2 C 53 % 8.47 C
2811 12-04-2009 11:32:41 18.5 C 52 % 8.47 C
2812 12-04-2009 11:44:41 18.9 C 50 % 8.26 C
2813 12-04-2009 11:56:41 19.5 C 49 % 8.51 C
2814 12-04-2009 12:08:41 20.2 C 46 % 8.22 C
2815 12-04-2009 12:20:40 20.5 C 44 % 7.84 C
2816 12-04-2009 12:32:40 20.8 C 45 % 8.44 C
2817 12-04-2009 12:44:40 21.2 C 42 % 7.79 C
2818 12-04-2009 12:56:40 20.9 C 43 % 7.86 C
2819 12-04-2009 13:08:40 22.5 C 40 % 8.24 C
2820 12-04-2009 13:20:40 23 C 37 % 7.54 C
2821 12-04-2009 13:32:40 22.9 C 38 % 7.84 C
2822 12-04-2009 13:44:39 22.7 C 38 % 7.66 C
2823 12-04-2009 13:56:39 22.1 C 40 % 7.88 C
2824 12-04-2009 14:08:40 21.9 C 42 % 8.42 C
2825 12-04-2009 14:20:40 21.9 C 41 % 8.06 C
Sensor: Nr:Datum:Temp:Feuchte:Taupunkt:
Aussen-T/F 2826 12-04-2009 14:32:39 23 C 38 % 7.93 C
2827 12-04-2009 14:44:40 23.6 C 37 % 8.07 C
2828 12-04-2009 14:56:40 23.6 C 37 % 8.07 C
2829 12-04-2009 15:08:39 24.2 C 35 % 7.78 C
2830 12-04-2009 15:20:39 25.1 C 32 % 7.26 C
2831 12-04-2009 15:32:38 25.6 C 32 % 7.69 C
2832 12-04-2009 15:44:39 24.5 C 32 % 6.74 C
2833 12-04-2009 15:56:39 24 C 34 % 7.18 C
2834 12-04-2009 16:08:38 24.1 C 34 % 7.27 C
2835 12-04-2009 16:20:38 23.8 C 38 % 8.64 C
2836 12-04-2009 16:32:39 23.1 C 37 % 7.63 C
2837 12-04-2009 16:44:38 22.7 C 39 % 8.04 C
2838 12-04-2009 16:56:38 23.3 C 38 % 8.19 C
2839 12-04-2009 17:08:38 23.3 C 37 % 7.8 C
2840 12-04-2009 17:20:37 23.7 C 36 % 7.75 C
2841 12-04-2009 17:32:38 24 C 35 % 7.61 C
2842 12-04-2009 17:44:37 23.7 C 36 % 7.75 C
2843 12-04-2009 17:56:37 23.9 C 36 % 7.93 C
2844 12-04-2009 18:08:37 24 C 35 % 7.61 C
2845 12-04-2009 18:20:37 23.3 C 38 % 8.19 C
2846 12-04-2009 18:32:37 22.7 C 41 % 8.78 C
2847 12-04-2009 18:44:36 22.4 C 42 % 8.87 C
2848 12-04-2009 18:56:36 22 C 43 % 8.85 C
2849 12-04-2009 19:08:37 21.4 C 44 % 8.65 C
2850 12-04-2009 19:20:37 21 C 45 % 8.62 C
Sensor: Nr:Datum:Temp:Feuchte:Taupunkt:
Aussen-T/F 2851 12-04-2009 19:32:36 20.6 C 47 % 8.9 C
2852 12-04-2009 19:44:37 20.1 C 49 % 9.06 C
2853 12-04-2009 19:56:37 19.5 C 51 % 9.1 C
2854 12-04-2009 20:08:36 19.3 C 52 % 9.21 C
2855 12-04-2009 20:20:36 18.9 C 54 % 9.4 C
2856 12-04-2009 20:32:35 18.5 C 55 % 9.3 C
2857 12-04-2009 20:44:36 18.1 C 56 % 9.19 C
2858 12-04-2009 20:56:37 17.8 C 57 % 9.18 C
2859 12-04-2009 21:08:35 17.6 C 58 % 9.25 C
2860 12-04-2009 21:20:36 17.5 C 59 % 9.41 C
2861 12-04-2009 21:32:35 17.3 C 60 % 9.47 C
2862 12-04-2009 21:44:35 17.1 C 60 % 9.28 C
2863 12-04-2009 21:56:35 17 C 61 % 9.43 C
2864 12-04-2009 22:08:35 16.8 C 63 % 9.72 C
2865 12-04-2009 22:20:35 16.7 C 64 % 9.86 C
2866 12-04-2009 22:32:34 16.5 C 65 % 9.9 C
2867 12-04-2009 22:45:35 16.4 C 66 % 10.04 C
2868 12-04-2009 22:57:36 16.2 C 67 % 10.07 C
2869 12-04-2009 23:09:36 16.1 C 68 % 10.2 C
2870 12-04-2009 23:21:36 16 C 68 % 10.1 C
2871 12-04-2009 23:33:36 15.8 C 70 % 10.34 C
2872 12-04-2009 23:45:36 15.6 C 70 % 10.15 C
2873 12-04-2009 23:57:36 15.6 C 71 % 10.37 C
2874 13-04-2009 00:09:36 15.4 C 71 % 10.17 C
2875 13-04-2009 00:21:36 15.3 C 71 % 10.08 C
Sensor: Nr:Datum:Temp:Feuchte:Taupunkt:
Aussen-T/F 2876 13-04-2009 00:33:36 15 C 72 % 10 C
2877 13-04-2009 00:45:36 14.9 C 74 % 10.31 C
2878 13-04-2009 00:57:36 14.7 C 74 % 10.12 C
2879 13-04-2009 01:09:36 14.7 C 75 % 10.32 C
2880 13-04-2009 01:21:36 14.4 C 75 % 10.03 C
2881 13-04-2009 01:33:36 14.2 C 75 % 9.84 C
2882 13-04-2009 01:45:36 14 C 76 % 9.84 C
2883 13-04-2009 01:57:36 13.8 C 77 % 9.84 C
2884 13-04-2009 02:09:36 13.7 C 78 % 9.94 C
2885 13-04-2009 02:21:36 13.5 C 78 % 9.74 C
2886 13-04-2009 02:33:36 13.4 C 78 % 9.65 C
2887 13-04-2009 02:45:37 13.2 C 79 % 9.64 C
2888 13-04-2009 02:57:37 13.2 C 79 % 9.64 C
2889 13-04-2009 03:09:37 13.1 C 80 % 9.73 C
2890 13-04-2009 03:21:37 12.9 C 80 % 9.54 C
2891 13-04-2009 03:33:37 12.8 C 81 % 9.62 C
2892 13-04-2009 03:45:37 12.7 C 81 % 9.53 C
2893 13-04-2009 03:57:37 12.7 C 82 % 9.71 C
2894 13-04-2009 04:09:37 12.6 C 82 % 9.61 C
2895 13-04-2009 04:21:37 12.5 C 81 % 9.33 C
2896 13-04-2009 04:33:37 12.2 C 81 % 9.04 C
2897 13-04-2009 04:45:37 12 C 82 % 9.03 C
2898 13-04-2009 04:57:37 12.1 C 82 % 9.12 C
2899 13-04-2009 05:09:37 12.3 C 83 % 9.5 C
2900 13-04-2009 05:21:37 12.4 C 82 % 9.42 C
Sensor: Nr:Datum:Temp:Feuchte:Taupunkt:
Aussen-T/F 2901 13-04-2009 05:33:37 12.4 C 81 % 9.23 C
2902 13-04-2009 05:45:37 12.5 C 81 % 9.33 C
2903 13-04-2009 05:57:37 12.5 C 81 % 9.33 C
2904 13-04-2009 06:09:37 12.5 C 81 % 9.33 C
2905 13-04-2009 06:21:37 12.7 C 81 % 9.53 C
2906 13-04-2009 06:33:38 12.7 C 80 % 9.34 C
2907 13-04-2009 06:45:38 12.8 C 81 % 9.62 C
2908 13-04-2009 06:57:38 13 C 81 % 9.82 C
2909 13-04-2009 07:09:38 13.1 C 81 % 9.92 C
2910 13-04-2009 07:21:38 13.4 C 81 % 10.21 C
2911 13-04-2009 07:33:38 13.6 C 81 % 10.4 C
2912 13-04-2009 07:45:38 13.7 C 81 % 10.5 C
2913 13-04-2009 07:57:38 13.9 C 81 % 10.7 C
2914 13-04-2009 08:09:35 13.9 C 81 % 10.7 C
2915 13-04-2009 08:21:35 13.8 C 81 % 10.6 C
2916 13-04-2009 08:33:35 13.7 C 82 % 10.69 C
2917 13-04-2009 08:45:35 13.3 C 83 % 10.48 C
2918 13-04-2009 08:57:35 13.5 C 84 % 10.85 C
2919 13-04-2009 09:09:34 13.6 C 84 % 10.95 C
2920 13-04-2009 09:21:35 13.7 C 84 % 11.05 C
2921 13-04-2009 09:33:34 13.8 C 83 % 10.97 C
2922 13-04-2009 09:45:34 14.1 C 82 % 11.08 C
2923 13-04-2009 09:57:34 14.3 C 81 % 11.09 C
2924 13-04-2009 10:09:33 14.3 C 79 % 10.71 C
2925 13-04-2009 10:21:34 14.4 C 79 % 10.81 C
Sensor: Nr:Datum:Temp:Feuchte:Taupunkt:
Aussen-T/F 2926 13-04-2009 10:33:33 14.4 C 78 % 10.62 C
2927 13-04-2009 10:45:34 14.2 C 79 % 10.61 C
2928 13-04-2009 10:57:34 14.3 C 79 % 10.71 C
2929 13-04-2009 11:09:33 14.6 C 78 % 10.81 C
2930 13-04-2009 11:21:33 14.4 C 78 % 10.62 C
2931 13-04-2009 11:33:33 14.5 C 78 % 10.71 C
2932 13-04-2009 11:45:33 14.5 C 77 % 10.52 C
2933 13-04-2009 11:57:33 15.1 C 75 % 10.71 C
2934 13-04-2009 12:09:33 15.3 C 73 % 10.49 C
2935 13-04-2009 12:21:32 15.6 C 72 % 10.57 C
2936 13-04-2009 12:33:33 15.8 C 69 % 10.13 C
2937 13-04-2009 12:45:32 15.9 C 68 % 10.01 C
2938 13-04-2009 12:57:32 16.7 C 63 % 9.63 C
2939 13-04-2009 13:09:32 16.2 C 64 % 9.39 C
2940 13-04-2009 13:21:32 16.4 C 63 % 9.35 C
2941 13-04-2009 13:33:32 17.5 C 59 % 9.41 C
2942 13-04-2009 13:45:31 18 C 56 % 9.1 C
2943 13-04-2009 13:57:31 17.6 C 59 % 9.5 C
2944 13-04-2009 14:09:32 18.3 C 55 % 9.11 C
2945 13-04-2009 14:21:31 18.1 C 55 % 8.93 C
2946 13-04-2009 14:33:31 18.3 C 55 % 9.11 C
2947 13-04-2009 14:45:31 19.2 C 51 % 8.83 C
2948 13-04-2009 14:57:31 19.9 C 50 % 9.18 C
2949 13-04-2009 15:09:31 19.8 C 50 % 9.09 C
2950 13-04-2009 15:21:31 20 C 50 % 9.27 C
Sensor: Nr:Datum:Temp:Feuchte:Taupunkt:
Aussen-T/F 2951 13-04-2009 15:33:31 20.3 C 50 % 9.54 C
2952 13-04-2009 15:45:30 19.9 C 50 % 9.18 C
2953 13-04-2009 15:57:30 19.7 C 51 % 9.29 C
2954 13-04-2009 16:09:31 20.3 C 49 % 9.24 C
2955 13-04-2009 16:21:30 20.5 C 48 % 9.12 C
2956 13-04-2009 16:33:30 20.3 C 48 % 8.94 C
2957 13-04-2009 16:45:29 20.8 C 48 % 9.4 C
2958 13-04-2009 16:57:29 21.2 C 45 % 8.8 C
2959 13-04-2009 17:09:30 21.1 C 46 % 9.04 C
2960 13-04-2009 17:21:30 21 C 45 % 8.62 C
2961 13-04-2009 17:33:29 20.5 C 47 % 8.81 C
2962 13-04-2009 17:45:30 20.8 C 47 % 9.08 C
2963 13-04-2009 17:57:30 21.1 C 45 % 8.71 C
2964 13-04-2009 18:09:29 20.3 C 48 % 8.94 C
2965 13-04-2009 18:21:29 20 C 48 % 8.67 C
2966 13-04-2009 18:33:29 19.2 C 51 % 8.83 C
2967 13-04-2009 18:45:29 19.4 C 52 % 9.3 C
2968 13-04-2009 18:57:30 19.3 C 51 % 8.92 C
2969 13-04-2009 19:09:28 19.1 C 50 % 8.44 C
2970 13-04-2009 19:21:29 18.9 C 52 % 8.84 C
2971 13-04-2009 19:33:29 18.6 C 53 % 8.84 C
2972 13-04-2009 19:45:28 18.3 C 54 % 8.84 C
2973 13-04-2009 19:57:28 18 C 56 % 9.1 C
2974 13-04-2009 20:09:28 17.9 C 58 % 9.53 C
2975 13-04-2009 20:21:28 17.5 C 60 % 9.66 C
Sensor: Nr:Datum:Temp:Feuchte:Taupunkt:
Aussen-T/F 2976 13-04-2009 20:33:28 17.1 C 60 % 9.28 C
2977 13-04-2009 20:45:27 16.7 C 63 % 9.63 C
2978 13-04-2009 20:57:27 16.7 C 63 % 9.63 C
2979 13-04-2009 21:09:27 16.4 C 64 % 9.58 C
2980 13-04-2009 21:21:28 16.1 C 65 % 9.53 C
2981 13-04-2009 21:33:27 15.7 C 67 % 9.6 C
2982 13-04-2009 21:45:27 15.4 C 68 % 9.53 C
2983 13-04-2009 21:57:27 14.9 C 70 % 9.48 C
2984 13-04-2009 22:09:27 14.6 C 72 % 9.61 C
2985 13-04-2009 22:21:27 14.5 C 72 % 9.52 C
2986 13-04-2009 22:33:27 14.4 C 73 % 9.63 C
2987 13-04-2009 22:46:40 14.2 C 73 % 9.43 C
2988 13-04-2009 22:58:40 14.1 C 74 % 9.54 C
2989 13-04-2009 23:10:40 14.2 C 74 % 9.64 C
2990 13-04-2009 23:22:41 14.1 C 74 % 9.54 C
2991 13-04-2009 23:34:41 14 C 75 % 9.64 C
2992 13-04-2009 23:46:41 13.9 C 76 % 9.74 C
2993 13-04-2009 23:58:41 13.7 C 76 % 9.55 C
2994 14-04-2009 00:10:41 13.7 C 76 % 9.55 C
2995 14-04-2009 00:22:41 13.5 C 76 % 9.36 C
2996 14-04-2009 00:34:41 13.3 C 75 % 8.97 C
2997 14-04-2009 00:46:41 13.2 C 76 % 9.07 C
2998 14-04-2009 00:58:41 13.1 C 76 % 8.97 C
2999 14-04-2009 01:10:41 12.8 C 78 % 9.06 C
3000 14-04-2009 01:22:41 12.5 C 79 % 8.96 C
Sensor: Nr:Datum:Temp:Feuchte:Taupunkt:
Aussen-T/F 3001 14-04-2009 01:34:41 12.3 C 79 % 8.77 C
3002 14-04-2009 01:46:41 12.1 C 80 % 8.76 C
3003 14-04-2009 01:58:41 11.9 C 81 % 8.75 C
3004 14-04-2009 02:10:41 11.8 C 82 % 8.83 C
3005 14-04-2009 02:22:41 11.6 C 82 % 8.64 C
3006 14-04-2009 02:34:41 11.4 C 82 % 8.44 C
3007 14-04-2009 02:46:41 11.3 C 83 % 8.52 C
3008 14-04-2009 02:58:41 11.1 C 83 % 8.33 C
3009 14-04-2009 03:10:42 11 C 83 % 8.23 C
3010 14-04-2009 03:22:42 10.8 C 84 % 8.21 C
3011 14-04-2009 03:34:42 10.7 C 84 % 8.11 C
3012 14-04-2009 03:46:42 10.7 C 84 % 8.11 C
3013 14-04-2009 03:58:42 10.5 C 84 % 7.91 C
3014 14-04-2009 04:10:42 10.4 C 84 % 7.82 C
3015 14-04-2009 04:22:42 10.3 C 84 % 7.72 C
3016 14-04-2009 04:34:42 10 C 85 % 7.6 C
3017 14-04-2009 04:46:42 9.8 C 86 % 7.57 C
3018 14-04-2009 04:58:42 9.7 C 86 % 7.47 C
3019 14-04-2009 05:10:42 9.7 C 87 % 7.64 C
3020 14-04-2009 05:22:42 9.7 C 87 % 7.64 C
3021 14-04-2009 05:34:42 9.7 C 87 % 7.64 C
3022 14-04-2009 05:46:42 9.8 C 88 % 7.91 C
3023 14-04-2009 05:58:42 9.8 C 87 % 7.74 C
3024 14-04-2009 06:10:42 9.8 C 87 % 7.74 C
3025 14-04-2009 06:22:42 9.7 C 87 % 7.64 C
Sensor: Nr:Datum:Temp:Feuchte:Taupunkt:
Aussen-T/F 3026 14-04-2009 06:34:42 9.8 C 87 % 7.74 C
3027 14-04-2009 06:46:42 9.6 C 87 % 7.55 C
3028 14-04-2009 06:58:42 9.6 C 87 % 7.55 C
3029 14-04-2009 07:10:43 9.7 C 87 % 7.64 C
3030 14-04-2009 07:22:43 9.9 C 87 % 7.84 C
3031 14-04-2009 07:34:28 9.7 C 86 % 7.47 C
3032 14-04-2009 07:46:28 9.3 C 86 % 7.08 C
3033 14-04-2009 07:58:28 9.3 C 87 % 7.25 C
3034 14-04-2009 08:10:28 9.4 C 88 % 7.52 C
3035 14-04-2009 08:22:28 9.7 C 88 % 7.81 C
3036 14-04-2009 08:34:27 10.1 C 86 % 7.87 C
3037 14-04-2009 08:46:27 9.9 C 86 % 7.67 C
3038 14-04-2009 08:58:27 10.1 C 84 % 7.52 C
3039 14-04-2009 09:10:27 10.1 C 84 % 7.52 C
3040 14-04-2009 09:22:27 10.1 C 84 % 7.52 C
3041 14-04-2009 09:34:27 10.2 C 84 % 7.62 C
3042 14-04-2009 09:46:27 10.6 C 84 % 8.01 C
3043 14-04-2009 09:58:27 11 C 82 % 8.05 C
3044 14-04-2009 10:10:27 11.4 C 81 % 8.26 C
3045 14-04-2009 10:22:26 12 C 80 % 8.66 C
3046 14-04-2009 10:34:26 12.4 C 77 % 8.49 C
3047 14-04-2009 10:46:27 12.8 C 77 % 8.87 C
3048 14-04-2009 10:58:27 13.3 C 77 % 9.36 C
3049 14-04-2009 11:10:26 13.7 C 75 % 9.35 C
3050 14-04-2009 11:22:26 13.8 C 74 % 9.25 C
Sensor: Nr:Datum:Temp:Feuchte:Taupunkt:
Aussen-T/F 3051 14-04-2009 11:34:25 14 C 72 % 9.04 C
3052 14-04-2009 11:46:26 14.3 C 71 % 9.12 C
3053 14-04-2009 11:58:27 14.8 C 70 % 9.39 C
3054 14-04-2009 12:10:25 15.8 C 66 % 9.47 C
3055 14-04-2009 12:22:25 16.6 C 60 % 8.81 C
3056 14-04-2009 12:34:26 16.1 C 63 % 9.06 C
3057 14-04-2009 12:46:25 16.3 C 63 % 9.25 C
3058 14-04-2009 12:58:25 16.7 C 62 % 9.39 C
3059 14-04-2009 13:10:25 17.7 C 57 % 9.08 C
3060 14-04-2009 13:22:25 18.8 C 51 % 8.46 C
3061 14-04-2009 13:34:25 19.6 C 47 % 7.99 C
3062 14-04-2009 13:46:24 20.4 C 45 % 8.08 C
3063 14-04-2009 13:58:24 21.2 C 42 % 7.79 C
3064 14-04-2009 14:10:25 22.2 C 39 % 7.6 C
3065 14-04-2009 14:22:24 23.1 C 36 % 7.23 C
3066 14-04-2009 14:34:24 23.7 C 37 % 8.16 C
3067 14-04-2009 14:46:24 24.5 C 34 % 7.62 C
3068 14-04-2009 14:58:24 24.9 C 33 % 7.53 C
3069 14-04-2009 15:10:24 25.6 C 32 % 7.69 C
3070 14-04-2009 15:22:24 25.6 C 30 % 6.75 C
3071 14-04-2009 15:34:23 25.8 C 29 % 6.43 C
3072 14-04-2009 15:46:24 26.4 C 26 % 5.37 C
3073 14-04-2009 15:58:24 27.2 C 26 % 6.04 C
3074 14-04-2009 16:10:23 26.7 C 23 % 3.87 C
3075 14-04-2009 16:22:23 27.3 C 21 % 3.08 C
Sensor: Nr:Datum:Temp:Feuchte:Taupunkt:
Aussen-T/F 3076 14-04-2009 16:34:23 27.3 C 21 % 3.08 C
3077 14-04-2009 16:46:23 27 C 21 % 2.83 C
3078 14-04-2009 16:58:24 28.4 C 21 % 3.99 C
3079 14-04-2009 17:10:22 28.4 C 20 % 3.29 C
3080 14-04-2009 17:22:22 27.9 C 20 % 2.88 C
3081 14-04-2009 17:34:23 27.4 C 20 % 2.47 C
3082 14-04-2009 17:46:22 26.6 C 20 % 1.82 C
3083 14-04-2009 17:58:22 26.5 C 21 % 2.42 C
3084 14-04-2009 18:10:22 27.3 C 20 % 2.39 C
3085 14-04-2009 18:22:22 26 C 20 % 1.32 C
3086 14-04-2009 18:34:22 25.1 C 23 % 2.53 C
3087 14-04-2009 18:46:21 24.8 C 23 % 2.28 C
3088 14-04-2009 18:58:21 24.2 C 25 % 2.95 C
3089 14-04-2009 19:10:22 24.7 C 26 % 3.93 C
3090 14-04-2009 19:22:21 22.8 C 27 % 2.84 C
3091 14-04-2009 19:34:21 22.5 C 29 % 3.6 C
3092 14-04-2009 19:46:21 22.1 C 30 % 3.73 C
3093 14-04-2009 19:58:21 21.4 C 33 % 4.48 C
3094 14-04-2009 20:10:21 20.5 C 36 % 4.93 C
3095 14-04-2009 20:22:21 19.3 C 38 % 4.64 C
3096 14-04-2009 20:34:20 18.5 C 39 % 4.3 C
3097 14-04-2009 20:46:21 17.9 C 40 % 4.12 C
3098 14-04-2009 20:58:21 17.7 C 41 % 4.3 C
3099 14-04-2009 21:10:21 17.4 C 44 % 5.03 C
3100 14-04-2009 21:22:20 17.3 C 45 % 5.27 C
Sensor: Nr:Datum:Temp:Feuchte:Taupunkt:
Aussen-T/F 3101 14-04-2009 21:34:20 17.2 C 46 % 5.49 C
3102 14-04-2009 21:46:20 16.9 C 45 % 4.9 C
3103 14-04-2009 21:58:20 16.6 C 45 % 4.63 C
3104 14-04-2009 22:10:20 16.3 C 45 % 4.36 C
3105 14-04-2009 22:22:19 15.9 C 47 % 4.61 C
3106 14-04-2009 22:34:19 15.7 C 48 % 4.73 C
3107 14-04-2009 22:46:20 15.4 C 48 % 4.46 C
3108 14-04-2009 22:58:20 15.1 C 50 % 4.77 C
3109 14-04-2009 23:10:19 14.6 C 54 % 5.41 C
3110 14-04-2009 23:22:19 14.3 C 54 % 5.13 C
3111 14-04-2009 23:34:19 14.2 C 55 % 5.3 C
3112 14-04-2009 23:46:19 13.9 C 56 % 5.28 C
3113 14-04-2009 23:58:19 13.8 C 56 % 5.19 C
3114 15-04-2009 00:10:18 13.6 C 57 % 5.25 C
3115 15-04-2009 00:22:18 13.2 C 58 % 5.13 C
3116 15-04-2009 00:34:19 13.1 C 59 % 5.28 C
3117 15-04-2009 00:46:18 12.9 C 60 % 5.33 C
3118 15-04-2009 00:58:18 12.5 C 61 % 5.19 C
3119 15-04-2009 01:11:19 12.3 C 62 % 5.24 C
3120 15-04-2009 01:23:19 12.1 C 63 % 5.28 C
3121 15-04-2009 01:35:19 11.8 C 64 % 5.22 C
3122 15-04-2009 01:47:19 11.7 C 64 % 5.13 C
3123 15-04-2009 01:59:19 11.5 C 65 % 5.16 C
3124 15-04-2009 02:11:19 11.2 C 66 % 5.09 C
3125 15-04-2009 02:23:19 11.2 C 67 % 5.31 C
Sensor: Nr:Datum:Temp:Feuchte:Taupunkt:
Aussen-T/F 3126 15-04-2009 02:35:19 10.9 C 68 % 5.23 C
3127 15-04-2009 02:47:19 10.7 C 68 % 5.04 C
3128 15-04-2009 02:59:19 10.6 C 69 % 5.16 C
3129 15-04-2009 03:11:19 10.4 C 70 % 5.17 C
3130 15-04-2009 03:23:20 10.2 C 70 % 4.98 C
3131 15-04-2009 03:35:20 10 C 71 % 4.99 C
3132 15-04-2009 03:47:20 9.8 C 72 % 5 C
3133 15-04-2009 03:59:20 9.7 C 73 % 5.1 C
3134 15-04-2009 04:11:20 9.6 C 74 % 5.2 C
3135 15-04-2009 04:23:20 9.4 C 75 % 5.2 C
3136 15-04-2009 04:35:20 9.3 C 76 % 5.29 C
3137 15-04-2009 04:47:20 9.3 C 76 % 5.29 C
3138 15-04-2009 04:59:20 9 C 76 % 5 C
3139 15-04-2009 05:11:20 8.9 C 77 % 5.09 C
3140 15-04-2009 05:23:20 8.9 C 77 % 5.09 C
3141 15-04-2009 05:35:20 8.7 C 77 % 4.9 C
3142 15-04-2009 05:47:20 8.6 C 77 % 4.8 C
3143 15-04-2009 05:59:20 8.5 C 77 % 4.71 C
3144 15-04-2009 06:11:20 8.3 C 79 % 4.88 C
3145 15-04-2009 06:23:20 8.2 C 79 % 4.78 C
3146 15-04-2009 06:35:20 8.1 C 79 % 4.68 C
3147 15-04-2009 06:47:20 8.1 C 79 % 4.68 C
3148 15-04-2009 06:59:20 8 C 80 % 4.77 C
3149 15-04-2009 07:11:21 8 C 80 % 4.77 C
3150 15-04-2009 07:23:21 8 C 80 % 4.77 C
Sensor: Nr:Datum:Temp:Feuchte:Taupunkt:
Aussen-T/F 3151 15-04-2009 07:35:21 8.1 C 80 % 4.86 C
3152 15-04-2009 07:47:21 8.3 C 80 % 5.06 C
3153 15-04-2009 07:59:21 8.4 C 80 % 5.16 C
3154 15-04-2009 08:11:21 8.6 C 80 % 5.35 C
3155 15-04-2009 08:23:21 8.7 C 80 % 5.45 C
3156 15-04-2009 08:35:21 9.1 C 79 % 5.66 C
3157 15-04-2009 08:47:21 9.4 C 78 % 5.76 C
3158 15-04-2009 08:59:21 9.8 C 78 % 6.15 C
3159 15-04-2009 09:11:19 10.2 C 75 % 5.97 C
3160 15-04-2009 09:23:18 10.6 C 75 % 6.36 C
3161 15-04-2009 09:35:19 11.1 C 73 % 6.45 C
3162 15-04-2009 09:47:18 11.8 C 72 % 6.92 C
3163 15-04-2009 09:59:18 12.3 C 68 % 6.57 C
3164 15-04-2009 10:11:18 12.6 C 67 % 6.64 C
3165 15-04-2009 10:23:19 13.3 C 65 % 6.87 C
3166 15-04-2009 10:35:18 14 C 62 % 6.84 C
3167 15-04-2009 10:47:18 14.7 C 61 % 7.27 C
3168 15-04-2009 10:59:18 15.4 C 59 % 7.44 C
3169 15-04-2009 11:11:18 16.2 C 55 % 7.16 C
3170 15-04-2009 11:23:18 17 C 53 % 7.36 C
3171 15-04-2009 11:35:17 17.6 C 50 % 7.06 C
3172 15-04-2009 11:47:17 18.5 C 48 % 7.29 C
3173 15-04-2009 11:59:17 19.4 C 46 % 7.49 C
3174 15-04-2009 12:11:17 20.4 C 41 % 6.72 C
3175 15-04-2009 12:23:17 21 C 39 % 6.53 C
Sensor: Nr:Datum:Temp:Feuchte:Taupunkt:
Aussen-T/F 3176 15-04-2009 12:35:17 21.6 C 37 % 6.3 C
3177 15-04-2009 12:47:17 22.5 C 34 % 5.87 C
3178 15-04-2009 12:59:17 23 C 25 % 1.93 C
3179 15-04-2009 13:11:17 23.8 C 25 % 2.61 C
3180 15-04-2009 13:23:16 24.4 C 20 % 0.01 C
3181 15-04-2009 13:35:16 24.9 C 20 % 0.42 C
3182 15-04-2009 13:47:16 25.1 C 20 % 0.59 C
3183 15-04-2009 13:59:16 25.7 C 20 % 1.08 C
3184 15-04-2009 14:11:16 26.3 C 20 % 1.57 C
3185 15-04-2009 14:23:15 26.4 C 20 % 1.65 C
3186 15-04-2009 14:35:16 27 C 20 % 2.15 C
3187 15-04-2009 14:47:16 27.5 C 20 % 2.56 C
3188 15-04-2009 14:59:16 27.3 C 20 % 2.39 C
3189 15-04-2009 15:11:15 27.7 C 20 % 2.72 C
3190 15-04-2009 15:23:16 27.5 C 20 % 2.56 C
3191 15-04-2009 15:35:15 27.8 C 20 % 2.8 C
3192 15-04-2009 15:47:15 28.6 C 20 % 3.46 C
3193 15-04-2009 15:59:15 29.2 C 20 % 3.95 C
3194 15-04-2009 16:11:15 28.5 C 20 % 3.38 C
3195 15-04-2009 16:23:15 29.2 C 20 % 3.95 C
3196 15-04-2009 16:35:15 28.6 C 20 % 3.46 C
3197 15-04-2009 16:47:15 27.8 C 20 % 2.8 C
3198 15-04-2009 16:59:15 28.4 C 20 % 3.29 C
3199 15-04-2009 17:11:14 29.1 C 20 % 3.87 C
3200 15-04-2009 17:23:14 28.1 C 20 % 3.05 C
Sensor: Nr:Datum:Temp:Feuchte:Taupunkt:
Aussen-T/F 3201 15-04-2009 17:35:14 28.2 C 20 % 3.13 C
3202 15-04-2009 17:47:14 28.3 C 20 % 3.21 C
3203 15-04-2009 17:59:14 27 C 20 % 2.15 C
3204 15-04-2009 18:11:14 26.4 C 20 % 1.65 C
3205 15-04-2009 18:23:13 26.1 C 20 % 1.41 C
3206 15-04-2009 18:35:14 25.6 C 20 % 1 C
3207 15-04-2009 18:47:13 25.1 C 20 % 0.59 C
3208 15-04-2009 18:59:13 24.2 C 21 % 0.52 C
3209 15-04-2009 19:11:13 23.7 C 23 % 1.36 C
3210 15-04-2009 19:23:13 22.9 C 25 % 1.85 C
3211 15-04-2009 19:35:13 22.1 C 25 % 1.17 C
3212 15-04-2009 19:47:13 21.3 C 25 % 0.5 C
3213 15-04-2009 19:59:13 20.8 C 27 % 1.14 C
3214 15-04-2009 20:11:13 20.3 C 27 % 0.71 C
3215 15-04-2009 20:23:13 19.7 C 31 % 2.12 C
3216 15-04-2009 20:35:12 19.1 C 31 % 1.59 C
3217 15-04-2009 20:47:12 18.7 C 32 % 1.69 C
3218 15-04-2009 20:59:12 18.5 C 31 % 1.07 C
3219 15-04-2009 21:11:13 18.2 C 34 % 2.1 C
3220 15-04-2009 21:23:12 18 C 34 % 1.92 C
3221 15-04-2009 21:35:12 17.7 C 33 % 1.24 C
3222 15-04-2009 21:47:11 17.3 C 36 % 2.1 C
3223 15-04-2009 21:59:11 17 C 37 % 2.22 C
3224 15-04-2009 22:11:12 16.6 C 38 % 2.24 C
3225 15-04-2009 22:23:11 16.3 C 39 % 2.34 C
Sensor: Nr:Datum:Temp:Feuchte:Taupunkt:
Aussen-T/F 3226 15-04-2009 22:35:11 16 C 39 % 2.07 C
3227 15-04-2009 22:48:13 15.8 C 40 % 2.24 C
3228 15-04-2009 23:00:13 15.7 C 41 % 2.5 C
3229 15-04-2009 23:12:13 15.6 C 40 % 2.06 C
3230 15-04-2009 23:24:13 15.2 C 41 % 2.05 C
3231 15-04-2009 23:36:13 15.1 C 42 % 2.3 C
3232 15-04-2009 23:48:13 14.8 C 44 % 2.68 C
3233 16-04-2009 00:00:13 14.3 C 45 % 2.54 C
3234 16-04-2009 00:12:14 14.1 C 47 % 2.97 C
3235 16-04-2009 00:24:14 13.8 C 51 % 3.85 C
3236 16-04-2009 00:36:14 13.6 C 50 % 3.39 C
3237 16-04-2009 00:48:14 13.3 C 50 % 3.11 C
3238 16-04-2009 01:00:14 13.1 C 50 % 2.93 C
3239 16-04-2009 01:12:14 12.9 C 52 % 3.29 C
3240 16-04-2009 01:24:14 12.7 C 53 % 3.38 C
3241 16-04-2009 01:36:14 12.6 C 54 % 3.55 C
3242 16-04-2009 01:48:14 12.6 C 54 % 3.55 C
3243 16-04-2009 02:00:14 12.6 C 54 % 3.55 C
3244 16-04-2009 02:12:14 12.3 C 55 % 3.53 C
3245 16-04-2009 02:24:14 12.2 C 56 % 3.69 C
3246 16-04-2009 02:36:14 12 C 57 % 3.76 C
3247 16-04-2009 02:48:14 11.7 C 58 % 3.72 C
3248 16-04-2009 03:00:14 11.5 C 59 % 3.78 C
3249 16-04-2009 03:12:14 11.4 C 60 % 3.92 C
3250 16-04-2009 03:24:14 11.2 C 61 % 3.97 C
Sensor: Nr:Datum:Temp:Feuchte:Taupunkt:
Aussen-T/F 3251 16-04-2009 03:36:14 11.1 C 61 % 3.87 C
3252 16-04-2009 03:48:14 11.2 C 63 % 4.43 C
3253 16-04-2009 04:00:14 11.2 C 63 % 4.43 C
3254 16-04-2009 04:12:14 12.6 C 54 % 3.55 C
3255 16-04-2009 04:24:15 13 C 52 % 3.39 C
3256 16-04-2009 04:36:15 12.9 C 53 % 3.56 C
3257 16-04-2009 04:48:15 12.4 C 55 % 3.62 C
3258 16-04-2009 05:00:15 12.1 C 55 % 3.34 C
3259 16-04-2009 05:12:15 11.7 C 57 % 3.48 C
3260 16-04-2009 05:24:15 11.3 C 58 % 3.35 C
3261 16-04-2009 05:36:15 11.2 C 60 % 3.73 C
3262 16-04-2009 05:48:15 11.1 C 60 % 3.64 C
3263 16-04-2009 06:00:15 11.1 C 61 % 3.87 C
3264 16-04-2009 06:12:15 11.1 C 62 % 4.11 C
3265 16-04-2009 06:24:15 11.1 C 63 % 4.33 C
3266 16-04-2009 06:36:15 11.1 C 63 % 4.33 C
3267 16-04-2009 06:48:15 11.1 C 62 % 4.11 C
3268 16-04-2009 07:00:15 10.9 C 63 % 4.14 C
3269 16-04-2009 07:12:15 10.8 C 65 % 4.49 C
3270 16-04-2009 07:24:15 10.7 C 65 % 4.4 C
3271 16-04-2009 07:36:13 10.8 C 64 % 4.27 C
3272 16-04-2009 07:48:12 10.8 C 63 % 4.05 C
3273 16-04-2009 08:00:12 11 C 62 % 4.01 C
3274 16-04-2009 08:12:12 11 C 61 % 3.78 C
3275 16-04-2009 08:24:12 11.4 C 61 % 4.16 C
Sensor: Nr:Datum:Temp:Feuchte:Taupunkt:
Aussen-T/F 3276 16-04-2009 08:36:12 12 C 58 % 4 C
3277 16-04-2009 08:48:11 12.3 C 57 % 4.04 C
3278 16-04-2009 09:00:12 12.6 C 57 % 4.32 C
3279 16-04-2009 09:12:12 13 C 55 % 4.18 C
3280 16-04-2009 09:24:12 13.4 C 55 % 4.55 C
3281 16-04-2009 09:36:11 13.9 C 54 % 4.76 C
3282 16-04-2009 09:48:12 14.5 C 53 % 5.05 C
3283 16-04-2009 10:00:11 15 C 51 % 4.96 C
3284 16-04-2009 10:12:11 15.6 C 49 % 4.94 C
3285 16-04-2009 10:24:11 16 C 47 % 4.71 C
3286 16-04-2009 10:36:10 16.4 C 46 % 4.76 C
3287 16-04-2009 10:48:11 16.7 C 46 % 5.04 C
3288 16-04-2009 11:00:10 17.4 C 45 % 5.36 C
3289 16-04-2009 11:12:10 17.9 C 44 % 5.49 C
3290 16-04-2009 11:24:10 18.3 C 41 % 4.83 C
3291 16-04-2009 11:36:11 19.2 C 41 % 5.64 C
3292 16-04-2009 11:48:10 19.2 C 39 % 4.92 C
3293 16-04-2009 12:00:10 19.2 C 40 % 5.29 C
3294 16-04-2009 12:12:10 19.5 C 38 % 4.82 C
3295 16-04-2009 12:24:10 19.3 C 38 % 4.64 C
3296 16-04-2009 12:36:10 20 C 35 % 4.09 C
3297 16-04-2009 12:48:09 19.7 C 36 % 4.23 C
3298 16-04-2009 13:00:09 20.8 C 35 % 4.79 C
3299 16-04-2009 13:12:09 21.3 C 33 % 4.39 C
3300 16-04-2009 13:24:09 21.8 C 31 % 3.94 C
Sensor: Nr:Datum:Temp:Feuchte:Taupunkt:
Aussen-T/F 3301 16-04-2009 13:36:10 21.6 C 29 % 2.82 C
3302 16-04-2009 13:48:09 20.2 C 32 % 3 C
3303 16-04-2009 14:00:09 21.1 C 32 % 3.78 C
3304 16-04-2009 14:12:09 20.6 C 31 % 2.9 C
3305 16-04-2009 14:24:08 20.6 C 31 % 2.9 C
3306 16-04-2009 14:36:08 21.3 C 30 % 3.04 C
3307 16-04-2009 14:48:09 21.9 C 27 % 2.08 C
3308 16-04-2009 15:00:08 21.6 C 28 % 2.33 C
3309 16-04-2009 15:12:08 21.9 C 27 % 2.08 C
3310 16-04-2009 15:24:08 21.2 C 29 % 2.48 C
3311 16-04-2009 15:36:08 20.9 C 31 % 3.16 C
3312 16-04-2009 15:48:08 20 C 38 % 5.26 C
3313 16-04-2009 16:00:07 19.5 C 42 % 6.26 C
3314 16-04-2009 16:12:07 19.2 C 42 % 5.99 C
3315 16-04-2009 16:24:07 19.1 C 42 % 5.9 C
3316 16-04-2009 16:36:08 19 C 42 % 5.81 C
3317 16-04-2009 16:48:07 18.9 C 43 % 6.06 C
3318 16-04-2009 17:00:07 18.5 C 45 % 6.36 C
3319 16-04-2009 17:12:07 18.1 C 45 % 5.99 C
3320 16-04-2009 17:24:07 18.1 C 46 % 6.31 C
3321 16-04-2009 17:36:07 17.9 C 46 % 6.13 C
3322 16-04-2009 17:48:06 17.8 C 47 % 6.35 C
3323 16-04-2009 18:00:07 17.8 C 47 % 6.35 C
3324 16-04-2009 18:12:08 17.2 C 50 % 6.7 C
3325 16-04-2009 18:24:06 16.3 C 53 % 6.71 C
Sensor: Nr:Datum:Temp:Feuchte:Taupunkt:
Aussen-T/F 3326 16-04-2009 18:36:06 15.7 C 59 % 7.72 C
3327 16-04-2009 18:48:06 15.3 C 62 % 8.07 C
3328 16-04-2009 19:00:06 15.1 C 61 % 7.64 C
3329 16-04-2009 19:12:06 15.2 C 60 % 7.5 C
3330 16-04-2009 19:24:06 14.5 C 62 % 7.32 C
3331 16-04-2009 19:36:05 14.3 C 63 % 7.36 C
3332 16-04-2009 19:48:06 14.1 C 65 % 7.63 C
3333 16-04-2009 20:00:05 13.8 C 68 % 8 C
3334 16-04-2009 20:12:05 13.4 C 69 % 7.84 C
3335 16-04-2009 20:24:05 13.1 C 70 % 7.76 C
3336 16-04-2009 20:36:05 13.3 C 70 % 7.95 C
3337 16-04-2009 20:48:05 13.2 C 70 % 7.86 C
3338 16-04-2009 21:00:05 13.1 C 70 % 7.76 C
3339 16-04-2009 21:12:05 13 C 71 % 7.87 C
3340 16-04-2009 21:24:04 12.9 C 72 % 7.98 C
3341 16-04-2009 21:36:05 13 C 71 % 7.87 C
3342 16-04-2009 21:48:04 13.2 C 69 % 7.64 C
3343 16-04-2009 22:00:04 13.2 C 69 % 7.64 C
3344 16-04-2009 22:12:04 13.1 C 69 % 7.55 C
3345 16-04-2009 22:24:03 13.1 C 69 % 7.55 C
3346 16-04-2009 22:37:05 13.1 C 69 % 7.55 C
3347 16-04-2009 22:49:05 13.1 C 69 % 7.55 C
3348 16-04-2009 23:01:06 12.9 C 69 % 7.36 C
3349 16-04-2009 23:13:06 12.8 C 70 % 7.47 C
3350 16-04-2009 23:25:06 12.8 C 70 % 7.47 C
Sensor: Nr:Datum:Temp:Feuchte:Taupunkt:
Aussen-T/F 3351 16-04-2009 23:37:06 12.7 C 70 % 7.38 C
3352 16-04-2009 23:49:06 12.6 C 70 % 7.28 C
3353 17-04-2009 00:01:06 12.5 C 70 % 7.18 C
3354 17-04-2009 00:13:06 12.4 C 72 % 7.5 C
3355 17-04-2009 00:25:06 12.1 C 74 % 7.61 C
3356 17-04-2009 00:37:06 11.7 C 79 % 8.18 C
3357 17-04-2009 00:49:06 11.2 C 83 % 8.42 C
3358 17-04-2009 01:01:06 11 C 86 % 8.75 C
3359 17-04-2009 01:13:06 11 C 87 % 8.92 C
3360 17-04-2009 01:25:06 10.8 C 89 % 9.06 C
3361 17-04-2009 01:37:06 10.7 C 90 % 9.13 C
3362 17-04-2009 01:49:06 10.6 C 90 % 9.03 C
3363 17-04-2009 02:01:06 10.5 C 91 % 9.09 C
3364 17-04-2009 02:13:06 10.5 C 91 % 9.09 C
3365 17-04-2009 02:25:06 10.4 C 92 % 9.16 C
3366 17-04-2009 02:37:06 10.4 C 92 % 9.16 C
3367 17-04-2009 02:49:06 10.3 C 92 % 9.06 C
3368 17-04-2009 03:01:06 10.3 C 93 % 9.22 C
3369 17-04-2009 03:13:07 10.3 C 93 % 9.22 C
3370 17-04-2009 03:25:07 10.2 C 93 % 9.12 C
3371 17-04-2009 03:37:07 10.2 C 93 % 9.12 C
3372 17-04-2009 03:49:07 10.2 C 93 % 9.12 C
3373 17-04-2009 04:01:07 10.2 C 94 % 9.28 C
3374 17-04-2009 04:13:07 10.2 C 94 % 9.28 C
3375 17-04-2009 04:25:07 10.2 C 94 % 9.28 C
Sensor: Nr:Datum:Temp:Feuchte:Taupunkt:
Aussen-T/F 3376 17-04-2009 04:37:07 10.1 C 94 % 9.18 C
3377 17-04-2009 04:49:07 10.1 C 94 % 9.18 C
3378 17-04-2009 05:01:07 10 C 94 % 9.08 C
3379 17-04-2009 05:13:07 10 C 94 % 9.08 C
3380 17-04-2009 05:25:07 10 C 94 % 9.08 C
3381 17-04-2009 05:37:07 10 C 95 % 9.24 C
3382 17-04-2009 05:49:07 9.9 C 95 % 9.14 C
3383 17-04-2009 06:01:07 9.9 C 95 % 9.14 C
3384 17-04-2009 06:13:07 9.9 C 95 % 9.14 C
3385 17-04-2009 06:25:07 9.9 C 95 % 9.14 C
3386 17-04-2009 06:37:07 9.8 C 95 % 9.04 C
3387 17-04-2009 06:49:07 9.9 C 95 % 9.14 C
3388 17-04-2009 07:01:04 9.8 C 95 % 9.04 C
3389 17-04-2009 07:13:04 9.8 C 95 % 9.04 C
3390 17-04-2009 07:25:04 9.8 C 95 % 9.04 C
3391 17-04-2009 07:37:05 9.8 C 95 % 9.04 C
3392 17-04-2009 07:49:04 9.8 C 95 % 9.04 C
3393 17-04-2009 08:01:04 9.9 C 95 % 9.14 C
3394 17-04-2009 08:13:04 9.9 C 95 % 9.14 C
3395 17-04-2009 08:25:04 9.9 C 95 % 9.14 C
3396 17-04-2009 08:37:04 10 C 95 % 9.24 C
3397 17-04-2009 08:49:03 10 C 95 % 9.24 C
3398 17-04-2009 09:01:04 10 C 95 % 9.24 C
3399 17-04-2009 09:13:04 10 C 95 % 9.24 C
3400 17-04-2009 09:25:03 10.1 C 94 % 9.18 C
Sensor: Nr:Datum:Temp:Feuchte:Taupunkt:
Aussen-T/F 3401 17-04-2009 09:37:03 10.2 C 94 % 9.28 C
3402 17-04-2009 09:49:03 10.2 C 94 % 9.28 C
3403 17-04-2009 10:01:03 10.2 C 94 % 9.28 C
3404 17-04-2009 10:13:03 10.3 C 94 % 9.38 C
3405 17-04-2009 10:25:02 10.2 C 93 % 9.12 C
3406 17-04-2009 10:37:02 10.2 C 93 % 9.12 C
3407 17-04-2009 10:49:03 10.2 C 92 % 8.96 C
3408 17-04-2009 11:01:02 10.2 C 92 % 8.96 C
3409 17-04-2009 11:13:02 10.2 C 91 % 8.8 C
3410 17-04-2009 11:25:02 10.2 C 90 % 8.64 C
3411 17-04-2009 11:37:02 10.2 C 90 % 8.64 C
3412 17-04-2009 11:49:02 10.2 C 89 % 8.47 C
3413 17-04-2009 12:01:01 10.1 C 89 % 8.37 C
3414 17-04-2009 12:13:01 10.2 C 89 % 8.47 C
3415 17-04-2009 12:25:02 10.1 C 88 % 8.21 C
3416 17-04-2009 12:37:01 10.1 C 88 % 8.21 C
3417 17-04-2009 12:49:01 10 C 88 % 8.11 C
3418 17-04-2009 13:01:01 10 C 89 % 8.27 C
3419 17-04-2009 13:13:01 10 C 89 % 8.27 C
3420 17-04-2009 13:25:01 10.3 C 89 % 8.57 C
3421 17-04-2009 13:37:01 10.3 C 89 % 8.57 C
3422 17-04-2009 13:49:01 10.4 C 89 % 8.67 C
3423 17-04-2009 14:01:01 10.4 C 89 % 8.67 C
3424 17-04-2009 14:13:01 10.5 C 89 % 8.77 C
3425 17-04-2009 14:25:00 10.7 C 89 % 8.96 C
Sensor: Nr:Datum:Temp:Feuchte:Taupunkt:
Aussen-T/F 3426 17-04-2009 14:37:00 10.5 C 89 % 8.77 C
3427 17-04-2009 14:49:00 10.6 C 89 % 8.86 C
3428 17-04-2009 15:01:00 10.5 C 89 % 8.77 C
3429 17-04-2009 15:13:00 10.4 C 89 % 8.67 C
3430 17-04-2009 15:25:59 10.2 C 90 % 8.64 C
3431 17-04-2009 15:37:00 10 C 90 % 8.44 C
3432 17-04-2009 15:49:00 9.9 C 91 % 8.5 C
3433 17-04-2009 16:01:59 9.9 C 91 % 8.5 C
3434 17-04-2009 16:12:59 9.8 C 92 % 8.56 C
3435 17-04-2009 16:24:59 9.7 C 92 % 8.46 C
3436 17-04-2009 16:37:59 9.6 C 92 % 8.37 C
3437 17-04-2009 16:49:59 9.6 C 92 % 8.37 C
3438 17-04-2009 17:01:58 9.6 C 93 % 8.53 C
3439 17-04-2009 17:13:59 9.6 C 93 % 8.53 C
3440 17-04-2009 17:25:59 9.5 C 93 % 8.43 C
3441 17-04-2009 17:37:58 9.5 C 93 % 8.43 C
3442 17-04-2009 17:49:58 9.5 C 93 % 8.43 C
3443 17-04-2009 18:01:59 9.5 C 93 % 8.43 C
3444 17-04-2009 18:13:58 9.6 C 94 % 8.68 C
3445 17-04-2009 18:25:58 9.5 C 94 % 8.58 C
3446 17-04-2009 18:37:58 9.5 C 94 % 8.58 C
3447 17-04-2009 18:49:58 9.5 C 94 % 8.58 C
3448 17-04-2009 19:01:58 9.5 C 94 % 8.58 C
3449 17-04-2009 19:13:57 9.6 C 94 % 8.68 C
3450 17-04-2009 19:25:57 9.5 C 94 % 8.58 C
Sensor: Nr:Datum:Temp:Feuchte:Taupunkt:
Aussen-T/F 3451 17-04-2009 19:37:57 9.5 C 94 % 8.58 C
3452 17-04-2009 19:49:57 9.5 C 94 % 8.58 C
3453 17-04-2009 20:01:57 9.6 C 95 % 8.84 C
3454 17-04-2009 20:13:57 9.6 C 95 % 8.84 C
3455 17-04-2009 20:25:57 9.7 C 95 % 8.94 C
3456 17-04-2009 20:37:57 9.7 C 95 % 8.94 C
3457 17-04-2009 20:49:57 9.8 C 95 % 9.04 C
3458 17-04-2009 21:01:57 9.8 C 95 % 9.04 C
3459 17-04-2009 21:13:56 9.8 C 95 % 9.04 C
3460 17-04-2009 21:25:56 9.8 C 95 % 9.04 C
3461 17-04-2009 21:37:56 9.9 C 95 % 9.14 C
3462 17-04-2009 21:49:56 9.9 C 95 % 9.14 C
3463 17-04-2009 22:01:56 9.9 C 95 % 9.14 C
3464 17-04-2009 22:13:56 9.9 C 95 % 9.14 C
3465 17-04-2009 22:25:56 9.9 C 95 % 9.14 C
3466 17-04-2009 22:38:55 9.8 C 95 % 9.04 C
3467 17-04-2009 22:50:55 9.8 C 95 % 9.04 C
3468 17-04-2009 23:02:55 9.7 C 95 % 8.94 C
3469 17-04-2009 23:14:55 9.6 C 95 % 8.84 C
3470 17-04-2009 23:26:55 9.5 C 95 % 8.74 C
3471 17-04-2009 23:38:56 9.4 C 95 % 8.64 C
3472 17-04-2009 23:50:56 9.4 C 95 % 8.64 C
3473 18-04-2009 00:02:56 9.4 C 95 % 8.64 C
3474 18-04-2009 00:14:56 9.4 C 95 % 8.64 C
3475 18-04-2009 00:26:56 9.4 C 95 % 8.64 C
Sensor: Nr:Datum:Temp:Feuchte:Taupunkt:
Aussen-T/F 3476 18-04-2009 00:38:56 9.4 C 95 % 8.64 C
3477 18-04-2009 00:50:56 9.4 C 95 % 8.64 C
3478 18-04-2009 01:02:56 9.4 C 95 % 8.64 C
3479 18-04-2009 01:14:56 9.4 C 95 % 8.64 C
3480 18-04-2009 01:26:56 9.4 C 95 % 8.64 C
3481 18-04-2009 01:38:56 9.4 C 95 % 8.64 C
3482 18-04-2009 01:50:56 9.4 C 95 % 8.64 C
3483 18-04-2009 02:02:56 9.4 C 95 % 8.64 C
3484 18-04-2009 02:14:56 9.4 C 95 % 8.64 C
3485 18-04-2009 02:26:56 9.5 C 95 % 8.74 C
3486 18-04-2009 02:38:56 9.5 C 95 % 8.74 C
3487 18-04-2009 02:50:56 9.5 C 95 % 8.74 C
3488 18-04-2009 03:02:56 9.5 C 95 % 8.74 C
3489 18-04-2009 03:14:56 9.5 C 95 % 8.74 C
3490 18-04-2009 03:26:56 9.4 C 95 % 8.64 C
3491 18-04-2009 03:38:56 9.5 C 95 % 8.74 C
3492 18-04-2009 03:50:57 9.4 C 95 % 8.64 C
3493 18-04-2009 04:02:57 9.5 C 95 % 8.74 C
3494 18-04-2009 04:14:57 9.6 C 95 % 8.84 C
3495 18-04-2009 04:26:57 9.5 C 95 % 8.74 C
3496 18-04-2009 04:38:57 9.6 C 95 % 8.84 C
3497 18-04-2009 04:50:57 9.5 C 95 % 8.74 C
3498 18-04-2009 05:02:57 9.5 C 95 % 8.74 C
3499 18-04-2009 05:14:57 9.5 C 95 % 8.74 C
3500 18-04-2009 05:26:57 9.5 C 95 % 8.74 C
Sensor: Nr:Datum:Temp:Feuchte:Taupunkt:
Aussen-T/F 3501 18-04-2009 05:38:57 9.4 C 95 % 8.64 C
3502 18-04-2009 05:50:57 9.4 C 95 % 8.64 C
3503 18-04-2009 06:02:57 9.3 C 95 % 8.54 C
3504 18-04-2009 06:14:57 9.4 C 95 % 8.64 C
3505 18-04-2009 06:26:57 9.4 C 95 % 8.64 C
3506 18-04-2009 06:38:57 9.4 C 95 % 8.64 C
3507 18-04-2009 06:50:57 9.5 C 95 % 8.74 C
3508 18-04-2009 07:02:57 9.5 C 95 % 8.74 C
3509 18-04-2009 07:14:57 9.5 C 95 % 8.74 C
3510 18-04-2009 07:26:57 9.6 C 95 % 8.84 C
3511 18-04-2009 07:38:57 9.6 C 95 % 8.84 C
3512 18-04-2009 07:50:58 9.6 C 95 % 8.84 C
3513 18-04-2009 08:02:58 9.7 C 95 % 8.94 C
3514 18-04-2009 08:14:58 9.7 C 95 % 8.94 C
3515 18-04-2009 08:26:58 9.8 C 95 % 9.04 C
3516 18-04-2009 08:38:56 9.9 C 95 % 9.14 C
3517 18-04-2009 08:50:55 10 C 95 % 9.24 C
3518 18-04-2009 09:02:55 10.1 C 95 % 9.34 C
3519 18-04-2009 09:14:54 10 C 95 % 9.24 C
3520 18-04-2009 09:26:54 10.1 C 95 % 9.34 C
3521 18-04-2009 09:38:55 10 C 95 % 9.24 C
3522 18-04-2009 09:50:54 9.8 C 95 % 9.04 C
3523 18-04-2009 10:02:54 9.8 C 95 % 9.04 C
3524 18-04-2009 10:14:54 9.7 C 95 % 8.94 C
3525 18-04-2009 10:26:54 9.7 C 95 % 8.94 C
Sensor: Nr:Datum:Temp:Feuchte:Taupunkt:
Aussen-T/F 3526 18-04-2009 10:38:54 9.8 C 94 % 8.88 C
3527 18-04-2009 10:50:53 9.8 C 94 % 8.88 C
3528 18-04-2009 11:02:54 9.6 C 94 % 8.68 C
3529 18-04-2009 11:14:54 9.5 C 94 % 8.58 C
3530 18-04-2009 11:26:54 9.8 C 94 % 8.88 C
3531 18-04-2009 11:38:53 9.6 C 93 % 8.53 C
3532 18-04-2009 11:50:54 9.6 C 93 % 8.53 C
3533 18-04-2009 12:02:53 9.7 C 92 % 8.46 C
3534 18-04-2009 12:14:53 9.6 C 92 % 8.37 C
3535 18-04-2009 12:26:54 9.7 C 92 % 8.46 C
3536 18-04-2009 12:38:52 9.8 C 93 % 8.72 C
3537 18-04-2009 12:50:53 9.7 C 92 % 8.46 C
3538 18-04-2009 13:02:52 9.8 C 93 % 8.72 C
3539 18-04-2009 13:14:52 9.8 C 93 % 8.72 C
3540 18-04-2009 13:26:52 9.6 C 93 % 8.53 C
3541 18-04-2009 13:38:53 9.5 C 92 % 8.27 C
3542 18-04-2009 13:50:52 9.6 C 93 % 8.53 C
3543 18-04-2009 14:02:52 9.5 C 93 % 8.43 C
3544 18-04-2009 14:14:52 9.4 C 93 % 8.33 C
3545 18-04-2009 14:26:52 9.5 C 92 % 8.27 C
3546 18-04-2009 14:38:52 9.5 C 90 % 7.94 C
3547 18-04-2009 14:50:51 9.4 C 89 % 7.68 C
3548 18-04-2009 15:02:52 9.5 C 89 % 7.78 C
3549 18-04-2009 15:14:51 9.7 C 90 % 8.14 C
3550 18-04-2009 15:26:51 9.8 C 90 % 8.24 C
Sensor: Nr:Datum:Temp:Feuchte:Taupunkt:
Aussen-T/F 3551 18-04-2009 15:38:51 9.8 C 91 % 8.4 C
3552 18-04-2009 15:50:51 9.8 C 91 % 8.4 C
3553 18-04-2009 16:02:51 9.8 C 91 % 8.4 C
3554 18-04-2009 16:14:51 10.1 C 90 % 8.54 C
3555 18-04-2009 16:26:51 10.7 C 91 % 9.29 C
3556 18-04-2009 16:38:50 11.1 C 90 % 9.52 C
3557 18-04-2009 16:50:51 11.3 C 89 % 9.55 C
3558 18-04-2009 17:02:50 11.4 C 88 % 9.49 C
3559 18-04-2009 17:14:50 11.5 C 87 % 9.41 C
3560 18-04-2009 17:26:50 11.6 C 87 % 9.51 C
3561 18-04-2009 17:38:50 11.7 C 85 % 9.27 C
3562 18-04-2009 17:50:50 11.5 C 83 % 8.72 C
3563 18-04-2009 18:02:49 11.6 C 83 % 8.81 C
3564 18-04-2009 18:14:50 11.3 C 83 % 8.52 C
3565 18-04-2009 18:26:50 11.2 C 84 % 8.6 C
3566 18-04-2009 18:38:50 11.1 C 85 % 8.68 C
3567 18-04-2009 18:50:49 11.1 C 85 % 8.68 C
3568 18-04-2009 19:02:50 11 C 86 % 8.75 C
3569 18-04-2009 19:14:49 10.8 C 87 % 8.73 C
3570 18-04-2009 19:26:49 10.6 C 87 % 8.53 C
3571 18-04-2009 19:38:49 10.4 C 87 % 8.33 C
3572 18-04-2009 19:50:49 10.2 C 87 % 8.14 C
3573 18-04-2009 20:02:49 10.1 C 87 % 8.04 C
3574 18-04-2009 20:14:48 10.1 C 86 % 7.87 C
3575 18-04-2009 20:26:48 10.1 C 85 % 7.7 C
Sensor: Nr:Datum:Temp:Feuchte:Taupunkt:
Aussen-T/F 3576 18-04-2009 20:38:48 9.9 C 87 % 7.84 C
3577 18-04-2009 20:50:48 9.9 C 87 % 7.84 C
3578 18-04-2009 21:02:48 9.8 C 87 % 7.74 C
3579 18-04-2009 21:14:48 9.8 C 86 % 7.57 C
3580 18-04-2009 21:26:48 9.8 C 86 % 7.57 C
3581 18-04-2009 21:38:47 9.7 C 86 % 7.47 C
3582 18-04-2009 21:50:48 9.8 C 87 % 7.74 C
3583 18-04-2009 22:02:47 9.7 C 87 % 7.64 C
3584 18-04-2009 22:14:47 9.6 C 88 % 7.71 C
3585 18-04-2009 22:26:47 9.6 C 88 % 7.71 C
3586 18-04-2009 22:38:48 9.6 C 88 % 7.71 C
3587 18-04-2009 22:50:47 9.6 C 89 % 7.88 C
3588 18-04-2009 23:03:49 9.6 C 89 % 7.88 C
3589 18-04-2009 23:15:49 9.5 C 89 % 7.78 C
3590 18-04-2009 23:27:49 9.3 C 89 % 7.58 C
3591 18-04-2009 23:39:50 9.1 C 89 % 7.39 C
3592 18-04-2009 23:51:50 9.1 C 90 % 7.55 C
3593 19-04-2009 00:03:50 9.2 C 91 % 7.81 C
3594 19-04-2009 00:15:50 9.4 C 91 % 8.01 C
3595 19-04-2009 00:27:50 9.4 C 91 % 8.01 C
3596 19-04-2009 00:39:50 9.5 C 90 % 7.94 C
3597 19-04-2009 00:51:50 9.5 C 90 % 7.94 C
3598 19-04-2009 01:03:50 9.6 C 89 % 7.88 C
3599 19-04-2009 01:15:50 9.6 C 89 % 7.88 C
3600 19-04-2009 01:27:50 9.6 C 89 % 7.88 C
Sensor: Nr:Datum:Temp:Feuchte:Taupunkt:
Aussen-T/F 3601 19-04-2009 01:39:50 9.6 C 89 % 7.88 C
3602 19-04-2009 01:51:50 9.6 C 89 % 7.88 C
3603 19-04-2009 02:03:50 9.6 C 89 % 7.88 C
3604 19-04-2009 02:15:50 9.7 C 89 % 7.98 C
3605 19-04-2009 02:27:50 9.8 C 89 % 8.08 C
3606 19-04-2009 02:39:50 9.8 C 89 % 8.08 C
3607 19-04-2009 02:51:50 9.9 C 88 % 8.01 C
3608 19-04-2009 03:03:50 9.9 C 88 % 8.01 C
3609 19-04-2009 03:15:50 9.8 C 88 % 7.91 C
3610 19-04-2009 03:27:51 9.8 C 88 % 7.91 C
3611 19-04-2009 03:39:51 9.8 C 88 % 7.91 C
3612 19-04-2009 03:51:51 9.8 C 88 % 7.91 C
3613 19-04-2009 04:03:51 9.7 C 88 % 7.81 C
3614 19-04-2009 04:15:51 9.4 C 88 % 7.52 C
3615 19-04-2009 04:27:51 9.4 C 89 % 7.68 C
3616 19-04-2009 04:39:51 9.3 C 89 % 7.58 C
3617 19-04-2009 04:51:51 9.3 C 89 % 7.58 C
3618 19-04-2009 05:03:51 9.3 C 90 % 7.75 C
3619 19-04-2009 05:15:51 9.3 C 90 % 7.75 C
3620 19-04-2009 05:27:51 9.4 C 89 % 7.68 C
3621 19-04-2009 05:39:51 9.4 C 89 % 7.68 C
3622 19-04-2009 05:51:51 9.3 C 89 % 7.58 C
3623 19-04-2009 06:03:51 9.3 C 88 % 7.42 C
3624 19-04-2009 06:15:51 9.3 C 88 % 7.42 C
3625 19-04-2009 06:27:51 9.3 C 88 % 7.42 C
Sensor: Nr:Datum:Temp:Feuchte:Taupunkt:
Aussen-T/F 3626 19-04-2009 06:39:51 9.3 C 88 % 7.42 C
3627 19-04-2009 06:51:51 9.3 C 88 % 7.42 C
3628 19-04-2009 07:03:51 9.3 C 88 % 7.42 C
3629 19-04-2009 07:15:52 9.5 C 88 % 7.61 C
3630 19-04-2009 07:27:52 9.6 C 88 % 7.71 C
3631 19-04-2009 07:39:52 9.8 C 88 % 7.91 C
3632 19-04-2009 07:51:52 10 C 86 % 7.77 C
3633 19-04-2009 08:03:52 10.1 C 86 % 7.87 C
3634 19-04-2009 08:15:52 9.8 C 86 % 7.57 C
3635 19-04-2009 08:27:52 9.7 C 86 % 7.47 C
3636 19-04-2009 08:39:48 9.8 C 86 % 7.57 C
3637 19-04-2009 08:51:47 10.5 C 84 % 7.91 C
3638 19-04-2009 09:03:48 11 C 80 % 7.69 C
3639 19-04-2009 09:15:47 11.1 C 76 % 7.04 C
3640 19-04-2009 09:27:47 11.2 C 74 % 6.74 C
3641 19-04-2009 09:39:47 11.6 C 73 % 6.93 C
3642 19-04-2009 09:51:47 11.9 C 69 % 6.4 C
3643 19-04-2009 10:03:47 12.4 C 66 % 6.23 C
3644 19-04-2009 10:15:47 12.9 C 64 % 6.26 C
3645 19-04-2009 10:27:47 12.7 C 65 % 6.3 C
3646 19-04-2009 10:39:46 13 C 61 % 5.66 C
3647 19-04-2009 10:51:47 13.6 C 61 % 6.23 C
3648 19-04-2009 11:03:46 14.3 C 56 % 5.65 C
3649 19-04-2009 11:15:46 14.6 C 52 % 4.87 C
3650 19-04-2009 11:27:46 15.1 C 52 % 5.33 C
Sensor: Nr:Datum:Temp:Feuchte:Taupunkt:
Aussen-T/F 3651 19-04-2009 11:39:46 15.1 C 49 % 4.48 C
3652 19-04-2009 11:51:46 15.5 C 49 % 4.84 C
3653 19-04-2009 12:03:45 16 C 48 % 5.01 C
3654 19-04-2009 12:15:46 16 C 46 % 4.4 C
3655 19-04-2009 12:27:46 17.1 C 45 % 5.08 C
3656 19-04-2009 12:39:46 17 C 42 % 4.01 C
3657 19-04-2009 12:51:45 16 C 48 % 5.01 C
3658 19-04-2009 13:03:46 15.9 C 46 % 4.31 C
3659 19-04-2009 13:15:45 16 C 45 % 4.09 C
3660 19-04-2009 13:27:45 16.9 C 47 % 5.53 C
3661 19-04-2009 13:39:45 16.9 C 47 % 5.53 C
3662 19-04-2009 13:51:45 17.1 C 43 % 4.43 C
3663 19-04-2009 14:03:45 17.5 C 43 % 4.8 C
3664 19-04-2009 14:15:44 18.7 C 39 % 4.48 C
3665 19-04-2009 14:27:44 19.1 C 35 % 3.3 C
3666 19-04-2009 14:39:44 19.9 C 35 % 4 C
3667 19-04-2009 14:51:44 21 C 29 % 2.31 C
3668 19-04-2009 15:03:44 20.9 C 30 % 2.69 C
3669 19-04-2009 15:15:43 21.1 C 30 % 2.87 C
3670 19-04-2009 15:27:43 22.1 C 26 % 1.72 C
3671 19-04-2009 15:39:44 21.2 C 31 % 3.42 C
3672 19-04-2009 15:51:43 22.3 C 26 % 1.89 C
3673 19-04-2009 16:03:43 23.3 C 23 % 1.03 C
3674 19-04-2009 16:15:44 23.9 C 22 % 0.91 C
3675 19-04-2009 16:27:44 25.2 C 21 % 1.34 C
Sensor: Nr:Datum:Temp:Feuchte:Taupunkt:
Aussen-T/F 3676 19-04-2009 16:39:02 24.6 C 21 % 0.85 C
3677 19-04-2009 16:51:01 25.4 C 20 % 0.83 C
3678 19-04-2009 17:03:01 25.3 C 20 % 0.75 C
3679 19-04-2009 17:15:01 25.4 C 20 % 0.83 C
3680 19-04-2009 17:27:01 25.7 C 20 % 1.08 C
3681 19-04-2009 17:39:01 25.6 C 20 % 1 C
3682 19-04-2009 17:51:01 25.7 C 20 % 1.08 C
3683 19-04-2009 18:03:01 25.6 C 20 % 1 C
3684 19-04-2009 18:15:00 25.2 C 20 % 0.67 C
3685 19-04-2009 18:27:00 25.1 C 20 % 0.59 C
3686 19-04-2009 18:39:00 25.2 C 20 % 0.67 C
3687 19-04-2009 18:51:00 24.9 C 20 % 0.42 C
3688 19-04-2009 19:03:00 24.5 C 20 % 0.09 C
3689 19-04-2009 19:15:59 24.2 C 20 % -0.15 C
3690 19-04-2009 19:27:59 23.7 C 22 % 0.74 C
3691 19-04-2009 19:39:00 23 C 24 % 1.37 C
3692 19-04-2009 19:51:59 22.2 C 27 % 2.33 C
3693 19-04-2009 20:03:59 21 C 31 % 3.24 C
3694 19-04-2009 20:14:59 19.3 C 34 % 3.06 C
3695 19-04-2009 20:26:59 18.3 C 36 % 2.99 C
3696 19-04-2009 20:39:59 17.2 C 40 % 3.5 C
3697 19-04-2009 20:51:59 16.6 C 41 % 3.31 C
3698 19-04-2009 21:03:59 16.2 C 44 % 3.95 C
3699 19-04-2009 21:15:58 15.8 C 47 % 4.52 C
3700 19-04-2009 21:27:58 15.4 C 49 % 4.75 C
Sensor: Nr:Datum:Temp:Feuchte:Taupunkt:
Aussen-T/F 3701 19-04-2009 21:39:59 15.2 C 51 % 5.14 C
3702 19-04-2009 21:51:58 14.9 C 52 % 5.14 C
3703 19-04-2009 22:03:58 14.6 C 53 % 5.14 C
3704 19-04-2009 22:15:57 14.3 C 54 % 5.13 C
3705 19-04-2009 22:27:57 14.1 C 55 % 5.21 C
3706 19-04-2009 22:40:59 13.8 C 57 % 5.44 C
3707 19-04-2009 22:52:59 13.7 C 58 % 5.6 C
3708 19-04-2009 23:04:59 13.4 C 59 % 5.56 C
3709 19-04-2009 23:17:00 13.1 C 61 % 5.76 C
3710 19-04-2009 23:29:00 12.9 C 63 % 6.04 C
3711 19-04-2009 23:41:00 12.7 C 64 % 6.07 C
3712 19-04-2009 23:53:00 12.6 C 65 % 6.2 C
3713 20-04-2009 00:05:00 12.4 C 66 % 6.23 C
3714 20-04-2009 00:17:00 12.2 C 67 % 6.26 C
3715 20-04-2009 00:29:00 12.1 C 68 % 6.38 C
3716 20-04-2009 00:41:00 11.8 C 70 % 6.51 C
3717 20-04-2009 00:53:00 11.7 C 71 % 6.62 C
3718 20-04-2009 01:05:00 11.6 C 71 % 6.53 C
3719 20-04-2009 01:17:00 11.3 C 72 % 6.44 C
3720 20-04-2009 01:28:00 11.1 C 73 % 6.45 C
3721 20-04-2009 01:40:00 11 C 73 % 6.35 C
3722 20-04-2009 01:52:00 10.9 C 74 % 6.45 C
3723 20-04-2009 02:04:00 10.7 C 74 % 6.26 C
3724 20-04-2009 02:16:00 10.4 C 74 % 5.97 C
3725 20-04-2009 02:28:00 10.2 C 75 % 5.97 C
Sensor: Nr:Datum:Temp:Feuchte:Taupunkt:
Aussen-T/F 3726 20-04-2009 02:40:00 10.1 C 76 % 6.07 C
3727 20-04-2009 02:52:00 9.9 C 78 % 6.25 C
3728 20-04-2009 03:04:00 9.7 C 79 % 6.24 C
3729 20-04-2009 03:16:01 9.4 C 80 % 6.13 C
3730 20-04-2009 03:28:01 9.3 C 81 % 6.21 C
3731 20-04-2009 03:40:01 9.1 C 81 % 6.02 C
3732 20-04-2009 03:52:01 9 C 81 % 5.92 C
3733 20-04-2009 04:04:01 8.9 C 83 % 6.17 C
3734 20-04-2009 04:16:01 8.7 C 83 % 5.98 C
3735 20-04-2009 04:28:01 8.6 C 83 % 5.88 C
3736 20-04-2009 04:40:01 8.4 C 83 % 5.69 C
3737 20-04-2009 04:52:01 8.3 C 84 % 5.76 C
3738 20-04-2009 05:04:01 8.1 C 84 % 5.56 C
3739 20-04-2009 05:16:01 8 C 84 % 5.47 C
3740 20-04-2009 05:28:01 7.8 C 86 % 5.61 C
3741 20-04-2009 05:40:01 7.6 C 86 % 5.41 C
3742 20-04-2009 05:52:01 7.5 C 87 % 5.48 C
3743 20-04-2009 06:04:01 7.3 C 86 % 5.12 C
3744 20-04-2009 06:16:01 7.3 C 87 % 5.28 C
3745 20-04-2009 06:28:01 7.1 C 87 % 5.09 C
3746 20-04-2009 06:40:01 7 C 87 % 4.99 C
3747 20-04-2009 06:52:58 6.8 C 89 % 5.12 C
3748 20-04-2009 07:04:58 6.8 C 89 % 5.12 C
3749 20-04-2009 07:16:59 6.9 C 89 % 5.22 C
3750 20-04-2009 07:28:59 7 C 89 % 5.31 C
Sensor: Nr:Datum:Temp:Feuchte:Taupunkt:
Aussen-T/F 3751 20-04-2009 07:40:02 7.2 C 90 % 5.67 C
3752 20-04-2009 07:52:01 7.1 C 90 % 5.57 C
3753 20-04-2009 08:04:02 7.2 C 89 % 5.51 C
3754 20-04-2009 08:16:01 7.3 C 89 % 5.61 C
3755 20-04-2009 08:28:01 7.4 C 89 % 5.71 C
3756 20-04-2009 08:40:01 7.7 C 89 % 6 C
3757 20-04-2009 08:52:02 8 C 88 % 6.14 C
3758 20-04-2009 09:04:01 7.9 C 89 % 6.2 C
3759 20-04-2009 09:16:00 8.2 C 89 % 6.5 C
3760 20-04-2009 09:28:00 8.4 C 89 % 6.7 C
3761 20-04-2009 09:40:01 8.9 C 89 % 7.19 C
3762 20-04-2009 09:52:00 9.6 C 88 % 7.71 C
3763 20-04-2009 10:04:00 10.4 C 86 % 8.16 C
3764 20-04-2009 10:16:00 11.1 C 82 % 8.15 C
3765 20-04-2009 10:28:00 12.1 C 79 % 8.57 C
3766 20-04-2009 10:40:00 13 C 73 % 8.28 C
3767 20-04-2009 10:52:59 13.5 C 66 % 7.28 C
3768 20-04-2009 11:04:00 14.1 C 64 % 7.4 C
3769 20-04-2009 11:16:00 14.9 C 61 % 7.45 C
3770 20-04-2009 11:28:00 15.7 C 58 % 7.47 C
3771 20-04-2009 11:40:59 16.2 C 56 % 7.42 C
3772 20-04-2009 11:52:59 16.8 C 52 % 6.9 C
3773 20-04-2009 12:04:59 17.2 C 49 % 6.4 C
3774 20-04-2009 12:16:59 17.6 C 46 % 5.86 C
3775 20-04-2009 12:28:59 18.3 C 43 % 5.52 C
Sensor: Nr:Datum:Temp:Feuchte:Taupunkt:
Aussen-T/F 3776 20-04-2009 12:40:58 18.7 C 43 % 5.88 C
3777 20-04-2009 12:52:59 18.9 C 41 % 5.37 C
3778 20-04-2009 13:04:58 19.2 C 37 % 4.17 C
3779 20-04-2009 13:16:58 20 C 37 % 4.88 C
3780 20-04-2009 13:28:58 20.9 C 35 % 4.88 C
3781 20-04-2009 13:40:58 21.2 C 30 % 2.95 C
3782 20-04-2009 13:52:58 21.4 C 29 % 2.65 C
3783 20-04-2009 14:04:57 21.5 C 28 % 2.24 C
3784 20-04-2009 14:16:58 21.4 C 28 % 2.16 C
3785 20-04-2009 14:28:58 22 C 26 % 1.63 C
3786 20-04-2009 14:40:58 23.1 C 25 % 2.02 C
3787 20-04-2009 14:52:57 22.7 C 23 % 0.52 C
3788 20-04-2009 15:04:58 23.7 C 21 % 0.1 C
3789 20-04-2009 15:16:57 23.8 C 20 % -0.48 C
3790 20-04-2009 15:28:57 23.7 C 20 % -0.57 C
3791 20-04-2009 15:40:57 23.8 C 20 % -0.48 C
3792 20-04-2009 15:52:56 24.1 C 20 % -0.24 C
3793 20-04-2009 16:04:57 24.1 C 20 % -0.24 C
3794 20-04-2009 16:16:56 24.3 C 20 % -0.07 C
3795 20-04-2009 16:28:56 25.2 C 20 % 0.67 C
3796 20-04-2009 16:40:56 25.7 C 20 % 1.08 C
3797 20-04-2009 16:52:56 26 C 20 % 1.32 C
3798 20-04-2009 17:04:56 26 C 20 % 1.32 C
3799 20-04-2009 17:16:56 27 C 20 % 2.15 C
3800 20-04-2009 17:28:56 26 C 20 % 1.32 C
Sensor: Nr:Datum:Temp:Feuchte:Taupunkt:
Aussen-T/F 3801 20-04-2009 17:40:56 25.6 C 20 % 1 C
3802 20-04-2009 17:52:56 27.1 C 20 % 2.23 C
3803 20-04-2009 18:04:55 25.9 C 20 % 1.24 C
3804 20-04-2009 18:16:55 25.7 C 20 % 1.08 C
3805 20-04-2009 18:28:55 25.3 C 20 % 0.75 C
3806 20-04-2009 18:40:55 23.9 C 24 % 2.12 C
3807 20-04-2009 18:52:55 22.8 C 27 % 2.84 C
3808 20-04-2009 19:04:54 22.4 C 26 % 1.97 C
3809 20-04-2009 19:16:55 21.5 C 29 % 2.74 C
3810 20-04-2009 19:28:55 21.2 C 29 % 2.48 C
3811 20-04-2009 19:40:55 21.2 C 30 % 2.95 C
3812 20-04-2009 19:52:54 20.9 C 32 % 3.61 C
3813 20-04-2009 20:04:55 20.4 C 32 % 3.17 C
3814 20-04-2009 20:16:54 19.7 C 34 % 3.41 C
3815 20-04-2009 20:28:54 19 C 36 % 3.61 C
3816 20-04-2009 20:40:54 18.5 C 40 % 4.66 C
3817 20-04-2009 20:52:54 18.1 C 38 % 3.57 C
3818 20-04-2009 21:04:53 17.6 C 38 % 3.13 C
3819 20-04-2009 21:16:54 17 C 38 % 2.6 C
3820 20-04-2009 21:28:54 16.7 C 40 % 3.05 C
3821 20-04-2009 21:40:54 16.3 C 41 % 3.04 C
3822 20-04-2009 21:52:53 16.1 C 43 % 3.53 C
3823 20-04-2009 22:04:54 15.9 C 42 % 3.02 C
3824 20-04-2009 22:16:53 15.5 C 43 % 2.99 C
3825 20-04-2009 22:28:53 15.2 C 43 % 2.72 C
Sensor: Nr:Datum:Temp:Feuchte:Taupunkt:
Aussen-T/F 3826 20-04-2009 22:41:55 14.8 C 45 % 3 C
3827 20-04-2009 22:53:55 14.6 C 46 % 3.12 C
3828 20-04-2009 23:05:55 14.2 C 47 % 3.06 C
3829 20-04-2009 23:17:55 14 C 48 % 3.18 C
3830 20-04-2009 23:29:55 13.7 C 49 % 3.19 C
3831 20-04-2009 23:41:55 13.7 C 50 % 3.48 C
3832 20-04-2009 23:53:55 13.6 C 49 % 3.1 C
3833 21-04-2009 00:05:55 13.2 C 49 % 2.73 C
3834 21-04-2009 00:17:55 13.2 C 50 % 3.02 C
3835 21-04-2009 00:29:55 12.9 C 51 % 3.02 C
3836 21-04-2009 00:41:55 12.8 C 51 % 2.93 C
3837 21-04-2009 00:53:55 12.5 C 52 % 2.92 C
3838 21-04-2009 01:05:55 12.3 C 53 % 3.01 C
3839 21-04-2009 01:17:55 11.9 C 56 % 3.41 C
3840 21-04-2009 01:29:55 11.5 C 58 % 3.54 C
3841 21-04-2009 01:41:55 11.4 C 58 % 3.44 C
3842 21-04-2009 01:53:55 11.1 C 60 % 3.64 C
3843 21-04-2009 02:05:55 10.7 C 61 % 3.5 C
3844 21-04-2009 02:17:56 10.6 C 60 % 3.17 C
3845 21-04-2009 02:29:56 10.5 C 61 % 3.31 C
3846 21-04-2009 02:41:56 10.2 C 63 % 3.48 C
3847 21-04-2009 02:53:56 10 C 64 % 3.51 C
3848 21-04-2009 03:05:56 9.8 C 65 % 3.54 C
3849 21-04-2009 03:17:56 9.6 C 66 % 3.57 C
3850 21-04-2009 03:29:56 9.3 C 66 % 3.28 C
Sensor: Nr:Datum:Temp:Feuchte:Taupunkt:
Aussen-T/F 3851 21-04-2009 03:41:56 9.2 C 67 % 3.4 C
3852 21-04-2009 03:53:56 9 C 68 % 3.42 C
3853 21-04-2009 04:05:56 8.8 C 69 % 3.44 C
3854 21-04-2009 04:17:56 8.7 C 70 % 3.54 C
3855 21-04-2009 04:29:56 8.5 C 72 % 3.75 C
3856 21-04-2009 04:41:56 8.2 C 74 % 3.85 C
3857 21-04-2009 04:53:56 8.1 C 74 % 3.75 C
3858 21-04-2009 05:05:56 7.9 C 75 % 3.75 C
3859 21-04-2009 05:17:56 7.9 C 76 % 3.94 C
3860 21-04-2009 05:29:56 7.7 C 76 % 3.75 C
3861 21-04-2009 05:41:56 7.6 C 78 % 4.02 C
3862 21-04-2009 05:53:56 7.5 C 78 % 3.92 C
3863 21-04-2009 06:05:57 7.4 C 79 % 4 C
3864 21-04-2009 06:17:57 7.2 C 79 % 3.81 C
3865 21-04-2009 06:29:57 7.1 C 80 % 3.89 C
3866 21-04-2009 06:41:57 7.1 C 80 % 3.89 C
3867 21-04-2009 06:53:55 7.1 C 81 % 4.07 C
3868 21-04-2009 07:05:55 7.1 C 81 % 4.07 C
3869 21-04-2009 07:17:54 7.1 C 81 % 4.07 C
3870 21-04-2009 07:29:54 7.1 C 82 % 4.24 C
3871 21-04-2009 07:41:54 7.3 C 82 % 4.44 C
3872 21-04-2009 07:53:54 7.4 C 82 % 4.53 C
3873 21-04-2009 08:05:54 7.5 C 83 % 4.81 C
3874 21-04-2009 08:17:54 7.8 C 82 % 4.92 C
3875 21-04-2009 08:29:54 8 C 81 % 4.94 C
Sensor: Nr:Datum:Temp:Feuchte:Taupunkt:
Aussen-T/F 3876 21-04-2009 08:41:54 8.2 C 81 % 5.14 C
3877 21-04-2009 08:53:53 8.5 C 80 % 5.25 C
3878 21-04-2009 09:05:53 8.9 C 79 % 5.46 C
3879 21-04-2009 09:17:54 9.4 C 79 % 5.95 C
3880 21-04-2009 09:29:54 10.2 C 76 % 6.16 C
3881 21-04-2009 09:41:53 10.8 C 74 % 6.36 C
3882 21-04-2009 09:53:53 11.5 C 71 % 6.43 C
3883 21-04-2009 10:05:53 12.2 C 65 % 5.82 C
3884 21-04-2009 10:17:53 12.7 C 63 % 5.85 C
3885 21-04-2009 10:29:53 13.4 C 61 % 6.04 C
3886 21-04-2009 10:41:52 14 C 58 % 5.88 C
3887 21-04-2009 10:53:53 14.7 C 56 % 6.02 C
3888 21-04-2009 11:05:52 15.3 C 51 % 5.23 C
3889 21-04-2009 11:17:52 15.9 C 45 % 4 C
3890 21-04-2009 11:29:52 16.4 C 44 % 4.13 C